Provisional Data: Choconut Creek near Vestal Center, NY


Please select a monitoring station.
Please select start date.
Please select start date.

Toggle Unit: C/F Toggle Unit: C/F
Sample Time Temperature (C) Temperature (F) Specific Conductivity (mS/cm) pH   Turbidity (NTU+) DO (mg/L)
12/4/2020 12:00:00 AM 4.27 39.686 0.094 7.02 3.12 12.57
12/4/2020 12:15:00 AM 4.27 39.686 0.094 7.04 3.24 12.58
12/4/2020 12:30:00 AM 4.27 39.686 0.094 7.06 3.11 12.57
12/4/2020 12:45:00 AM 4.27 39.686 0.094 7.06 3.47 12.54
12/4/2020 1:00:00 AM 4.27 39.686 0.094 7.04 3.18 12.5
12/4/2020 1:15:00 AM 4.27 39.686 0.094 7.06 3.29 12.54
12/4/2020 1:30:00 AM 4.26 39.668 0.094 7.02 3.22 12.53
12/4/2020 1:45:00 AM 4.26 39.668 0.094 7.04 3.23 12.54
12/4/2020 2:00:00 AM 4.26 39.668 0.094 7.03 3.8 12.55
12/4/2020 2:15:00 AM 4.26 39.668 0.094 7.05 3.27 12.51
12/4/2020 2:30:00 AM 4.25 39.65 0.094 7.05 3.43 12.52
12/4/2020 2:45:00 AM 4.25 39.65 0.094 7.01 3.2 12.53
12/4/2020 3:00:00 AM 4.25 39.65 0.094 7.03 3.31 12.52
12/4/2020 3:15:00 AM 4.25 39.65 0.094 7.04 3.31 12.53
12/4/2020 3:30:00 AM 4.25 39.65 0.094 7.03 3.27 12.5
12/4/2020 3:45:00 AM 4.25 39.65 0.094 7.03 3.16 12.52
12/4/2020 4:00:00 AM 4.24 39.632 0.094 7.02 4.88 12.53
12/4/2020 4:15:00 AM 4.25 39.65 0.095 7.04 3.34 12.52
12/4/2020 4:30:00 AM 4.25 39.65 0.095 7.03 3.54 12.52
12/4/2020 4:45:00 AM 4.26 39.668 0.094 7.03 3.33 12.48
12/4/2020 5:00:00 AM 4.26 39.668 0.095 7.02 3.36 12.49
12/4/2020 5:15:00 AM 4.26 39.668 0.095 7.04 3.59 12.51
12/4/2020 5:30:00 AM 4.27 39.686 0.095 7.05 3.61 12.52
12/4/2020 5:45:00 AM 4.27 39.686 0.095 7.05 3.52 12.51
12/4/2020 6:00:00 AM 4.28 39.704 0.094 7.02 3.28 12.49
12/4/2020 6:15:00 AM 4.28 39.704 0.095 7.03 3.17 12.5
12/4/2020 6:30:00 AM 4.29 39.722 0.095 7.02 3.13 12.5
12/4/2020 6:45:00 AM 4.29 39.722 0.095 7.03 3.18 12.51
12/4/2020 7:00:00 AM 4.29 39.722 0.095 7.02 3.32 12.5
12/4/2020 7:15:00 AM 4.3 39.74 0.095 7.04 3.24 12.49
12/4/2020 7:30:00 AM 4.3 39.74 0.094 7.02 3.13 12.51
12/4/2020 7:45:00 AM 4.31 39.758 0.095 7.04 3.15 12.47
12/4/2020 8:00:00 AM 4.32 39.776 0.094 7.03 3.61 12.53
12/4/2020 8:15:00 AM 4.33 39.794 0.095 7.04 3.12 12.58
12/4/2020 8:30:00 AM 4.34 39.812 0.094 7.05 3.19 12.62
12/4/2020 8:45:00 AM 4.35 39.83 0.094 7.03 3.43 12.6
12/4/2020 9:00:00 AM 4.36 39.848 0.094 7.05 3.18 12.71
12/4/2020 9:15:00 AM 4.38 39.884 0.094 7.07 8.31 12.79
12/4/2020 9:30:00 AM 4.41 39.938 0.094 7.08 4.85 12.89
12/4/2020 9:45:00 AM 4.44 39.992 0.094 7.11 8.05 12.97
12/4/2020 10:00:00 AM 4.47 40.046 0.094 7.11 13.35 13.03
12/4/2020 10:15:00 AM 4.5 40.1 0.091 7.12 25.91 13.12
12/4/2020 10:30:00 AM 4.54 40.172 0.094 7.14 309.98 13.21
12/4/2020 10:45:00 AM 4.59 40.262 0.094 7.16 12.38 13.26
12/4/2020 11:00:00 AM 4.61 40.298 0.094 7.19 4.38 13.33
12/4/2020 11:15:00 AM 4.63 40.334 0.094 7.19 5.97 13.39
12/4/2020 11:30:00 AM 4.66 40.388 0.094 7.2 5.15 13.43
12/4/2020 11:45:00 AM 4.69 40.442 0.094 7.22 3.5 13.48
12/4/2020 12:00:00 PM 4.72 40.496 0.094 7.23 3.36 13.5
12/4/2020 12:15:00 PM 4.76 40.568 0.094 7.24 14.9 13.52
12/4/2020 12:30:00 PM 4.8 40.64 0.094 7.25 10.17 13.55
12/4/2020 12:45:00 PM 4.85 40.73 0.094 7.26 4.57 13.59
12/4/2020 1:00:00 PM 4.93 40.874 0.094 7.28 3.93 13.66
12/4/2020 1:15:00 PM 5.05 41.09 0.094 7.29 15.83 13.62
12/4/2020 1:30:00 PM 5.14 41.252 0.094 7.31 5.59 13.72
12/4/2020 1:45:00 PM 5.21 41.378 0.093 7.33 3.57 13.75
12/4/2020 2:00:00 PM 5.28 41.504 0.093 7.32 5 13.75
12/4/2020 2:15:00 PM 5.37 41.666 0.093 7.34 3.54 13.73
12/4/2020 2:30:00 PM 5.42 41.756 0.093 7.35 3.56 13.74
12/4/2020 2:45:00 PM 5.44 41.792 0.093 7.34 10.13 13.65
12/4/2020 3:00:00 PM 5.46 41.828 0.093 7.34 3.93 13.63
12/4/2020 3:15:00 PM 5.46 41.828 0.093 7.32 13.56 13.56
12/4/2020 3:30:00 PM 5.44 41.792 0.093 7.32 3.64 13.5
12/4/2020 3:45:00 PM 5.43 41.774 0.093 7.29 9.31 13.3
12/4/2020 4:00:00 PM 5.44 41.792 0.093 7.28 4.15 13.26
12/4/2020 4:15:00 PM 5.47 41.846 0.093 7.26 4.97 13.14
12/4/2020 4:30:00 PM 5.51 41.918 0.093 7.24 3.53 13.02
12/4/2020 4:45:00 PM 5.54 41.972 0.093 7.22 7.25 12.91
12/4/2020 5:00:00 PM 5.57 42.026 0.093 7.2 4.24 12.84
12/4/2020 5:15:00 PM 5.58 42.044 0.093 7.19 5.45 12.75
12/4/2020 5:30:00 PM 5.59 42.062 0.093 7.17 4.92 12.72
12/4/2020 5:45:00 PM 5.59 42.062 0.093 7.16 4.62 12.65
12/4/2020 6:00:00 PM 5.59 42.062 0.093 7.16 4.05 12.6
12/4/2020 6:15:00 PM 5.59 42.062 0.093 7.15 3.37 12.55
12/4/2020 6:30:00 PM 5.57 42.026 0.093 7.14 8.51 12.52
12/4/2020 6:45:00 PM 5.56 42.008 0.093 7.13 4.12 12.47
12/4/2020 7:00:00 PM 5.56 42.008 0.093 7.13 3.21 12.44
12/4/2020 7:15:00 PM 5.56 42.008 0.093 7.11 3.4 12.38
12/4/2020 7:30:00 PM 5.56 42.008 0.093 7.11 4.08 12.36
12/4/2020 7:45:00 PM 5.55 41.99 0.093 7.1 4.16 12.34
12/4/2020 8:00:00 PM 5.56 42.008 0.093 7.1 3.32 12.3
12/4/2020 8:15:00 PM 5.56 42.008 0.093 7.09 3.59 12.27
12/4/2020 8:30:00 PM 5.55 41.99 0.093 7.08 3.32 12.25
12/4/2020 8:45:00 PM 5.55 41.99 0.093 7.08 3.49 12.23
12/4/2020 9:00:00 PM 5.55 41.99 0.093 7.08 3.88 12.2
12/4/2020 9:15:00 PM 5.54 41.972 0.093 7.07 3.46 12.18
12/4/2020 9:30:00 PM 5.54 41.972 0.094 7.07 3.47 12.16
12/4/2020 9:45:00 PM 5.53 41.954 0.094 7.07 3.65 12.17
12/4/2020 10:00:00 PM 5.53 41.954 0.094 7.06 3.26 12.15
12/4/2020 10:15:00 PM 5.52 41.936 0.094 7.06 3.15 12.13
12/4/2020 10:30:00 PM 5.5 41.9 0.094 7.06 3.81 12.13
12/4/2020 10:45:00 PM 5.49 41.882 0.094 7.06 3.21 12.12
12/4/2020 11:00:00 PM 5.48 41.864 0.094 7.06 3.19 12.11
12/4/2020 11:15:00 PM 5.46 41.828 0.094 7.05 3.25 12.12
12/4/2020 11:30:00 PM 5.44 41.792 0.094 7.05 5.49 12.09
12/4/2020 11:45:00 PM 5.42 41.756 0.094 7.05 4.32 12.07
12/5/2020 12:00:00 AM 5.41 41.738 0.094 7.05 3.25 12.09
12/5/2020 12:15:00 AM 5.39 41.702 0.094 7.04 3.29 12.09
12/5/2020 12:30:00 AM 5.38 41.684 0.094 7.05 3.61 12.08
12/5/2020 12:45:00 AM 5.37 41.666 0.094 7.05 3.37 12.07
12/5/2020 1:00:00 AM 5.35 41.63 0.094 7.04 3.53 12.08
12/5/2020 1:15:00 AM 5.33 41.594 0.095 7.04 3.21 12.1
12/5/2020 1:30:00 AM 5.32 41.576 0.095 7.04 4.63 12.06
12/5/2020 1:45:00 AM 5.3 41.54 0.095 7.04 3.49 12.08
12/5/2020 2:00:00 AM 5.27 41.486 0.095 7.04 3.42 12.1
12/5/2020 2:15:00 AM 5.25 41.45 0.095 7.04 3.54 12.1
12/5/2020 2:30:00 AM 5.23 41.414 0.095 7.04 3.36 12.09
12/5/2020 2:45:00 AM 5.21 41.378 0.095 7.04 3.64 12.1
12/5/2020 3:00:00 AM 5.19 41.342 0.095 7.03 3.41 12.09
12/5/2020 3:15:00 AM 5.17 41.306 0.095 7.03 3.23 12.11
12/5/2020 3:30:00 AM 5.15 41.27 0.095 7.03 3.2 12.12
12/5/2020 3:45:00 AM 5.14 41.252 0.095 7.04 3.48 12.12
12/5/2020 4:00:00 AM 5.13 41.234 0.095 7.03 3.28 12.12
12/5/2020 4:15:00 AM 5.11 41.198 0.095 7.03 3.82 12.12
12/5/2020 4:30:00 AM 5.09 41.162 0.095 7.04 3.66 12.11
12/5/2020 4:45:00 AM 5.07 41.126 0.095 7.03 3.29 12.13
12/5/2020 5:00:00 AM 5.06 41.108 0.095 7.03 3.41 12.13
12/5/2020 5:15:00 AM 5.05 41.09 0.095 7.03 3.34 12.14
12/5/2020 5:30:00 AM 5.04 41.072 0.095 7.03 3.31 12.15
12/5/2020 5:45:00 AM 5.03 41.054 0.095 7.03 3.16 12.14
12/5/2020 6:00:00 AM 5.02 41.036 0.095 7.03 3.28 12.13
12/5/2020 6:15:00 AM 5.02 41.036 0.095 7.04 3.18 12.16
12/5/2020 6:30:00 AM 5.01 41.018 0.095 7.04 3.35 12.16
12/5/2020 6:45:00 AM 5.01 41.018 0.095 7.03 3.29 12.15
12/5/2020 7:00:00 AM 5 41 0.095 7.04 4.43 12.16
12/5/2020 7:15:00 AM 4.99 40.982 0.095 7.04 3.09 12.18
12/5/2020 7:30:00 AM 4.98 40.964 0.095 7.04 3.3 12.17
12/5/2020 7:45:00 AM 4.98 40.964 0.095 7.05 3.41 12.2
12/5/2020 8:00:00 AM 4.97 40.946 0.095 7.04 3.23 12.24
12/5/2020 8:15:00 AM 4.97 40.946 0.095 7.05 3.09 12.25
12/5/2020 8:30:00 AM 4.96 40.928 0.095 7.05 3.17 12.28
12/5/2020 8:45:00 AM 4.96 40.928 0.095 7.07 3.74 12.33
12/5/2020 9:00:00 AM 4.97 40.946 0.095 7.07 3.07 12.42
12/5/2020 9:15:00 AM 4.97 40.946 0.095 7.09 3.26 12.51
12/5/2020 9:30:00 AM 4.97 40.946 0.095 7.1 3.15 12.56
12/5/2020 9:45:00 AM 4.96 40.928 0.095 7.09 5.98 12.53
12/5/2020 10:00:00 AM 4.96 40.928 0.095 7.1 3.3 12.54
12/5/2020 10:15:00 AM 4.95 40.91 0.095 7.1 3.13 12.57
12/5/2020 10:30:00 AM 4.96 40.928 0.095 7.11 3.02 12.65
12/5/2020 10:45:00 AM 4.96 40.928 0.095 7.13 3.1 12.72
12/5/2020 11:00:00 AM 5 41 0.095 7.15 2.98 12.84
12/5/2020 11:15:00 AM 5.02 41.036 0.095 7.16 3.12 12.93
12/5/2020 11:30:00 AM 5.02 41.036 0.095 7.17 3 12.93
12/5/2020 11:45:00 AM 5.02 41.036 0.095 7.18 3.25 13.01
12/5/2020 12:00:00 PM 5.04 41.072 0.095 7.19 2.96 13.09
12/5/2020 12:15:00 PM 5.06 41.108 0.095 7.21 3.13 13.18
12/5/2020 12:30:00 PM 5.07 41.126 0.094 7.23 2.95 13.24
12/5/2020 12:45:00 PM 5.12 41.216 0.095 7.25 3.21 13.31
12/5/2020 1:00:00 PM 5.13 41.234 0.095 7.24 3.01 13.25
12/5/2020 1:15:00 PM 5.11 41.198 0.094 7.25 3 13.26
12/5/2020 1:30:00 PM 5.14 41.252 0.094 7.27 2.98 13.37
12/5/2020 1:45:00 PM 5.19 41.342 0.094 7.29 3.26 13.41
12/5/2020 2:00:00 PM 5.21 41.378 0.094 7.3 3.06 13.45
12/5/2020 2:15:00 PM 5.21 41.378 0.094 7.31 3 13.47
12/5/2020 2:30:00 PM 5.22 41.396 0.094 7.3 2.97 13.45
12/5/2020 2:45:00 PM 5.21 41.378 0.094 7.3 2.96 13.39
12/5/2020 3:00:00 PM 5.19 41.342 0.094 7.29 3.07 13.38
12/5/2020 3:15:00 PM 5.17 41.306 0.094 7.3 6.15 13.37
12/5/2020 3:30:00 PM 5.15 41.27 0.094 7.28 2.94 13.29
12/5/2020 3:45:00 PM 5.12 41.216 0.094 7.27 3 13.23
12/5/2020 4:00:00 PM 5.1 41.18 0.094 7.26 2.92 13.14
12/5/2020 4:15:00 PM 5.09 41.162 0.094 7.23 3.43 13.04
12/5/2020 4:30:00 PM 5.06 41.108 0.094 7.22 3.05 12.97
12/5/2020 4:45:00 PM 5.04 41.072 0.094 7.21 2.86 12.91
12/5/2020 5:00:00 PM 5.02 41.036 0.094 7.2 3.06 12.84
12/5/2020 5:15:00 PM 5.01 41.018 0.094 7.19 3.19 12.78
12/5/2020 5:30:00 PM 5 41 0.094 7.18 3.88 12.74
12/5/2020 5:45:00 PM 4.97 40.946 0.094 7.16 3.02 12.7
12/5/2020 6:00:00 PM 4.94 40.892 0.094 7.16 3.02 12.69
12/5/2020 6:15:00 PM 4.92 40.856 0.094 7.15 3.59 12.65
12/5/2020 6:30:00 PM 4.89 40.802 0.094 7.15 3.08 12.64
12/5/2020 6:45:00 PM 4.87 40.766 0.094 7.14 3.3 12.61
12/5/2020 7:00:00 PM 4.84 40.712 0.094 7.14 3.28 12.59
12/5/2020 7:15:00 PM 4.81 40.658 0.094 7.13 3.1 12.56
12/5/2020 7:30:00 PM 4.79 40.622 0.094 7.12 3.09 12.52
12/5/2020 7:45:00 PM 4.77 40.586 0.094 7.12 2.91 12.52
12/5/2020 8:00:00 PM 4.74 40.532 0.094 7.11 3.06 12.51
12/5/2020 8:15:00 PM 4.72 40.496 0.094 7.11 2.94 12.48
12/5/2020 8:30:00 PM 4.7 40.46 0.094 7.1 3.29 12.47
12/5/2020 8:45:00 PM 4.67 40.406 0.095 7.1 2.98 12.46
12/5/2020 9:00:00 PM 4.65 40.37 0.095 7.09 3.03 12.45
12/5/2020 9:15:00 PM 4.63 40.334 0.095 7.09 2.92 12.44
12/5/2020 9:30:00 PM 4.61 40.298 0.095 7.09 2.99 12.43
12/5/2020 9:45:00 PM 4.58 40.244 0.094 7.08 3.15 12.42
12/5/2020 10:00:00 PM 4.55 40.19 0.095 7.08 3.15 12.41
12/5/2020 10:15:00 PM 4.55 40.19 0.095 7.09 3.09 12.4
12/5/2020 10:30:00 PM 4.53 40.154 0.095 7.08 2.99 12.41
12/5/2020 10:45:00 PM 4.5 40.1 0.095 7.07 3.05 12.41
12/5/2020 11:00:00 PM 4.48 40.064 0.094 7.07 3.15 12.41
12/5/2020 11:15:00 PM 4.46 40.028 0.094 7.07 3.32 12.41
12/5/2020 11:30:00 PM 4.44 39.992 0.095 7.07 3.03 12.41
12/5/2020 11:45:00 PM 4.42 39.956 0.094 7.07 2.98 12.41
12/6/2020 12:00:00 AM 4.4 39.92 0.094 7.07 2.98 12.43
12/6/2020 12:15:00 AM 4.38 39.884 0.094 7.07 2.94 12.42
12/6/2020 12:30:00 AM 4.35 39.83 0.095 7.07 3.01 12.42
12/6/2020 12:45:00 AM 4.33 39.794 0.095 7.07 2.9 12.41
12/6/2020 1:00:00 AM 4.3 39.74 0.095 7.07 2.98 12.43
12/6/2020 1:15:00 AM 4.27 39.686 0.095 7.06 3 12.43
12/6/2020 1:30:00 AM 4.24 39.632 0.095 7.07 3.06 12.45
12/6/2020 1:45:00 AM 4.21 39.578 0.095 7.06 2.96 12.44
12/6/2020 2:00:00 AM 4.19 39.542 0.095 7.06 2.99 12.44
12/6/2020 2:15:00 AM 4.17 39.506 0.095 7.07 3.09 12.45
12/6/2020 2:30:00 AM 4.14 39.452 0.095 7.06 2.97 12.46
12/6/2020 2:45:00 AM 4.1 39.38 0.095 7.06 3.84 12.46
12/6/2020 3:00:00 AM 4.07 39.326 0.095 7.06 2.98 12.46
12/6/2020 3:15:00 AM 4.04 39.272 0.096 7.06 2.95 12.48
12/6/2020 3:30:00 AM 4.02 39.236 0.096 7.06 2.91 12.49
12/6/2020 3:45:00 AM 3.99 39.182 0.096 7.06 2.93 12.49
12/6/2020 4:00:00 AM 3.96 39.128 0.096 7.06 2.95 12.5
12/6/2020 4:15:00 AM 3.93 39.074 0.096 7.06 3 12.5
12/6/2020 4:30:00 AM 3.89 39.002 0.096 7.06 3.06 12.51
12/6/2020 4:45:00 AM 3.87 38.966 0.096 7.07 3.1 12.51
12/6/2020 5:00:00 AM 3.84 38.912 0.096 7.06 50.92 12.53
12/6/2020 5:15:00 AM 3.81 38.858 0.096 7.06 3.63 12.54
12/6/2020 5:30:00 AM 3.78 38.804 0.096 7.06 2.84 12.55
12/6/2020 5:45:00 AM 3.75 38.75 0.096 7.07 3.59 12.55
12/6/2020 6:00:00 AM 3.72 38.696 0.096 7.05 2.95 12.57
12/6/2020 6:15:00 AM 3.69 38.642 0.096 7.06 3.03 12.58
12/6/2020 6:30:00 AM 3.65 38.57 0.096 7.06 3.28 12.58
12/6/2020 6:45:00 AM 3.62 38.516 0.096 7.05 3.31 12.59
12/6/2020 7:00:00 AM 3.58 38.444 0.096 7.06 3.32 12.62
12/6/2020 7:15:00 AM 3.56 38.408 0.096 7.06 4.14 12.64
12/6/2020 7:30:00 AM 3.54 38.372 0.096 7.06 3.13 12.65
12/6/2020 7:45:00 AM 3.51 38.318 0.096 7.06 3.11 12.69
12/6/2020 8:00:00 AM 3.5 38.3 0.096 7.06 5.16 12.72
12/6/2020 8:15:00 AM 3.49 38.282 0.096 7.07 6.13 12.79
12/6/2020 8:30:00 AM 3.47 38.246 0.096 7.08 4.63 12.85
12/6/2020 8:45:00 AM 3.47 38.246 0.096 7.1 4.17 13
12/6/2020 9:00:00 AM 3.46 38.228 0.096 7.11 3.29 13.11
12/6/2020 9:15:00 AM 3.45 38.21 0.096 7.13 3.15 13.19
12/6/2020 9:30:00 AM 3.45 38.21 0.096 7.14 3.23 13.26
12/6/2020 9:45:00 AM 3.45 38.21 0.096 7.16 3.34 13.38
12/6/2020 10:00:00 AM 3.44 38.192 0.095 7.18 3.92 13.45
12/6/2020 10:15:00 AM 3.44 38.192 0.096 7.18 3.43 13.51
12/6/2020 10:30:00 AM 3.43 38.174 0.096 7.19 4.19 13.54
12/6/2020 10:45:00 AM 3.43 38.174 0.096 7.2 5.73 13.59
12/6/2020 11:00:00 AM 3.42 38.156 0.095 7.22 5.77 13.66
12/6/2020 11:15:00 AM 3.43 38.174 0.095 7.23 3.82 13.73
12/6/2020 11:30:00 AM 3.42 38.156 0.095 7.24 3.83 13.76
12/6/2020 11:45:00 AM 3.42 38.156 0.095 7.25 3.17 13.81
12/6/2020 12:00:00 PM 3.43 38.174 0.095 7.26 3.57 13.88
12/6/2020 12:15:00 PM 3.45 38.21 0.095 7.27 4.18 13.94
12/6/2020 12:30:00 PM 3.46 38.228 0.095 7.28 3.48 13.97
12/6/2020 12:45:00 PM 3.48 38.264 0.095 7.29 3.51 14
12/6/2020 1:00:00 PM 3.48 38.264 0.095 7.3 3.17 14.03
12/6/2020 1:15:00 PM 3.47 38.246 0.095 7.31 3.28 14.04
12/6/2020 1:30:00 PM 3.48 38.264 0.095 7.32 3.12 14.07
12/6/2020 1:45:00 PM 3.49 38.282 0.095 7.32 3.53 14.08
12/6/2020 2:00:00 PM 3.48 38.264 0.095 7.33 2.97 14.11
12/6/2020 2:15:00 PM 3.48 38.264 0.095 7.34 3.11 14.12
12/6/2020 2:30:00 PM 3.49 38.282 0.095 7.34 3.2 14.14
12/6/2020 2:45:00 PM 3.51 38.318 0.095 7.36 3.11 14.18
12/6/2020 3:00:00 PM 3.51 38.318 0.095 7.36 3.07 14.19
12/6/2020 3:15:00 PM 3.5 38.3 0.095 7.35 2.9 14.19
12/6/2020 3:30:00 PM 3.49 38.282 0.095 7.36 4.2 14.17
12/6/2020 3:45:00 PM 3.48 38.264 0.095 7.36 3.23 14.15
12/6/2020 4:00:00 PM 3.47 38.246 0.095 7.35 3.34 14.07
12/6/2020 4:15:00 PM 3.45 38.21 0.095 7.33 2.99 13.99
12/6/2020 4:30:00 PM 3.42 38.156 0.095 7.31 3.26 13.91
12/6/2020 4:45:00 PM 3.4 38.12 0.095 7.29 3.57 13.82
12/6/2020 5:00:00 PM 3.37 38.066 0.095 7.27 2.95 13.71
12/6/2020 5:15:00 PM 3.34 38.012 0.095 7.25 2.99 13.63
12/6/2020 5:30:00 PM 3.31 37.958 0.095 7.24 3.72 13.56
12/6/2020 5:45:00 PM 3.28 37.904 0.095 7.21 2.86 13.49
12/6/2020 6:00:00 PM 3.27 37.886 0.095 7.2 3.02 13.44
12/6/2020 6:15:00 PM 3.26 37.868 0.095 7.19 2.89 13.39
12/6/2020 6:30:00 PM 3.25 37.85 0.095 7.19 3.55 13.36
12/6/2020 6:45:00 PM 3.23 37.814 0.095 7.17 3.04 13.33
12/6/2020 7:00:00 PM 3.21 37.778 0.095 7.17 2.92 13.31
12/6/2020 7:15:00 PM 3.2 37.76 0.095 7.17 3.13 13.3
12/6/2020 7:30:00 PM 3.18 37.724 0.095 7.16 2.91 13.26
12/6/2020 7:45:00 PM 3.14 37.652 0.095 7.16 2.82 13.24
12/6/2020 8:00:00 PM 3.12 37.616 0.095 7.14 2.83 13.21
12/6/2020 8:15:00 PM 3.11 37.598 0.095 7.14 2.86 13.19
12/6/2020 8:30:00 PM 3.09 37.562 0.095 7.13 2.87 13.17
12/6/2020 8:45:00 PM 3.07 37.526 0.095 7.13 2.98 13.15
12/6/2020 9:00:00 PM 3.05 37.49 0.095 7.12 2.78 13.12
12/6/2020 9:15:00 PM 3.03 37.454 0.095 7.13 2.79 13.1
12/6/2020 9:30:00 PM 3.02 37.436 0.095 7.12 2.97 13.08
12/6/2020 9:45:00 PM 3 37.4 0.096 7.11 2.81 13.07
12/6/2020 10:00:00 PM 2.98 37.364 0.096 7.1 3.28 13.06
12/6/2020 10:15:00 PM 2.97 37.346 0.096 7.1 3.37 13.05
12/6/2020 10:30:00 PM 2.96 37.328 0.095 7.1 3.2 13.03
12/6/2020 10:45:00 PM 2.95 37.31 0.096 7.1 2.88 13.02
12/6/2020 11:00:00 PM 2.94 37.292 0.096 7.1 2.87 13.01
12/6/2020 11:15:00 PM 2.94 37.292 0.096 7.09 2.88 13
12/6/2020 11:30:00 PM 2.93 37.274 0.096 7.09 2.84 12.99
12/6/2020 11:45:00 PM 2.93 37.274 0.096 7.09 2.91 13
12/7/2020 12:00:00 AM 2.92 37.256 0.096 7.08 2.99 12.99
12/7/2020 12:15:00 AM 2.91 37.238 0.096 7.09 3 12.99
12/7/2020 12:30:00 AM 2.91 37.238 0.096 7.08 3.09 12.98
12/7/2020 12:45:00 AM 2.9 37.22 0.096 7.08 2.93 12.98
12/7/2020 1:00:00 AM 2.88 37.184 0.096 7.08 2.9 12.99
12/7/2020 1:15:00 AM 2.86 37.148 0.096 7.08 2.85 12.98
12/7/2020 1:30:00 AM 2.86 37.148 0.096 7.08 2.9 12.99
12/7/2020 1:45:00 AM 2.84 37.112 0.096 7.07 2.87 12.98
12/7/2020 2:00:00 AM 2.83 37.094 0.096 7.07 2.8 12.99
12/7/2020 2:15:00 AM 2.81 37.058 0.096 7.07 2.95 12.99
12/7/2020 2:30:00 AM 2.79 37.022 0.096 7.07 3.48 12.99
12/7/2020 2:45:00 AM 2.78 37.004 0.096 7.08 3 12.98
12/7/2020 3:00:00 AM 2.77 36.986 0.096 7.07 2.89 12.99
12/7/2020 3:15:00 AM 2.76 36.968 0.096 7.08 3.18 12.99
12/7/2020 3:30:00 AM 2.75 36.95 0.097 7.07 2.91 13
12/7/2020 3:45:00 AM 2.74 36.932 0.097 7.07 3 12.99
12/7/2020 4:00:00 AM 2.72 36.896 0.097 7.07 3.05 12.99
12/7/2020 4:15:00 AM 2.71 36.878 0.097 7.07 3 12.99
12/7/2020 4:30:00 AM 2.7 36.86 0.097 7.07 3.04 13.01
12/7/2020 4:45:00 AM 2.68 36.824 0.097 7.07 2.97 13.01
12/7/2020 5:00:00 AM 2.66 36.788 0.097 7.07 3.05 13
12/7/2020 5:15:00 AM 2.64 36.752 0.097 7.07 3.35 13.01
12/7/2020 5:30:00 AM 2.62 36.716 0.097 7.06 3.07 13.01
12/7/2020 5:45:00 AM 2.6 36.68 0.097 7.07 3.03 13.02
12/7/2020 6:00:00 AM 2.58 36.644 0.097 7.07 2.97 13.01
12/7/2020 6:15:00 AM 2.57 36.626 0.097 7.07 3.07 13.03
12/7/2020 6:30:00 AM 2.55 36.59 0.097 7.07 2.97 13.03
12/7/2020 6:45:00 AM 2.54 36.572 0.097 7.07 2.98 13.03
12/7/2020 7:00:00 AM 2.52 36.536 0.097 7.07 2.93 13.04
12/7/2020 7:15:00 AM 2.51 36.518 0.097 7.07 3.02 13.04
12/7/2020 7:30:00 AM 2.51 36.518 0.097 7.07 2.95 13.06
12/7/2020 7:45:00 AM 2.5 36.5 0.097 7.07 2.99 13.1
12/7/2020 8:00:00 AM 2.5 36.5 0.097 7.08 2.98 13.14
12/7/2020 8:15:00 AM 2.5 36.5 0.097 7.09 3.04 13.24
12/7/2020 8:30:00 AM 2.5 36.5 0.097 7.11 4.16 13.36
12/7/2020 8:45:00 AM 2.52 36.536 0.097 7.12 2.86 13.47
12/7/2020 9:00:00 AM 2.53 36.554 0.097 7.14 2.95 13.58
12/7/2020 9:15:00 AM 2.55 36.59 0.097 7.16 3 13.69
12/7/2020 9:30:00 AM 2.57 36.626 0.096 7.18 2.95 13.79
12/7/2020 9:45:00 AM 2.59 36.662 0.096 7.19 2.96 13.89
12/7/2020 10:00:00 AM 2.62 36.716 0.096 7.21 2.97 13.96
12/7/2020 10:15:00 AM 2.65 36.77 0.096 7.22 3 14.04
12/7/2020 10:30:00 AM 2.66 36.788 0.096 7.24 2.88 14.08
12/7/2020 10:45:00 AM 2.73 36.914 0.096 7.26 2.89 14.14
12/7/2020 11:00:00 AM 2.76 36.968 0.096 7.27 2.88 14.17
12/7/2020 11:15:00 AM 2.74 36.932 0.096 7.26 2.9 14.14
12/7/2020 11:30:00 AM 2.73 36.914 0.096 7.27 3.18 14.14
12/7/2020 11:45:00 AM 2.75 36.95 0.096 7.28 2.92 14.18
12/7/2020 12:00:00 PM 2.77 36.986 0.096 7.29 2.94 14.23
12/7/2020 12:15:00 PM 2.8 37.04 0.096 7.29 2.93 14.26
12/7/2020 12:30:00 PM 2.82 37.076 0.096 7.31 3.03 14.29
12/7/2020 12:45:00 PM 2.85 37.13 0.096 7.32 2.94 14.31
12/7/2020 1:00:00 PM 2.91 37.238 0.096 7.33 3.28 14.37
12/7/2020 1:15:00 PM 2.97 37.346 0.096 7.34 3.01 14.4
12/7/2020 1:30:00 PM 3.01 37.418 0.096 7.36 3 14.42
12/7/2020 1:45:00 PM 3.04 37.472 0.096 7.36 3.08 14.45
12/7/2020 2:00:00 PM 3.05 37.49 0.095 7.37 3.97 14.44
12/7/2020 2:15:00 PM 3.07 37.526 0.095 7.37 3.41 14.45
12/7/2020 2:30:00 PM 3.1 37.58 0.095 7.38 2.84 14.45
12/7/2020 2:45:00 PM 3.09 37.562 0.095 7.38 2.82 14.41
12/7/2020 3:00:00 PM 3.08 37.544 0.095 7.37 3.06 14.38
12/7/2020 3:15:00 PM 3.06 37.508 0.096 7.37 2.82 14.33
12/7/2020 3:30:00 PM 3.04 37.472 0.096 7.35 2.8 14.27
12/7/2020 3:45:00 PM 3.03 37.454 0.096 7.34 2.82 14.18
12/7/2020 4:00:00 PM 3.01 37.418 0.096 7.32 2.79 14.1
12/7/2020 4:15:00 PM 3 37.4 0.096 7.31 2.71 14
12/7/2020 4:30:00 PM 2.99 37.382 0.096 7.29 2.84 13.91
12/7/2020 4:45:00 PM 2.98 37.364 0.096 7.27 2.75 13.82
12/7/2020 5:00:00 PM 2.97 37.346 0.096 7.25 2.85 13.74
12/7/2020 5:15:00 PM 2.97 37.346 0.096 7.24 2.74 13.66
12/7/2020 5:30:00 PM 2.96 37.328 0.096 7.23 2.77 13.6
12/7/2020 5:45:00 PM 2.95 37.31 0.096 7.2 2.75 13.54
12/7/2020 6:00:00 PM 2.94 37.292 0.096 7.2 3.11 13.49
12/7/2020 6:15:00 PM 2.92 37.256 0.096 7.2 3.86 13.45
12/7/2020 6:30:00 PM 2.91 37.238 0.096 7.18 2.98 13.42
12/7/2020 6:45:00 PM 2.9 37.22 0.096 7.17 2.93 13.38
12/7/2020 7:00:00 PM 2.87 37.166 0.096 7.17 3 13.36
12/7/2020 7:15:00 PM 2.85 37.13 0.096 7.16 2.87 13.34
12/7/2020 7:30:00 PM 2.84 37.112 0.096 7.16 2.92 13.31
12/7/2020 7:45:00 PM 2.82 37.076 0.096 7.15 2.59 13.29
12/7/2020 8:00:00 PM 2.79 37.022 0.096 7.15 2.6 13.26
12/7/2020 8:15:00 PM 2.77 36.986 0.096 7.14 2.6 13.24
12/7/2020 8:30:00 PM 2.74 36.932 0.096 7.13 2.57 13.22
12/7/2020 8:45:00 PM 2.72 36.896 0.096 7.12 2.92 13.2
12/7/2020 9:00:00 PM 2.69 36.842 0.096 7.12 2.51 13.17
12/7/2020 9:15:00 PM 2.67 36.806 0.096 7.12 2.58 13.15
12/7/2020 9:30:00 PM 2.66 36.788 0.096 7.11 2.52 13.14
12/7/2020 9:45:00 PM 2.64 36.752 0.096 7.1 2.61 13.13
12/7/2020 10:00:00 PM 2.63 36.734 0.096 7.11 2.59 13.12
12/7/2020 10:15:00 PM 2.62 36.716 0.096 7.1 2.61 13.11
12/7/2020 10:30:00 PM 2.61 36.698 0.096 7.1 2.63 13.1
12/7/2020 10:45:00 PM 2.6 36.68 0.096 7.09 2.57 13.09
12/7/2020 11:00:00 PM 2.6 36.68 0.096 7.09 2.59 13.08
12/7/2020 11:15:00 PM 2.59 36.662 0.096 7.09 2.61 13.08
12/7/2020 11:30:00 PM 2.57 36.626 0.096 7.1 2.61 13.07
12/7/2020 11:45:00 PM 2.56 36.608 0.096 7.09 2.58 13.07
12/8/2020 12:00:00 AM 2.55 36.59 0.096 7.09 2.62 13.07
12/8/2020 12:15:00 AM 2.53 36.554 0.096 7.09 2.63 13.07
12/8/2020 12:30:00 AM 2.52 36.536 0.096 7.08 2.56 13.07
12/8/2020 12:45:00 AM 2.52 36.536 0.096 7.08 2.6 13.07
12/8/2020 1:00:00 AM 2.5 36.5 0.096 7.08 2.57 13.07
12/8/2020 1:15:00 AM 2.48 36.464 0.096 7.08 2.48 13.07
12/8/2020 1:30:00 AM 2.47 36.446 0.097 7.08 2.59 13.06
12/8/2020 1:45:00 AM 2.46 36.428 0.097 7.08 2.58 13.07
12/8/2020 2:00:00 AM 2.45 36.41 0.097 7.08 2.61 13.07
12/8/2020 2:15:00 AM 2.43 36.374 0.097 7.08 2.63 13.08
12/8/2020 2:30:00 AM 2.42 36.356 0.097 7.07 2.53 13.07
12/8/2020 2:45:00 AM 2.4 36.32 0.097 7.08 2.73 13.08
12/8/2020 3:00:00 AM 2.38 36.284 0.097 7.08 2.59 13.09
12/8/2020 3:15:00 AM 2.36 36.248 0.097 7.08 2.61 13.09
12/8/2020 3:30:00 AM 2.33 36.194 0.097 7.07 2.66 13.09
12/8/2020 3:45:00 AM 2.31 36.158 0.097 7.07 2.62 13.09
12/8/2020 4:00:00 AM 2.29 36.122 0.097 7.08 2.63 13.1
12/8/2020 4:15:00 AM 2.27 36.086 0.097 7.07 2.66 13.1
12/8/2020 4:30:00 AM 2.25 36.05 0.097 7.08 2.63 13.11
12/8/2020 4:45:00 AM 2.23 36.014 0.098 7.07 2.69 13.11
12/8/2020 5:00:00 AM 2.22 35.996 0.098 7.08 2.67 13.12
12/8/2020 5:15:00 AM 2.2 35.96 0.098 7.07 2.67 13.13
12/8/2020 5:30:00 AM 2.18 35.924 0.098 7.07 2.58 13.13
12/8/2020 5:45:00 AM 2.17 35.906 0.098 7.07 2.67 13.13
12/8/2020 6:00:00 AM 2.15 35.87 0.098 7.07 2.64 13.14
12/8/2020 6:15:00 AM 2.13 35.834 0.098 7.08 2.73 13.14
12/8/2020 6:30:00 AM 2.11 35.798 0.098 7.07 2.63 13.15
12/8/2020 6:45:00 AM 2.09 35.762 0.098 7.07 2.64 13.16
12/8/2020 7:00:00 AM 2.07 35.726 0.098 7.07 2.66 13.17
12/8/2020 7:15:00 AM 2.06 35.708 0.098 7.08 2.56 13.18
12/8/2020 7:30:00 AM 2.04 35.672 0.098 7.07 2.64 13.19
12/8/2020 7:45:00 AM 2.03 35.654 0.098 7.08 2.65 13.21
12/8/2020 8:00:00 AM 2.01 35.618 0.098 7.07 2.65 13.24
12/8/2020 8:15:00 AM 2 35.6 0.098 7.08 2.65 13.29
12/8/2020 8:30:00 AM 2 35.6 0.098 7.1 2.73 13.35
12/8/2020 8:45:00 AM 1.99 35.582 0.098 7.1 2.67 13.44
12/8/2020 9:00:00 AM 1.98 35.564 0.098 7.11 2.68 13.52
12/8/2020 9:15:00 AM 1.99 35.582 0.098 7.13 2.64 13.63
12/8/2020 9:30:00 AM 2.01 35.618 0.097 7.14 2.73 13.75
12/8/2020 9:45:00 AM 2 35.6 0.097 7.15 2.67 13.83
12/8/2020 10:00:00 AM 2.01 35.618 0.097 7.17 2.64 13.92
12/8/2020 10:15:00 AM 2.03 35.654 0.097 7.19 2.68 14.02
12/8/2020 10:30:00 AM 2.04 35.672 0.097 7.19 2.71 14.09
12/8/2020 10:45:00 AM 2.06 35.708 0.097 7.22 2.63 14.16
12/8/2020 11:00:00 AM 2.07 35.726 0.097 7.22 2.62 14.21
12/8/2020 11:15:00 AM 2.1 35.78 0.097 7.24 2.66 14.27
12/8/2020 11:30:00 AM 2.13 35.834 0.097 7.25 2.61 14.32
12/8/2020 11:45:00 AM 2.16 35.888 0.097 7.25 2.69 14.36
12/8/2020 12:00:00 PM 2.18 35.924 0.097 7.27 2.62 14.4
12/8/2020 12:15:00 PM 2.21 35.978 0.097 7.28 2.58 14.44
12/8/2020 12:30:00 PM 2.22 35.996 0.097 7.29 2.59 14.47
12/8/2020 12:45:00 PM 2.26 36.068 0.097 7.29 2.63 14.5
12/8/2020 1:00:00 PM 2.32 36.176 0.097 7.31 2.74 14.54
12/8/2020 1:15:00 PM 2.37 36.266 0.097 7.32 2.56 14.55
12/8/2020 1:30:00 PM 2.43 36.374 0.097 7.33 2.6 14.55
12/8/2020 1:45:00 PM 2.47 36.446 0.097 7.33 2.52 14.55
12/8/2020 2:00:00 PM 2.49 36.482 0.097 7.34 2.55 14.56
12/8/2020 2:15:00 PM 2.52 36.536 0.097 7.34 2.54 14.56
12/8/2020 2:30:00 PM 2.56 36.608 0.096 7.35 2.58 14.54
12/8/2020 2:45:00 PM 2.58 36.644 0.096 7.35 2.53 14.53
12/8/2020 3:00:00 PM 2.57 36.626 0.096 7.34 2.55 14.52
12/8/2020 3:15:00 PM 2.55 36.59 0.096 7.35 2.56 14.49
12/8/2020 3:30:00 PM 2.51 36.518 0.096 7.35 2.66 14.47
12/8/2020 3:45:00 PM 2.46 36.428 0.096 7.34 2.54 14.43
12/8/2020 4:00:00 PM 2.41 36.338 0.096 7.33 2.57 14.39
12/8/2020 4:15:00 PM 2.37 36.266 0.097 7.31 2.53 14.31
12/8/2020 4:30:00 PM 2.32 36.176 0.097 7.3 2.55 14.23
12/8/2020 4:45:00 PM 2.29 36.122 0.097 7.28 2.55 14.13
12/8/2020 5:00:00 PM 2.27 36.086 0.097 7.27 2.62 14.03
12/8/2020 5:15:00 PM 2.26 36.068 0.097 7.24 2.55 13.96
12/8/2020 5:30:00 PM 2.24 36.032 0.097 7.23 2.56 13.9
12/8/2020 5:45:00 PM 2.22 35.996 0.097 7.22 2.6 13.83
12/8/2020 6:00:00 PM 2.2 35.96 0.097 7.2 2.63 13.78
12/8/2020 6:15:00 PM 2.16 35.888 0.097 7.19 2.53 13.73
12/8/2020 6:30:00 PM 2.13 35.834 0.097 7.19 2.54 13.7
12/8/2020 6:45:00 PM 2.09 35.762 0.097 7.17 2.55 13.66
12/8/2020 7:00:00 PM 2.06 35.708 0.097 7.16 2.52 13.64
12/8/2020 7:15:00 PM 2.03 35.654 0.097 7.16 2.61 13.62
12/8/2020 7:30:00 PM 2 35.6 0.097 7.16 2.51 13.61
12/8/2020 7:45:00 PM 1.97 35.546 0.097 7.16 2.53 13.59
12/8/2020 8:00:00 PM 1.94 35.492 0.097 7.14 2.56 13.58
12/8/2020 8:15:00 PM 1.91 35.438 0.097 7.15 2.53 13.56
12/8/2020 8:30:00 PM 1.88 35.384 0.097 7.13 2.63 13.55
12/8/2020 8:45:00 PM 1.86 35.348 0.097 7.13 2.71 13.53
12/8/2020 9:00:00 PM 1.83 35.294 0.097 7.13 2.61 13.51
12/8/2020 9:15:00 PM 1.81 35.258 0.097 7.12 2.62 13.5
12/8/2020 9:30:00 PM 1.78 35.204 0.097 7.12 2.6 13.49
12/8/2020 9:45:00 PM 1.77 35.186 0.097 7.12 2.6 13.48
12/8/2020 10:00:00 PM 1.77 35.186 0.097 7.11 2.59 13.46
12/8/2020 10:15:00 PM 1.77 35.186 0.097 7.11 2.66 13.45
12/8/2020 10:30:00 PM 1.77 35.186 0.097 7.1 2.67 13.42
12/8/2020 10:45:00 PM 1.76 35.168 0.097 7.1 2.61 13.43
12/8/2020 11:00:00 PM 1.76 35.168 0.097 7.09 2.61 13.41
12/8/2020 11:15:00 PM 1.76 35.168 0.097 7.1 2.58 13.41
12/8/2020 11:30:00 PM 1.75 35.15 0.097 7.09 2.59 13.41
12/8/2020 11:45:00 PM 1.75 35.15 0.097 7.08 2.55 13.4
12/9/2020 12:00:00 AM 1.75 35.15 0.097 7.09 2.66 13.39
12/9/2020 12:15:00 AM 1.74 35.132 0.097 7.08 2.6 13.39
12/9/2020 12:30:00 AM 1.74 35.132 0.097 7.08 2.6 13.39
12/9/2020 12:45:00 AM 1.73 35.114 0.097 7.08 2.59 13.39
12/9/2020 1:00:00 AM 1.73 35.114 0.097 7.07 2.64 13.38
12/9/2020 1:15:00 AM 1.72 35.096 0.097 7.08 2.63 13.39
12/9/2020 1:30:00 AM 1.71 35.078 0.097 7.08 2.59 13.37
12/9/2020 1:45:00 AM 1.71 35.078 0.098 7.07 2.58 13.38
12/9/2020 2:00:00 AM 1.71 35.078 0.098 7.07 2.61 13.38
12/9/2020 2:15:00 AM 1.72 35.096 0.098 7.07 2.6 13.37
12/9/2020 2:30:00 AM 1.73 35.114 0.098 7.07 2.62 13.36
12/9/2020 2:45:00 AM 1.73 35.114 0.098 7.07 2.58 13.36
12/9/2020 3:00:00 AM 1.74 35.132 0.098 7.08 2.57 13.36
12/9/2020 3:15:00 AM 1.75 35.15 0.098 7.07 2.64 13.35
12/9/2020 3:30:00 AM 1.76 35.168 0.098 7.07 2.54 13.35
12/9/2020 3:45:00 AM 1.77 35.186 0.098 7.07 2.63 13.35
12/9/2020 4:00:00 AM 1.77 35.186 0.098 7.08 2.62 13.35
12/9/2020 4:15:00 AM 1.78 35.204 0.098 7.07 2.65 13.35
12/9/2020 4:30:00 AM 1.79 35.222 0.098 7.06 2.66 13.35
12/9/2020 4:45:00 AM 1.79 35.222 0.098 7.07 2.64 13.34
12/9/2020 5:00:00 AM 1.79 35.222 0.098 7.06 2.69 13.34
12/9/2020 5:15:00 AM 1.8 35.24 0.098 7.07 2.64 13.33
12/9/2020 5:30:00 AM 1.81 35.258 0.098 7.07 2.63 13.33
12/9/2020 5:45:00 AM 1.81 35.258 0.098 7.06 2.68 13.32
12/9/2020 6:00:00 AM 1.81 35.258 0.098 7.06 2.68 13.32
12/9/2020 6:15:00 AM 1.81 35.258 0.098 7.07 2.66 13.32
12/9/2020 6:30:00 AM 1.82 35.276 0.099 7.07 2.65 13.32
12/9/2020 6:45:00 AM 1.82 35.276 0.099 7.07 2.68 13.32
12/9/2020 7:00:00 AM 1.83 35.294 0.099 7.07 2.67 13.31
12/9/2020 7:15:00 AM 1.83 35.294 0.099 7.06 2.64 13.31
12/9/2020 7:30:00 AM 1.84 35.312 0.099 7.07 2.67 13.31
12/9/2020 7:45:00 AM 1.82 35.276 0.099 7.07 2.68 13.32
12/9/2020 8:00:00 AM 1.79 35.222 0.099 7.07 2.72 13.33
12/9/2020 8:15:00 AM 1.73 35.114 0.099 7.06 2.71 13.37
12/9/2020 8:30:00 AM 1.65 34.97 0.099 7.08 2.8 13.4
12/9/2020 8:45:00 AM 1.56 34.808 0.099 7.08 2.62 13.43
12/9/2020 9:00:00 AM 1.5 34.7 0.099 7.09 2.66 13.5
12/9/2020 9:15:00 AM 1.48 34.664 0.099 7.1 2.71 13.57
12/9/2020 9:30:00 AM 1.51 34.718 0.099 7.11 2.64 13.65
12/9/2020 9:45:00 AM 1.49 34.682 0.098 7.12 2.63 13.72
12/9/2020 10:00:00 AM 1.48 34.664 0.098 7.14 2.67 13.81
12/9/2020 10:15:00 AM 1.48 34.664 0.098 7.15 2.65 13.92
12/9/2020 10:30:00 AM 1.49 34.682 0.098 7.17 2.71 14.02
12/9/2020 10:45:00 AM 1.5 34.7 0.098 7.18 2.71 14.09
12/9/2020 11:00:00 AM 1.57 34.826 0.098 7.19 2.63 14.17
12/9/2020 11:15:00 AM 1.65 34.97 0.098 7.21 2.63 14.24
12/9/2020 11:30:00 AM 1.68 35.024 0.098 7.23 2.63 14.3
12/9/2020 11:45:00 AM 1.69 35.042 0.098 7.23 2.64 14.33
12/9/2020 12:00:00 PM 1.7 35.06 0.098 7.24 2.68 14.39
12/9/2020 12:15:00 PM 1.74 35.132 0.099 7.25 2.66 14.42
12/9/2020 12:30:00 PM 1.75 35.15 0.1 7.26 2.72 14.43
12/9/2020 12:45:00 PM 1.75 35.15 0.1 7.27 2.55 14.45
12/9/2020 1:00:00 PM 1.78 35.204 0.101 7.28 2.6 14.49
12/9/2020 1:15:00 PM 1.8 35.24 0.102 7.28 2.56 14.51
12/9/2020 1:30:00 PM 1.81 35.258 0.104 7.29 2.57 14.54
12/9/2020 1:45:00 PM 1.82 35.276 0.105 7.3 2.54 14.56
12/9/2020 2:00:00 PM 1.84 35.312 0.105 7.31 2.57 14.56
12/9/2020 2:15:00 PM 1.86 35.348 0.106 7.3 2.55 14.56
12/9/2020 2:30:00 PM 1.89 35.402 0.105 7.31 2.57 14.55
12/9/2020 2:45:00 PM 1.92 35.456 0.105 7.3 2.53 14.52
12/9/2020 3:00:00 PM 1.94 35.492 0.105 7.3 2.52 14.49
12/9/2020 3:15:00 PM 1.96 35.528 0.104 7.3 2.61 14.44
12/9/2020 3:30:00 PM 1.98 35.564 0.103 7.29 2.54 14.4
12/9/2020 3:45:00 PM 2 35.6 0.103 7.28 2.59 14.35
12/9/2020 4:00:00 PM 2.02 35.636 0.102 7.28 2.55 14.28
12/9/2020 4:15:00 PM 2.04 35.672 0.102 7.25 2.54 14.21
12/9/2020 4:30:00 PM 2.05 35.69 0.101 7.25 2.56 14.12
12/9/2020 4:45:00 PM 2.08 35.744 0.101 7.23 2.54 14.04
12/9/2020 5:00:00 PM 2.1 35.78 0.1 7.22 2.5 13.96
12/9/2020 5:15:00 PM 2.12 35.816 0.1 7.22 2.53 13.9
12/9/2020 5:30:00 PM 2.15 35.87 0.1 7.2 2.49 13.85
12/9/2020 5:45:00 PM 2.17 35.906 0.1 7.19 2.58 13.79
12/9/2020 6:00:00 PM 2.2 35.96 0.1 7.18 2.52 13.74
12/9/2020 6:15:00 PM 2.22 35.996 0.099 7.18 2.5 13.7
12/9/2020 6:30:00 PM 2.23 36.014 0.099 7.17 2.55 13.66
12/9/2020 6:45:00 PM 2.25 36.05 0.099 7.17 2.48 13.62
12/9/2020 7:00:00 PM 2.27 36.086 0.099 7.16 2.52 13.6
12/9/2020 7:15:00 PM 2.28 36.104 0.099 7.15 2.57 13.57
12/9/2020 7:30:00 PM 2.29 36.122 0.099 7.16 2.53 13.54
12/9/2020 7:45:00 PM 2.3 36.14 0.099 7.14 2.55 13.51
12/9/2020 8:00:00 PM 2.31 36.158 0.099 7.14 2.49 13.49
12/9/2020 8:15:00 PM 2.32 36.176 0.099 7.13 2.52 13.46
12/9/2020 8:30:00 PM 2.33 36.194 0.099 7.14 2.55 13.43
12/9/2020 8:45:00 PM 2.33 36.194 0.099 7.13 2.55 13.41
12/9/2020 9:00:00 PM 2.34 36.212 0.099 7.12 2.5 13.39
12/9/2020 9:15:00 PM 2.35 36.23 0.099 7.12 2.7 13.36
12/9/2020 9:30:00 PM 2.36 36.248 0.099 7.11 2.48 13.35
12/9/2020 9:45:00 PM 2.36 36.248 0.099 7.12 2.48 13.33
12/9/2020 10:00:00 PM 2.37 36.266 0.099 7.1 2.46 13.31
12/9/2020 10:15:00 PM 2.38 36.284 0.099 7.11 2.51 13.29
12/9/2020 10:30:00 PM 2.4 36.32 0.099 7.1 2.6 13.27
12/9/2020 10:45:00 PM 2.41 36.338 0.099 7.1 2.54 13.26
12/9/2020 11:00:00 PM 2.42 36.356 0.099 7.09 2.58 13.24
12/9/2020 11:15:00 PM 2.43 36.374 0.099 7.1 2.73 13.23
12/9/2020 11:30:00 PM 2.45 36.41 0.099 7.1 2.54 13.22
12/9/2020 11:45:00 PM 2.46 36.428 0.099 7.08 2.61 13.21
12/10/2020 12:00:00 AM 2.48 36.464 0.099 7.09 2.61 13.2
12/10/2020 12:15:00 AM 2.49 36.482 0.099 7.09 2.49 13.19
12/10/2020 12:30:00 AM 2.51 36.518 0.099 7.09 2.59 13.18
12/10/2020 12:45:00 AM 2.53 36.554 0.099 7.09 2.52 13.17
12/10/2020 1:00:00 AM 2.54 36.572 0.099 7.08 2.52 13.16
12/10/2020 1:15:00 AM 2.56 36.608 0.099 7.08 2.59 13.15
12/10/2020 1:30:00 AM 2.57 36.626 0.099 7.08 2.58 13.14
12/10/2020 1:45:00 AM 2.59 36.662 0.099 7.08 2.6 13.13
12/10/2020 2:00:00 AM 2.6 36.68 0.099 7.08 2.57 13.13
12/10/2020 2:15:00 AM 2.62 36.716 0.099 7.08 2.54 13.11
12/10/2020 2:30:00 AM 2.64 36.752 0.099 7.08 2.67 13.11
12/10/2020 2:45:00 AM 2.65 36.77 0.1 7.08 2.63 13.1
12/10/2020 3:00:00 AM 2.67 36.806 0.099 7.08 2.53 13.1
12/10/2020 3:15:00 AM 2.68 36.824 0.1 7.08 2.61 13.09
12/10/2020 3:30:00 AM 2.69 36.842 0.1 7.08 2.5 13.09
12/10/2020 3:45:00 AM 2.7 36.86 0.1 7.07 2.57 13.08
12/10/2020 4:00:00 AM 2.71 36.878 0.1 7.08 2.6 13.08
12/10/2020 4:15:00 AM 2.73 36.914 0.101 7.08 2.63 13.07
12/10/2020 4:30:00 AM 2.74 36.932 0.101 7.08 2.53 13.07
12/10/2020 4:45:00 AM 2.75 36.95 0.101 7.07 2.62 13.06
12/10/2020 5:00:00 AM 2.76 36.968 0.101 7.08 2.6 13.06
12/10/2020 5:15:00 AM 2.77 36.986 0.102 7.07 3.27 13.05
12/10/2020 5:30:00 AM 2.78 37.004 0.102 7.08 2.58 13.04
12/10/2020 5:45:00 AM 2.79 37.022 0.102 7.08 2.75 13.04
12/10/2020 6:00:00 AM 2.81 37.058 0.102 7.08 2.62 13.04
12/10/2020 6:15:00 AM 2.82 37.076 0.102 7.08 2.69 13.04
12/10/2020 6:30:00 AM 2.83 37.094 0.102 7.07 2.64 13.04
12/10/2020 6:45:00 AM 2.84 37.112 0.102 7.07 2.69 13.04
12/10/2020 7:00:00 AM 2.84 37.112 0.102 7.07 2.66 13.04
12/10/2020 7:15:00 AM 2.85 37.13 0.102 7.07 2.75 13.04
12/10/2020 7:30:00 AM 2.85 37.13 0.102 7.07 2.8 13.04
12/10/2020 7:45:00 AM 2.86 37.148 0.102 7.08 2.66 13.07
12/10/2020 8:00:00 AM 2.88 37.184 0.102 7.08 2.62 13.12
12/10/2020 8:15:00 AM 2.89 37.202 0.101 7.09 2.56 13.21
12/10/2020 8:30:00 AM 2.91 37.238 0.101 7.1 2.74 13.31
12/10/2020 8:45:00 AM 2.93 37.274 0.101 7.12 2.69 13.42
12/10/2020 9:00:00 AM 2.96 37.328 0.101 7.13 2.65 13.52
12/10/2020 9:15:00 AM 3 37.4 0.101 7.16 2.62 13.64
12/10/2020 9:30:00 AM 3.04 37.472 0.101 7.17 2.69 13.74
12/10/2020 9:45:00 AM 3.09 37.562 0.101 7.18 2.72 13.84
12/10/2020 10:00:00 AM 3.15 37.67 0.101 7.21 2.77 13.95
12/10/2020 10:15:00 AM 3.21 37.778 0.101 7.23 2.86 14.03
12/10/2020 10:30:00 AM 3.27 37.886 0.101 7.25 2.87 14.11
12/10/2020 10:45:00 AM 3.34 38.012 0.101 7.26 2.8 14.16
12/10/2020 11:00:00 AM 3.4 38.12 0.101 7.28 2.83 14.21
12/10/2020 11:15:00 AM 3.46 38.228 0.101 7.28 2.84 14.26
12/10/2020 11:30:00 AM 3.55 38.39 0.101 7.31 2.99 14.3
12/10/2020 11:45:00 AM 3.6 38.48 0.101 7.31 2.9 14.32
12/10/2020 12:00:00 PM 3.63 38.534 0.101 7.33 3.27 14.32
12/10/2020 12:15:00 PM 3.66 38.588 0.101 7.33 4.09 14.33
12/10/2020 12:30:00 PM 3.71 38.678 0.101 7.35 4.53 14.35
12/10/2020 12:45:00 PM 3.75 38.75 0.101 7.36 3.96 14.37
12/10/2020 1:00:00 PM 3.79 38.822 0.101 7.37 3.63 14.39
12/10/2020 1:15:00 PM 3.82 38.876 0.101 7.38 3.61 14.41
12/10/2020 1:30:00 PM 3.84 38.912 0.101 7.39 3.72 14.41
12/10/2020 1:45:00 PM 3.87 38.966 0.101 7.39 3.67 14.42
12/10/2020 2:00:00 PM 3.92 39.056 0.101 7.41 3.43 14.44
12/10/2020 2:15:00 PM 3.97 39.146 0.101 7.42 3.1 14.45
12/10/2020 2:30:00 PM 4.01 39.218 0.101 7.42 3.27 14.45
12/10/2020 2:45:00 PM 4.04 39.272 0.101 7.43 3.26 14.46
12/10/2020 3:00:00 PM 4.08 39.344 0.101 7.43 3.08 14.43
12/10/2020 3:15:00 PM 4.13 39.434 0.101 7.44 3.07 14.43
12/10/2020 3:30:00 PM 4.16 39.488 0.101 7.43 2.97 14.4
12/10/2020 3:45:00 PM 4.18 39.524 0.101 7.43 3.02 14.34
12/10/2020 4:00:00 PM 4.18 39.524 0.102 7.42 2.89 14.25
12/10/2020 4:15:00 PM 4.18 39.524 0.102 7.39 3.02 14.17
12/10/2020 4:30:00 PM 4.16 39.488 0.102 7.38 2.88 14.06
12/10/2020 4:45:00 PM 4.12 39.416 0.102 7.36 2.98 13.93
12/10/2020 5:00:00 PM 4.08 39.344 0.102 7.33 2.89 13.81
12/10/2020 5:15:00 PM 4.03 39.254 0.103 7.31 2.86 13.71
12/10/2020 5:30:00 PM 3.99 39.182 0.103 7.28 2.82 13.62
12/10/2020 5:45:00 PM 3.94 39.092 0.103 7.27 2.82 13.53
12/10/2020 6:00:00 PM 3.9 39.02 0.104 7.24 2.76 13.46
12/10/2020 6:15:00 PM 3.86 38.948 0.104 7.23 2.71 13.41
12/10/2020 6:30:00 PM 3.81 38.858 0.104 7.23 2.61 13.36
12/10/2020 6:45:00 PM 3.78 38.804 0.104 7.2 2.72 13.33
12/10/2020 7:00:00 PM 3.74 38.732 0.104 7.21 2.75 13.3
12/10/2020 7:15:00 PM 3.71 38.678 0.105 7.19 3.24 13.28
12/10/2020 7:30:00 PM 3.68 38.624 0.105 7.19 2.91 13.26
12/10/2020 7:45:00 PM 3.66 38.588 0.105 7.17 2.74 13.24
12/10/2020 8:00:00 PM 3.63 38.534 0.105 7.17 2.69 13.22
12/10/2020 8:15:00 PM 3.59 38.462 0.105 7.17 2.75 13.19
12/10/2020 8:30:00 PM 3.56 38.408 0.105 7.16 2.7 13.17
12/10/2020 8:45:00 PM 3.52 38.336 0.105 7.15 2.73 13.15
12/10/2020 9:00:00 PM 3.48 38.264 0.105 7.15 2.69 13.13
12/10/2020 9:15:00 PM 3.44 38.192 0.105 7.15 2.84 13.11
12/10/2020 9:30:00 PM 3.4 38.12 0.105 7.13 2.78 13.09
12/10/2020 9:45:00 PM 3.36 38.048 0.105 7.13 3.13 13.08
12/10/2020 10:00:00 PM 3.32 37.976 0.105 7.12 2.71 13.06
12/10/2020 10:15:00 PM 3.27 37.886 0.105 7.12 2.61 13.06
12/10/2020 10:30:00 PM 3.23 37.814 0.105 7.12 2.71 13.06
12/10/2020 10:45:00 PM 3.19 37.742 0.105 7.11 2.72 13.06
12/10/2020 11:00:00 PM 3.15 37.67 0.106 7.11 2.83 13.05
12/10/2020 11:15:00 PM 3.12 37.616 0.106 7.11 2.68 13.04
12/10/2020 11:30:00 PM 3.08 37.544 0.106 7.1 2.7 13.05
12/10/2020 11:45:00 PM 3.05 37.49 0.106 7.1 2.71 13.06
12/11/2020 12:00:00 AM 3.01 37.418 0.106 7.1 2.73 13.06
12/11/2020 12:15:00 AM 2.97 37.346 0.106 7.1 2.75 13.06
12/11/2020 12:30:00 AM 2.94 37.292 0.106 7.1 2.66 13.07
12/11/2020 12:45:00 AM 2.91 37.238 0.106 7.09 2.85 13.07
12/11/2020 1:00:00 AM 2.88 37.184 0.106 7.09 2.74 13.08
12/11/2020 1:15:00 AM 2.85 37.13 0.106 7.1 3.14 13.09
12/11/2020 1:30:00 AM 2.82 37.076 0.106 7.09 2.83 13.09
12/11/2020 1:45:00 AM 2.78 37.004 0.106 7.09 2.72 13.1
12/11/2020 2:00:00 AM 2.75 36.95 0.106 7.09 2.82 13.1
12/11/2020 2:15:00 AM 2.72 36.896 0.106 7.08 2.8 13.12
12/11/2020 2:30:00 AM 2.69 36.842 0.106 7.08 2.76 13.13
12/11/2020 2:45:00 AM 2.65 36.77 0.106 7.08 2.79 13.13
12/11/2020 3:00:00 AM 2.62 36.716 0.106 7.08 2.79 13.14
12/11/2020 3:15:00 AM 2.58 36.644 0.106 7.08 2.8 13.15
12/11/2020 3:30:00 AM 2.55 36.59 0.106 7.08 2.8 13.16
12/11/2020 3:45:00 AM 2.51 36.518 0.106 7.08 2.77 13.18
12/11/2020 4:00:00 AM 2.47 36.446 0.106 7.08 2.72 13.19
12/11/2020 4:15:00 AM 2.43 36.374 0.106 7.08 2.87 13.2
12/11/2020 4:30:00 AM 2.39 36.302 0.106 7.08 3.08 13.22
12/11/2020 4:45:00 AM 2.37 36.266 0.106 7.08 2.81 13.22
12/11/2020 5:00:00 AM 2.34 36.212 0.106 7.08 2.82 13.24
12/11/2020 5:15:00 AM 2.31 36.158 0.106 7.08 2.96 13.25
12/11/2020 5:30:00 AM 2.28 36.104 0.106 7.07 2.76 13.26
12/11/2020 5:45:00 AM 2.25 36.05 0.106 7.07 2.78 13.27
12/11/2020 6:00:00 AM 2.23 36.014 0.106 7.08 2.78 13.28
12/11/2020 6:15:00 AM 2.2 35.96 0.106 7.08 2.92 13.29
12/11/2020 6:30:00 AM 2.17 35.906 0.106 7.07 2.9 13.29
12/11/2020 6:45:00 AM 2.14 35.852 0.105 7.07 2.93 13.31
12/11/2020 7:00:00 AM 2.12 35.816 0.105 7.07 2.89 13.31
12/11/2020 7:15:00 AM 2.09 35.762 0.105 7.07 2.89 13.33
12/11/2020 7:30:00 AM 2.08 35.744 0.105 7.07 2.9 13.35
12/11/2020 7:45:00 AM 2.07 35.726 0.105 7.07 2.83 13.39
12/11/2020 8:00:00 AM 2.07 35.726 0.105 7.08 2.96 13.47
12/11/2020 8:15:00 AM 2.08 35.744 0.105 7.1 2.94 13.58
12/11/2020 8:30:00 AM 2.1 35.78 0.105 7.11 2.99 13.69
12/11/2020 8:45:00 AM 2.12 35.816 0.105 7.13 2.9 13.79
12/11/2020 9:00:00 AM 2.15 35.87 0.105 7.14 3.04 13.9
12/11/2020 9:15:00 AM 2.18 35.924 0.105 7.16 2.88 14
12/11/2020 9:30:00 AM 2.21 35.978 0.105 7.18 2.94 14.1
12/11/2020 9:45:00 AM 2.26 36.068 0.105 7.2 2.96 14.2
12/11/2020 10:00:00 AM 2.31 36.158 0.105 7.2 2.96 14.27
12/11/2020 10:15:00 AM 2.39 36.302 0.105 7.22 3 14.34
12/11/2020 10:30:00 AM 2.48 36.464 0.104 7.24 3.01 14.39
12/11/2020 10:45:00 AM 2.59 36.662 0.104 7.26 3.06 14.44
12/11/2020 11:00:00 AM 2.69 36.842 0.104 7.26 3.29 14.47
12/11/2020 11:15:00 AM 2.77 36.986 0.104 7.27 2.96 14.49
12/11/2020 11:30:00 AM 2.83 37.094 0.104 7.28 3.3 14.5
12/11/2020 11:45:00 AM 2.92 37.256 0.104 7.29 3.03 14.54
12/11/2020 12:00:00 PM 3.03 37.454 0.104 7.31 3 14.57
12/11/2020 12:15:00 PM 3.14 37.652 0.104 7.32 2.96 14.59
12/11/2020 12:30:00 PM 3.25 37.85 0.104 7.33 2.98 14.6
12/11/2020 12:45:00 PM 3.35 38.03 0.104 7.34 2.88 14.59
12/11/2020 1:00:00 PM 3.45 38.21 0.104 7.35 2.81 14.59
12/11/2020 1:15:00 PM 3.56 38.408 0.104 7.36 2.98 14.6
12/11/2020 1:30:00 PM 3.68 38.624 0.104 7.38 2.89 14.6
12/11/2020 1:45:00 PM 3.78 38.804 0.103 7.38 3.06 14.6
12/11/2020 2:00:00 PM 3.85 38.93 0.103 7.38 2.95 14.59
12/11/2020 2:15:00 PM 3.91 39.038 0.103 7.4 2.99 14.58
12/11/2020 2:30:00 PM 3.97 39.146 0.103 7.4 3 14.57
12/11/2020 2:45:00 PM 4.02 39.236 0.103 7.42 2.9 14.56
12/11/2020 3:00:00 PM 4.06 39.308 0.103 7.41 2.9 14.54
12/11/2020 3:15:00 PM 4.09 39.362 0.103 7.42 2.91 14.52
12/11/2020 3:30:00 PM 4.1 39.38 0.103 7.42 2.9 14.49
12/11/2020 3:45:00 PM 4.1 39.38 0.103 7.41 2.9 14.44
12/11/2020 4:00:00 PM 4.09 39.362 0.103 7.4 2.82 14.35
12/11/2020 4:15:00 PM 4.09 39.362 0.103 7.38 3.18 14.25
12/11/2020 4:30:00 PM 4.09 39.362 0.103 7.36 2.9 14.11
12/11/2020 4:45:00 PM 4.07 39.326 0.103 7.33 2.76 13.97
12/11/2020 5:00:00 PM 4.06 39.308 0.103 7.32 2.91 13.84
12/11/2020 5:15:00 PM 4.04 39.272 0.103 7.29 2.74 13.74
12/11/2020 5:30:00 PM 4.02 39.236 0.104 7.27 2.76 13.64
12/11/2020 5:45:00 PM 4 39.2 0.104 7.26 2.78 13.55
12/11/2020 6:00:00 PM 3.98 39.164 0.104 7.23 2.82 13.46
12/11/2020 6:15:00 PM 3.95 39.11 0.104 7.22 2.73 13.4
12/11/2020 6:30:00 PM 3.93 39.074 0.104 7.2 3.02 13.35
12/11/2020 6:45:00 PM 3.9 39.02 0.104 7.2 2.78 13.3
12/11/2020 7:00:00 PM 3.89 39.002 0.104 7.19 2.8 13.27
12/11/2020 7:15:00 PM 3.87 38.966 0.104 7.18 2.89 13.24
12/11/2020 7:30:00 PM 3.85 38.93 0.104 7.17 2.83 13.21
12/11/2020 7:45:00 PM 3.84 38.912 0.104 7.17 2.73 13.18
12/11/2020 8:00:00 PM 3.82 38.876 0.104 7.16 2.93 13.15
12/11/2020 8:15:00 PM 3.81 38.858 0.104 7.16 3.29 13.11
12/11/2020 8:30:00 PM 3.81 38.858 0.104 7.15 2.9 13.08
12/11/2020 8:45:00 PM 3.8 38.84 0.104 7.15 2.81 13.05
12/11/2020 9:00:00 PM 3.79 38.822 0.104 7.15 2.72 13.02
12/11/2020 9:15:00 PM 3.78 38.804 0.104 7.14 2.68 12.98
12/11/2020 9:30:00 PM 3.78 38.804 0.104 7.13 2.74 12.96
12/11/2020 9:45:00 PM 3.77 38.786 0.105 7.13 2.92 12.93
12/11/2020 10:00:00 PM 3.76 38.768 0.105 7.12 2.78 12.91
12/11/2020 10:15:00 PM 3.76 38.768 0.105 7.12 2.81 12.89
12/11/2020 10:30:00 PM 3.76 38.768 0.105 7.11 2.76 12.87
12/11/2020 10:45:00 PM 3.75 38.75 0.105 7.11 2.78 12.85
12/11/2020 11:00:00 PM 3.74 38.732 0.105 7.1 2.75 12.85
12/11/2020 11:15:00 PM 3.73 38.714 0.105 7.1 2.83 12.84
12/11/2020 11:30:00 PM 3.72 38.696 0.105 7.1 2.84 12.83
12/11/2020 11:45:00 PM 3.71 38.678 0.105 7.1 2.76 12.83
12/12/2020 12:00:00 AM 3.7 38.66 0.105 7.1 2.75 12.82
12/12/2020 12:15:00 AM 3.69 38.642 0.105 7.09 2.68 12.82
12/12/2020 12:30:00 AM 3.68 38.624 0.105 7.09 2.71 12.81
12/12/2020 12:45:00 AM 3.67 38.606 0.105 7.09 2.66 12.81
12/12/2020 1:00:00 AM 3.65 38.57 0.104 7.09 2.8 12.81
12/12/2020 1:15:00 AM 3.62 38.516 0.104 7.08 2.68 12.8
12/12/2020 1:30:00 AM 3.61 38.498 0.104 7.08 2.78 12.82
12/12/2020 1:45:00 AM 3.59 38.462 0.104 7.09 2.8 12.81
12/12/2020 2:00:00 AM 3.57 38.426 0.104 7.08 2.85 12.82
12/12/2020 2:15:00 AM 3.55 38.39 0.104 7.09 2.85 12.82
12/12/2020 2:30:00 AM 3.52 38.336 0.104 7.08 2.82 12.83
12/12/2020 2:45:00 AM 3.51 38.318 0.105 7.08 2.79 12.84
12/12/2020 3:00:00 AM 3.49 38.282 0.105 7.08 2.84 12.84
12/12/2020 3:15:00 AM 3.46 38.228 0.105 7.07 2.85 12.85
12/12/2020 3:30:00 AM 3.45 38.21 0.105 7.07 2.7 12.85
12/12/2020 3:45:00 AM 3.43 38.174 0.105 7.07 2.91 12.86
12/12/2020 4:00:00 AM 3.39 38.102 0.105 7.07 3.1 12.87
12/12/2020 4:15:00 AM 3.36 38.048 0.104 7.07 3 12.87
12/12/2020 4:30:00 AM 3.34 38.012 0.104 7.07 2.93 12.87
12/12/2020 4:45:00 AM 3.32 37.976 0.104 7.07 2.87 12.88
12/12/2020 5:00:00 AM 3.29 37.922 0.104 7.07 3.01 12.89
12/12/2020 5:15:00 AM 3.25 37.85 0.104 7.07 2.9 12.9
12/12/2020 5:30:00 AM 3.22 37.796 0.104 7.07 2.91 12.91
12/12/2020 5:45:00 AM 3.2 37.76 0.104 7.07 2.93 12.92
12/12/2020 6:00:00 AM 3.17 37.706 0.104 7.07 2.9 12.93
12/12/2020 6:15:00 AM 3.13 37.634 0.104 7.07 2.78 12.93
12/12/2020 6:30:00 AM 3.11 37.598 0.104 7.07 2.9 12.94
12/12/2020 6:45:00 AM 3.1 37.58 0.104 7.07 2.87 12.96
12/12/2020 7:00:00 AM 3.09 37.562 0.104 7.06 2.88 12.96
12/12/2020 7:15:00 AM 3.07 37.526 0.104 7.06 2.89 12.98
12/12/2020 7:30:00 AM 3.05 37.49 0.104 7.07 3 12.98
12/12/2020 7:45:00 AM 3.05 37.49 0.104 7.07 2.86 13
12/12/2020 8:00:00 AM 3.05 37.49 0.104 7.07 2.98 13.03
12/12/2020 8:15:00 AM 3.05 37.49 0.104 7.07 3.07 13.07
12/12/2020 8:30:00 AM 3.05 37.49 0.104 7.08 2.98 13.13
12/12/2020 8:45:00 AM 3.06 37.508 0.104 7.1 2.95 13.24
12/12/2020 9:00:00 AM 3.07 37.526 0.104 7.11 2.92 13.32
12/12/2020 9:15:00 AM 3.09 37.562 0.103 7.12 2.81 13.47
12/12/2020 9:30:00 AM 3.13 37.634 0.103 7.14 2.92 13.6
12/12/2020 9:45:00 AM 3.16 37.688 0.103 7.16 2.91 13.71
12/12/2020 10:00:00 AM 3.22 37.796 0.103 7.18 2.93 13.84
12/12/2020 10:15:00 AM 3.28 37.904 0.103 7.2 2.85 13.93
12/12/2020 10:30:00 AM 3.32 37.976 0.103 7.22 2.79 13.98
12/12/2020 10:45:00 AM 3.4 38.12 0.103 7.24 2.91 14.06
12/12/2020 11:00:00 AM 3.46 38.228 0.103 7.25 2.85 14.12
12/12/2020 11:15:00 AM 3.5 38.3 0.102 7.26 2.78 14.13
12/12/2020 11:30:00 AM 3.56 38.408 0.102 7.28 2.79 14.16
12/12/2020 11:45:00 AM 3.64 38.552 0.102 7.29 2.81 14.2
12/12/2020 12:00:00 PM 3.71 38.678 0.102 7.31 2.78 14.21
12/12/2020 12:15:00 PM 3.76 38.768 0.102 7.31 2.82 14.23
12/12/2020 12:30:00 PM 3.83 38.894 0.102 7.33 2.74 14.25
12/12/2020 12:45:00 PM 3.88 38.984 0.102 7.33 2.73 14.24
12/12/2020 1:00:00 PM 3.94 39.092 0.102 7.34 2.73 14.25
12/12/2020 1:15:00 PM 4.03 39.254 0.102 7.36 2.7 14.3
12/12/2020 1:30:00 PM 4.12 39.416 0.102 7.38 2.63 14.35
12/12/2020 1:45:00 PM 4.21 39.578 0.102 7.39 2.69 14.37
12/12/2020 2:00:00 PM 4.3 39.74 0.101 7.4 2.72 14.38
12/12/2020 2:15:00 PM 4.39 39.902 0.101 7.41 3.1 14.39
12/12/2020 2:30:00 PM 4.47 40.046 0.101 7.43 2.66 14.37
12/12/2020 2:45:00 PM 4.54 40.172 0.101 7.44 2.67 14.34
12/12/2020 3:00:00 PM 4.6 40.28 0.101 7.44 2.6 14.32
12/12/2020 3:15:00 PM 4.65 40.37 0.101 7.44 2.73 14.27
12/12/2020 3:30:00 PM 4.68 40.424 0.101 7.43 2.76 14.21
12/12/2020 3:45:00 PM 4.7 40.46 0.101 7.43 2.67 14.15
12/12/2020 4:00:00 PM 4.72 40.496 0.101 7.41 2.64 14.04
12/12/2020 4:15:00 PM 4.74 40.532 0.101 7.39 2.69 13.93
12/12/2020 4:30:00 PM 4.77 40.586 0.101 7.36 2.75 13.8
12/12/2020 4:45:00 PM 4.8 40.64 0.101 7.34 2.65 13.66
12/12/2020 5:00:00 PM 4.82 40.676 0.101 7.32 2.61 13.54
12/12/2020 5:15:00 PM 4.83 40.694 0.101 7.29 2.64 13.42
12/12/2020 5:30:00 PM 4.85 40.73 0.101 7.28 2.56 13.32
12/12/2020 5:45:00 PM 4.88 40.784 0.101 7.26 2.63 13.23
12/12/2020 6:00:00 PM 4.91 40.838 0.101 7.25 2.64 13.15
12/12/2020 6:15:00 PM 4.93 40.874 0.101 7.24 2.65 13.08
12/12/2020 6:30:00 PM 4.95 40.91 0.101 7.23 2.84 13.02
12/12/2020 6:45:00 PM 4.97 40.946 0.101 7.21 2.61 12.97
12/12/2020 7:00:00 PM 4.99 40.982 0.101 7.2 2.52 12.92
12/12/2020 7:15:00 PM 5.01 41.018 0.101 7.2 2.53 12.88
12/12/2020 7:30:00 PM 5.04 41.072 0.101 7.19 2.61 12.83
12/12/2020 7:45:00 PM 5.06 41.108 0.101 7.19 2.68 12.79
12/12/2020 8:00:00 PM 5.08 41.144 0.101 7.18 2.66 12.75
12/12/2020 8:15:00 PM 5.1 41.18 0.101 7.17 2.6 12.69
12/12/2020 8:30:00 PM 5.11 41.198 0.101 7.17 2.57 12.65
12/12/2020 8:45:00 PM 5.12 41.216 0.101 7.15 2.74 12.61
12/12/2020 9:00:00 PM 5.13 41.234 0.101 7.15 2.55 12.56
12/12/2020 9:15:00 PM 5.15 41.27 0.101 7.14 2.67 12.52
12/12/2020 9:30:00 PM 5.17 41.306 0.101 7.14 2.63 12.48
12/12/2020 9:45:00 PM 5.19 41.342 0.101 7.13 2.7 12.44
12/12/2020 10:00:00 PM 5.21 41.378 0.101 7.13 2.7 12.41
12/12/2020 10:15:00 PM 5.24 41.432 0.101 7.12 2.64 12.38
12/12/2020 10:30:00 PM 5.26 41.468 0.101 7.12 2.74 12.35
12/12/2020 10:45:00 PM 5.28 41.504 0.101 7.11 2.63 12.32
12/12/2020 11:00:00 PM 5.3 41.54 0.101 7.11 2.65 12.3
12/12/2020 11:15:00 PM 5.33 41.594 0.101 7.11 2.7 12.28
12/12/2020 11:30:00 PM 5.34 41.612 0.101 7.11 2.62 12.26
12/12/2020 11:45:00 PM 5.34 41.612 0.101 7.1 2.59 12.24
12/13/2020 12:00:00 AM 5.34 41.612 0.101 7.1 2.65 12.22
12/13/2020 12:15:00 AM 5.33 41.594 0.101 7.09 2.58 12.21
12/13/2020 12:30:00 AM 5.33 41.594 0.1 7.1 2.67 12.2
12/13/2020 12:45:00 AM 5.33 41.594 0.1 7.09 2.68 12.19
12/13/2020 1:00:00 AM 5.33 41.594 0.1 7.09 2.6 12.18
12/13/2020 1:15:00 AM 5.34 41.612 0.1 7.1 2.65 12.17
12/13/2020 1:30:00 AM 5.35 41.63 0.1 7.08 2.75 12.16
12/13/2020 1:45:00 AM 5.36 41.648 0.1 7.09 2.71 12.15
12/13/2020 2:00:00 AM 5.38 41.684 0.1 7.09 2.72 12.12
12/13/2020 2:15:00 AM 5.38 41.684 0.1 7.08 2.56 12.13
12/13/2020 2:30:00 AM 5.37 41.666 0.1 7.09 2.66 12.12
12/13/2020 2:45:00 AM 5.35 41.63 0.1 7.08 2.68 12.12
12/13/2020 3:00:00 AM 5.34 41.612 0.1 7.08 2.78 12.12
12/13/2020 3:15:00 AM 5.35 41.63 0.1 7.08 2.89 12.11
12/13/2020 3:30:00 AM 5.35 41.63 0.1 7.08 2.77 12.11
12/13/2020 3:45:00 AM 5.35 41.63 0.1 7.08 2.79 12.11
12/13/2020 4:00:00 AM 5.34 41.612 0.101 7.08 2.77 12.11
12/13/2020 4:15:00 AM 5.34 41.612 0.101 7.08 2.72 12.11
12/13/2020 4:30:00 AM 5.34 41.612 0.101 7.08 2.69 12.1
12/13/2020 4:45:00 AM 5.35 41.63 0.101 7.07 3.05 12.1
12/13/2020 5:00:00 AM 5.35 41.63 0.101 7.08 2.83 12.1
12/13/2020 5:15:00 AM 5.33 41.594 0.101 7.07 2.81 12.1
12/13/2020 5:30:00 AM 5.3 41.54 0.101 7.08 2.83 12.11
12/13/2020 5:45:00 AM 5.27 41.486 0.101 7.07 2.87 12.11
12/13/2020 6:00:00 AM 5.25 41.45 0.101 7.07 2.8 12.11
12/13/2020 6:15:00 AM 5.21 41.378 0.101 7.07 2.86 12.11
12/13/2020 6:30:00 AM 5.18 41.324 0.101 7.06 2.75 12.13
12/13/2020 6:45:00 AM 5.14 41.252 0.101 7.07 2.88 12.13
12/13/2020 7:00:00 AM 5.11 41.198 0.101 7.06 2.83 12.14
12/13/2020 7:15:00 AM 5.09 41.162 0.101 7.07 2.74 12.16
12/13/2020 7:30:00 AM 5.07 41.126 0.1 7.06 2.84 12.17
12/13/2020 7:45:00 AM 5.08 41.144 0.101 7.07 2.81 12.2
12/13/2020 8:00:00 AM 5.09 41.162 0.101 7.07 2.76 12.25
12/13/2020 8:15:00 AM 5.12 41.216 0.101 7.1 2.74 12.38
12/13/2020 8:30:00 AM 5.13 41.234 0.1 7.11 2.91 12.51
12/13/2020 8:45:00 AM 5.15 41.27 0.1 7.13 2.86 12.61
12/13/2020 9:00:00 AM 5.18 41.324 0.101 7.15 2.84 12.68
12/13/2020 9:15:00 AM 5.2 41.36 0.1 7.16 2.96 12.8
12/13/2020 9:30:00 AM 5.24 41.432 0.1 7.2 2.99 12.96
12/13/2020 9:45:00 AM 5.28 41.504 0.1 7.22 2.84 13.09
12/13/2020 10:00:00 AM 5.3 41.54 0.1 7.25 2.89 13.19
12/13/2020 10:15:00 AM 5.3 41.54 0.1 7.25 2.84 13.25
12/13/2020 10:30:00 AM 5.32 41.576 0.1 7.29 2.88 13.35
12/13/2020 10:45:00 AM 5.36 41.648 0.1 7.3 2.94 13.46
12/13/2020 11:00:00 AM 5.39 41.702 0.1 7.32 2.74 13.53
12/13/2020 11:15:00 AM 5.44 41.792 0.1 7.34 2.88 13.59
12/13/2020 11:30:00 AM 5.48 41.864 0.099 7.36 2.86 13.66
12/13/2020 11:45:00 AM 5.52 41.936 0.099 7.39 2.91 13.72
12/13/2020 12:00:00 PM 5.56 42.008 0.099 7.4 2.78 13.76
12/13/2020 12:15:00 PM 5.57 42.026 0.099 7.41 2.86 13.77
12/13/2020 12:30:00 PM 5.6 42.08 0.099 7.43 2.91 13.79
12/13/2020 12:45:00 PM 5.61 42.098 0.099 7.42 2.72 13.75
12/13/2020 1:00:00 PM 5.61 42.098 0.099 7.41 2.79 13.68
12/13/2020 1:15:00 PM 5.63 42.134 0.099 7.41 2.86 13.69
12/13/2020 1:30:00 PM 5.68 42.224 0.099 7.44 2.68 13.79
12/13/2020 1:45:00 PM 5.72 42.296 0.099 7.46 2.82 13.81
12/13/2020 2:00:00 PM 5.76 42.368 0.099 7.47 2.82 13.82
12/13/2020 2:15:00 PM 5.78 42.404 0.099 7.48 2.75 13.79
12/13/2020 2:30:00 PM 5.8 42.44 0.099 7.47 2.69 13.76
12/13/2020 2:45:00 PM 5.83 42.494 0.099 7.46 2.69 13.73
12/13/2020 3:00:00 PM 5.85 42.53 0.099 7.46 2.78 13.65
12/13/2020 3:15:00 PM 5.85 42.53 0.099 7.44 2.75 13.63
12/13/2020 3:30:00 PM 5.84 42.512 0.099 7.45 2.74 13.63
12/13/2020 3:45:00 PM 5.82 42.476 0.099 7.44 2.74 13.61
12/13/2020 4:00:00 PM 5.79 42.422 0.099 7.43 2.71 13.53
12/13/2020 4:15:00 PM 5.77 42.386 0.099 7.41 2.72 13.43
12/13/2020 4:30:00 PM 5.75 42.35 0.099 7.39 2.69 13.35
12/13/2020 4:45:00 PM 5.73 42.314 0.099 7.36 2.76 13.25
12/13/2020 5:00:00 PM 5.69 42.242 0.099 7.34 2.69 13.15
12/13/2020 5:15:00 PM 5.67 42.206 0.099 7.31 2.7 13.06
12/13/2020 5:30:00 PM 5.66 42.188 0.099 7.3 2.69 12.98
12/13/2020 5:45:00 PM 5.64 42.152 0.099 7.28 2.72 12.89
12/13/2020 6:00:00 PM 5.63 42.134 0.099 7.26 2.56 12.82
12/13/2020 6:15:00 PM 5.61 42.098 0.099 7.23 2.66 12.76
12/13/2020 6:30:00 PM 5.59 42.062 0.099 7.23 2.68 12.7
12/13/2020 6:45:00 PM 5.57 42.026 0.099 7.22 2.68 12.66
12/13/2020 7:00:00 PM 5.56 42.008 0.099 7.2 2.59 12.63
12/13/2020 7:15:00 PM 5.54 41.972 0.099 7.19 2.59 12.6
12/13/2020 7:30:00 PM 5.53 41.954 0.099 7.19 2.61 12.57
12/13/2020 7:45:00 PM 5.51 41.918 0.099 7.18 2.66 12.55
12/13/2020 8:00:00 PM 5.49 41.882 0.099 7.17 2.58 12.52
12/13/2020 8:15:00 PM 5.48 41.864 0.099 7.17 2.69 12.5
12/13/2020 8:30:00 PM 5.46 41.828 0.099 7.16 2.76 12.48
12/13/2020 8:45:00 PM 5.44 41.792 0.099 7.15 2.7 12.44
12/13/2020 9:00:00 PM 5.42 41.756 0.099 7.15 2.72 12.42
12/13/2020 9:15:00 PM 5.41 41.738 0.099 7.14 2.72 12.39
12/13/2020 9:30:00 PM 5.39 41.702 0.099 7.13 2.67 12.37
12/13/2020 9:45:00 PM 5.36 41.648 0.099 7.13 2.73 12.35
12/13/2020 10:00:00 PM 5.34 41.612 0.099 7.12 2.67 12.33
12/13/2020 10:15:00 PM 5.33 41.594 0.099 7.12 2.69 12.31
12/13/2020 10:30:00 PM 5.31 41.558 0.099 7.12 3.47 12.29
12/13/2020 10:45:00 PM 5.29 41.522 0.099 7.11 2.89 12.28
12/13/2020 11:00:00 PM 5.28 41.504 0.099 7.11 2.66 12.27
12/13/2020 11:15:00 PM 5.26 41.468 0.099 7.11 2.78 12.26
12/13/2020 11:30:00 PM 5.24 41.432 0.099 7.1 2.73 12.25
12/13/2020 11:45:00 PM 5.22 41.396 0.1 7.1 2.71 12.25
12/14/2020 12:00:00 AM 5.21 41.378 0.099 7.1 2.68 12.24
12/14/2020 12:15:00 AM 5.19 41.342 0.099 7.1 2.7 12.24
12/14/2020 12:30:00 AM 5.17 41.306 0.1 7.1 2.67 12.23
12/14/2020 12:45:00 AM 5.16 41.288 0.1 7.09 2.72 12.23
12/14/2020 1:00:00 AM 5.14 41.252 0.099 7.1 2.67 12.23
12/14/2020 1:15:00 AM 5.12 41.216 0.099 7.09 2.62 12.23
12/14/2020 1:30:00 AM 5.1 41.18 0.099 7.09 2.68 12.23
12/14/2020 1:45:00 AM 5.07 41.126 0.099 7.09 2.68 12.23
12/14/2020 2:00:00 AM 5.05 41.09 0.099 7.09 2.67 12.24
12/14/2020 2:15:00 AM 5.03 41.054 0.099 7.08 2.96 12.23
12/14/2020 2:30:00 AM 5.01 41.018 0.099 7.08 2.7 12.24
12/14/2020 2:45:00 AM 4.97 40.946 0.1 7.07 2.7 12.24
12/14/2020 3:00:00 AM 4.95 40.91 0.1 7.08 2.79 12.25
12/14/2020 3:15:00 AM 4.93 40.874 0.1 7.08 2.63 12.24
12/14/2020 3:30:00 AM 4.9 40.82 0.1 7.08 4.37 12.25
12/14/2020 3:45:00 AM 4.88 40.784 0.1 7.08 2.92 12.24
12/14/2020 4:00:00 AM 4.86 40.748 0.1 7.08 2.76 12.26
12/14/2020 4:15:00 AM 4.84 40.712 0.1 7.07 2.86 12.26
12/14/2020 4:30:00 AM 4.82 40.676 0.1 7.08 2.83 12.27
12/14/2020 4:45:00 AM 4.79 40.622 0.1 7.07 2.77 12.27
12/14/2020 5:00:00 AM 4.78 40.604 0.1 7.08 2.82 12.27
12/14/2020 5:15:00 AM 4.76 40.568 0.1 7.07 2.71 12.28
12/14/2020 5:30:00 AM 4.74 40.532 0.1 7.08 3.02 12.29
12/14/2020 5:45:00 AM 4.72 40.496 0.1 7.07 2.77 12.28
12/14/2020 6:00:00 AM 4.7 40.46 0.1 7.07 2.76 12.29
12/14/2020 6:15:00 AM 4.68 40.424 0.101 7.07 2.79 12.3
12/14/2020 6:30:00 AM 4.66 40.388 0.101 7.08 2.75 12.3
12/14/2020 6:45:00 AM 4.64 40.352 0.101 7.08 2.7 12.31
12/14/2020 7:00:00 AM 4.63 40.334 0.101 7.07 2.76 12.3
12/14/2020 7:15:00 AM 4.6 40.28 0.101 7.08 2.76 12.32
12/14/2020 7:30:00 AM 4.55 40.19 0.101 7.07 2.89 12.33
12/14/2020 7:45:00 AM 4.51 40.118 0.101 7.08 2.85 12.35
12/14/2020 8:00:00 AM 4.5 40.1 0.101 7.09 2.76 12.39
12/14/2020 8:15:00 AM 4.49 40.082 0.101 7.09 2.75 12.44
12/14/2020 8:30:00 AM 4.47 40.046 0.101 7.09 2.75 12.5
12/14/2020 8:45:00 AM 4.43 39.974 0.101 7.1 2.88 12.57
12/14/2020 9:00:00 AM 4.4 39.92 0.101 7.11 3 12.64
12/14/2020 9:15:00 AM 4.38 39.884 0.101 7.13 2.88 12.71
12/14/2020 9:30:00 AM 4.36 39.848 0.101 7.14 3.1 12.84
12/14/2020 9:45:00 AM 4.36 39.848 0.101 7.17 3 12.99
12/14/2020 10:00:00 AM 4.37 39.866 0.101 7.18 2.86 13.12
12/14/2020 10:15:00 AM 4.38 39.884 0.101 7.21 2.83 13.22
12/14/2020 10:30:00 AM 4.39 39.902 0.101 7.22 2.92 13.3
12/14/2020 10:45:00 AM 4.4 39.92 0.101 7.25 2.83 13.4
12/14/2020 11:00:00 AM 4.42 39.956 0.1 7.26 2.8 13.51
12/14/2020 11:15:00 AM 4.43 39.974 0.101 7.27 2.73 13.53
12/14/2020 11:30:00 AM 4.43 39.974 0.101 7.28 2.78 13.54
12/14/2020 11:45:00 AM 4.44 39.992 0.1 7.29 2.91 13.59
12/14/2020 12:00:00 PM 4.46 40.028 0.1 7.32 2.75 13.66
12/14/2020 12:15:00 PM 4.47 40.046 0.101 7.32 2.76 13.68
12/14/2020 12:30:00 PM 4.48 40.064 0.1 7.33 2.76 13.72
12/14/2020 12:45:00 PM 4.49 40.082 0.1 7.34 2.67 13.74
12/14/2020 1:00:00 PM 4.49 40.082 0.101 7.34 2.62 13.7
12/14/2020 1:15:00 PM 4.49 40.082 0.101 7.34 2.69 13.7
12/14/2020 1:30:00 PM 4.49 40.082 0.1 7.36 2.66 13.77
12/14/2020 1:45:00 PM 4.5 40.1 0.1 7.37 2.65 13.81
12/14/2020 2:00:00 PM 4.5 40.1 0.1 7.38 3.13 13.84
12/14/2020 2:15:00 PM 4.51 40.118 0.1 7.39 2.7 13.87
12/14/2020 2:30:00 PM 4.51 40.118 0.1 7.4 2.67 13.88
12/14/2020 2:45:00 PM 4.51 40.118 0.1 7.4 2.61 13.88
12/14/2020 3:00:00 PM 4.51 40.118 0.1 7.41 2.67 13.88
12/14/2020 3:15:00 PM 4.51 40.118 0.1 7.41 2.66 13.88
12/14/2020 3:30:00 PM 4.52 40.136 0.1 7.41 2.66 13.92
12/14/2020 3:45:00 PM 4.52 40.136 0.1 7.41 2.7 13.87
12/14/2020 4:00:00 PM 4.52 40.136 0.1 7.39 2.6 13.8
12/14/2020 4:15:00 PM 4.52 40.136 0.1 7.38 2.67 13.74
12/14/2020 4:30:00 PM 4.51 40.118 0.1 7.37 2.66 13.66
12/14/2020 4:45:00 PM 4.5 40.1 0.1 7.34 2.7 13.54
12/14/2020 5:00:00 PM 4.49 40.082 0.1 7.32 2.7 13.44
12/14/2020 5:15:00 PM 4.48 40.064 0.1 7.3 2.77 13.35
12/14/2020 5:30:00 PM 4.34 39.812 0.1 7.28 3.8 13.27
12/14/2020 5:45:00 PM 4.31 39.758 0.1 7.26 2.94 13.2
12/14/2020 6:00:00 PM 4.29 39.722 0.101 7.25 2.98 13.14
12/14/2020 6:15:00 PM 4.25 39.65 0.101 7.23 2.65 13.08
12/14/2020 6:30:00 PM 4.23 39.614 0.101 7.22 2.66 13.03
12/14/2020 6:45:00 PM 4.18 39.524 0.101 7.21 2.59 13
12/14/2020 7:00:00 PM 4.12 39.416 0.101 7.2 2.58 12.98
12/14/2020 7:15:00 PM 4.06 39.308 0.101 7.19 2.65 12.97
12/14/2020 7:30:00 PM 4.02 39.236 0.101 7.19 2.69 12.96
12/14/2020 7:45:00 PM 3.97 39.146 0.101 7.18 2.77 12.95
12/14/2020 8:00:00 PM 3.94 39.092 0.101 7.18 2.62 12.93
12/14/2020 8:15:00 PM 3.91 39.038 0.102 7.17 2.59 12.92
12/14/2020 8:30:00 PM 3.86 38.948 0.102 7.17 2.63 12.91
12/14/2020 8:45:00 PM 3.81 38.858 0.101 7.17 2.68 12.89
12/14/2020 9:00:00 PM 3.75 38.75 0.101 7.15 2.61 12.88
12/14/2020 9:15:00 PM 3.7 38.66 0.101 7.15 2.65 12.88
12/14/2020 9:30:00 PM 3.64 38.552 0.101 7.15 2.59 12.87
12/14/2020 9:45:00 PM 3.57 38.426 0.101 7.14 2.61 12.87
12/14/2020 10:00:00 PM 3.5 38.3 0.101 7.14 2.6 12.87
12/14/2020 10:15:00 PM 3.45 38.21 0.101 7.14 2.68 12.86
12/14/2020 10:30:00 PM 3.4 38.12 0.101 7.13 2.62 12.86
12/14/2020 10:45:00 PM 3.34 38.012 0.102 7.13 2.67 12.86
12/14/2020 11:00:00 PM 3.29 37.922 0.102 7.13 2.74 12.86
12/14/2020 11:15:00 PM 3.23 37.814 0.102 7.12 2.68 12.87
12/14/2020 11:30:00 PM 3.19 37.742 0.102 7.12 2.59 12.88
12/14/2020 11:45:00 PM 3.14 37.652 0.102 7.11 2.94 12.88
12/15/2020 12:00:00 AM 3.1 37.58 0.102 7.12 2.59 12.89
12/15/2020 12:15:00 AM 3.05 37.49 0.102 7.11 2.61 12.9
12/15/2020 12:30:00 AM 3.01 37.418 0.102 7.12 2.64 12.91
12/15/2020 12:45:00 AM 2.97 37.346 0.102 7.1 2.72 12.92
12/15/2020 1:00:00 AM 2.92 37.256 0.102 7.11 2.65 12.94
12/15/2020 1:15:00 AM 2.89 37.202 0.102 7.11 2.71 12.94
12/15/2020 1:30:00 AM 2.85 37.13 0.102 7.11 2.64 12.95
12/15/2020 1:45:00 AM 2.81 37.058 0.102 7.11 2.69 12.96
12/15/2020 2:00:00 AM 2.79 37.022 0.102 7.11 2.72 12.97
12/15/2020 2:15:00 AM 2.77 36.986 0.102 7.1 2.6 12.98
12/15/2020 2:30:00 AM 2.74 36.932 0.103 7.1 2.71 13
12/15/2020 2:45:00 AM 2.69 36.842 0.103 7.1 2.78 13.02
12/15/2020 3:00:00 AM 2.66 36.788 0.103 7.1 2.71 13.02
12/15/2020 3:15:00 AM 2.62 36.716 0.102 7.11 4.34 13.05
12/15/2020 3:30:00 AM 2.6 36.68 0.103 7.1 2.7 13.05
12/15/2020 3:45:00 AM 2.59 36.662 0.103 7.11 2.72 13.06
12/15/2020 4:00:00 AM 2.56 36.608 0.103 7.1 2.72 13.08
12/15/2020 4:15:00 AM 2.53 36.554 0.103 7.1 2.76 13.09
12/15/2020 4:30:00 AM 2.52 36.536 0.103 7.1 2.71 13.1
12/15/2020 4:45:00 AM 2.49 36.482 0.103 7.11 2.67 13.11
12/15/2020 5:00:00 AM 2.47 36.446 0.103 7.1 2.73 13.13
12/15/2020 5:15:00 AM 2.44 36.392 0.103 7.1 2.92 13.14
12/15/2020 5:30:00 AM 2.43 36.374 0.103 7.1 2.68 13.14
12/15/2020 5:45:00 AM 2.42 36.356 0.103 7.1 2.78 13.15
12/15/2020 6:00:00 AM 2.41 36.338 0.103 7.1 2.63 13.16
12/15/2020 6:15:00 AM 2.39 36.302 0.103 7.1 2.73 13.17
12/15/2020 6:30:00 AM 2.37 36.266 0.103 7.1 2.63 13.18
12/15/2020 6:45:00 AM 2.33 36.194 0.103 7.1 2.63 13.19
12/15/2020 7:00:00 AM 2.32 36.176 0.103 7.1 2.7 13.2
12/15/2020 7:15:00 AM 2.31 36.158 0.103 7.1 2.55 13.22
12/15/2020 7:30:00 AM 2.29 36.122 0.103 7.09 2.81 13.23
12/15/2020 7:45:00 AM 2.28 36.104 0.103 7.11 2.71 13.28
12/15/2020 8:00:00 AM 2.27 36.086 0.103 7.11 2.69 13.32
12/15/2020 8:15:00 AM 2.27 36.086 0.103 7.12 2.66 13.41
12/15/2020 8:30:00 AM 2.27 36.086 0.103 7.14 2.67 13.53
12/15/2020 8:45:00 AM 2.27 36.086 0.103 7.15 2.76 13.61
12/15/2020 9:00:00 AM 2.27 36.086 0.103 7.16 2.71 13.71
12/15/2020 9:15:00 AM 2.29 36.122 0.103 7.18 2.71 13.84
12/15/2020 9:30:00 AM 2.31 36.158 0.103 7.2 2.78 13.96
12/15/2020 9:45:00 AM 2.32 36.176 0.103 7.22 2.76 14.07
12/15/2020 10:00:00 AM 2.33 36.194 0.103 7.24 2.76 14.2
12/15/2020 10:15:00 AM 2.33 36.194 0.103 7.25 2.62 14.28
12/15/2020 10:30:00 AM 2.4 36.32 0.103 7.28 2.71 14.36
12/15/2020 10:45:00 AM 2.44 36.392 0.102 7.29 2.74 14.43
12/15/2020 11:00:00 AM 2.45 36.41 0.103 7.3 2.64 14.5
12/15/2020 11:15:00 AM 2.46 36.428 0.102 7.32 2.63 14.55
12/15/2020 11:30:00 AM 2.49 36.482 0.103 7.33 2.68 14.6
12/15/2020 11:45:00 AM 2.52 36.536 0.102 7.34 2.78 14.64
12/15/2020 12:00:00 PM 2.54 36.572 0.102 7.36 2.71 14.67
12/15/2020 12:15:00 PM 2.56 36.608 0.102 7.36 2.65 14.7
12/15/2020 12:30:00 PM 2.55 36.59 0.102 7.37 2.54 14.7
12/15/2020 12:45:00 PM 2.54 36.572 0.102 7.37 2.65 14.72
12/15/2020 1:00:00 PM 2.55 36.59 0.102 7.39 2.59 14.75
12/15/2020 1:15:00 PM 2.57 36.626 0.102 7.39 2.63 14.8
12/15/2020 1:30:00 PM 2.59 36.662 0.102 7.41 2.63 14.83
12/15/2020 1:45:00 PM 2.61 36.698 0.102 7.43 2.63 14.85
12/15/2020 2:00:00 PM 2.6 36.68 0.102 7.43 2.58 14.84
12/15/2020 2:15:00 PM 2.61 36.698 0.102 7.43 2.6 14.88
12/15/2020 2:30:00 PM 2.65 36.77 0.102 7.46 2.64 14.92
12/15/2020 2:45:00 PM 2.66 36.788 0.102 7.45 2.61 14.95
12/15/2020 3:00:00 PM 2.66 36.788 0.102 7.47 2.54 14.94
12/15/2020 3:15:00 PM 2.66 36.788 0.102 7.46 2.51 14.93
12/15/2020 3:30:00 PM 2.63 36.734 0.102 7.46 2.64 14.9
12/15/2020 3:45:00 PM 2.6 36.68 0.102 7.45 2.65 14.85
12/15/2020 4:00:00 PM 2.55 36.59 0.102 7.44 2.62 14.8
12/15/2020 4:15:00 PM 2.52 36.536 0.102 7.43 2.7 14.74
12/15/2020 4:30:00 PM 2.48 36.464 0.102 7.41 2.62 14.64
12/15/2020 4:45:00 PM 2.43 36.374 0.102 7.38 2.51 14.54
12/15/2020 5:00:00 PM 2.38 36.284 0.102 7.35 2.62 14.44
12/15/2020 5:15:00 PM 2.34 36.212 0.102 7.33 2.61 14.35
12/15/2020 5:30:00 PM 2.31 36.158 0.102 7.31 2.56 14.27
12/15/2020 5:45:00 PM 2.27 36.086 0.102 7.3 2.52 14.19
12/15/2020 6:00:00 PM 2.25 36.05 0.102 7.28 2.56 14.12
12/15/2020 6:15:00 PM 2.22 35.996 0.103 7.27 2.59 14.07
12/15/2020 6:30:00 PM 2.19 35.942 0.103 7.25 2.59 14.01
12/15/2020 6:45:00 PM 2.17 35.906 0.103 7.23 2.54 13.97
12/15/2020 7:00:00 PM 2.15 35.87 0.103 7.23 2.57 13.94
12/15/2020 7:15:00 PM 2.12 35.816 0.103 7.21 2.54 13.92
12/15/2020 7:30:00 PM 2.08 35.744 0.103 7.21 2.57 13.91
12/15/2020 7:45:00 PM 2.05 35.69 0.103 7.21 2.55 13.89
12/15/2020 8:00:00 PM 2.02 35.636 0.103 7.2 2.67 13.87
12/15/2020 8:15:00 PM 1.99 35.582 0.103 7.19 2.57 13.85
12/15/2020 8:30:00 PM 1.96 35.528 0.103 7.19 2.55 13.84
12/15/2020 8:45:00 PM 1.93 35.474 0.103 7.18 2.58 13.82
12/15/2020 9:00:00 PM 1.89 35.402 0.103 7.18 2.54 13.8
12/15/2020 9:15:00 PM 1.86 35.348 0.103 7.18 2.59 13.79
12/15/2020 9:30:00 PM 1.82 35.276 0.103 7.16 2.59 13.78
12/15/2020 9:45:00 PM 1.79 35.222 0.103 7.16 2.6 13.76
12/15/2020 10:00:00 PM 1.76 35.168 0.103 7.16 2.61 13.74
12/15/2020 10:15:00 PM 1.72 35.096 0.103 7.15 2.56 13.72
12/15/2020 10:30:00 PM 1.69 35.042 0.103 7.15 2.48 13.71
12/15/2020 10:45:00 PM 1.66 34.988 0.103 7.14 2.52 13.7
12/15/2020 11:00:00 PM 1.63 34.934 0.103 7.13 2.52 13.69
12/15/2020 11:15:00 PM 1.6 34.88 0.103 7.13 2.52 13.68
12/15/2020 11:30:00 PM 1.57 34.826 0.103 7.13 2.55 13.68
12/15/2020 11:45:00 PM 1.54 34.772 0.103 7.13 2.55 13.68
12/16/2020 12:00:00 AM 1.51 34.718 0.103 7.13 2.51 13.67
12/16/2020 12:15:00 AM 1.48 34.664 0.103 7.11 2.5 13.67
12/16/2020 12:30:00 AM 1.45 34.61 0.103 7.11 2.53 13.67
12/16/2020 12:45:00 AM 1.43 34.574 0.103 7.12 2.61 13.67
12/16/2020 1:00:00 AM 1.41 34.538 0.103 7.1 2.57 13.67
12/16/2020 1:15:00 AM 1.38 34.484 0.103 7.11 2.66 13.67
12/16/2020 1:30:00 AM 1.35 34.43 0.103 7.1 2.69 13.67
12/16/2020 1:45:00 AM 1.32 34.376 0.103 7.11 2.66 13.68
12/16/2020 2:00:00 AM 1.3 34.34 0.103 7.11 2.65 13.68
12/16/2020 2:15:00 AM 1.27 34.286 0.103 7.1 2.72 13.69
12/16/2020 2:30:00 AM 1.23 34.214 0.103 7.1 2.66 13.7
12/16/2020 2:45:00 AM 1.19 34.142 0.103 7.1 2.65 13.71
12/16/2020 3:00:00 AM 1.16 34.088 0.103 7.09 2.62 13.72
12/16/2020 3:15:00 AM 1.13 34.034 0.103 7.1 2.66 13.73
12/16/2020 3:30:00 AM 1.1 33.98 0.103 7.1 2.59 13.74
12/16/2020 3:45:00 AM 1.08 33.944 0.103 7.1 2.56 13.74
12/16/2020 4:00:00 AM 1.07 33.926 0.103 7.1 2.58 13.75
12/16/2020 4:15:00 AM 1.05 33.89 0.103 7.1 2.75 13.76
12/16/2020 4:30:00 AM 1.01 33.818 0.103 7.09 2.59 13.76
12/16/2020 4:45:00 AM 0.98 33.764 0.103 7.1 2.59 13.78
12/16/2020 5:00:00 AM 0.94 33.692 0.104 7.09 2.57 13.79
12/16/2020 5:15:00 AM 0.91 33.638 0.104 7.09 2.58 13.79
12/16/2020 5:30:00 AM 0.88 33.584 0.104 7.09 2.58 13.81
12/16/2020 5:45:00 AM 0.86 33.548 0.104 7.09 2.59 13.81
12/16/2020 6:00:00 AM 0.84 33.512 0.104 7.09 2.63 13.82
12/16/2020 6:15:00 AM 0.82 33.476 0.104 7.09 2.65 13.83
12/16/2020 6:30:00 AM 0.8 33.44 0.104 7.09 2.62 13.84
12/16/2020 6:45:00 AM 0.78 33.404 0.104 7.1 2.64 13.84
12/16/2020 7:00:00 AM 0.76 33.368 0.104 7.09 2.69 13.84
12/16/2020 7:15:00 AM 0.75 33.35 0.105 7.08 2.71 13.86
12/16/2020 7:30:00 AM 0.73 33.314 0.105 7.09 2.6 13.88
12/16/2020 7:45:00 AM 0.71 33.278 0.105 7.09 2.56 13.91
12/16/2020 8:00:00 AM 0.71 33.278 0.105 7.1 2.66 13.95
12/16/2020 8:15:00 AM 0.71 33.278 0.105 7.1 2.65 14
12/16/2020 8:30:00 AM 0.72 33.296 0.105 7.12 2.65 14.1
12/16/2020 8:45:00 AM 0.72 33.296 0.105 7.13 2.8 14.2
12/16/2020 9:00:00 AM 0.73 33.314 0.105 7.14 2.64 14.29
12/16/2020 9:15:00 AM 0.73 33.314 0.105 7.16 2.73 14.37
12/16/2020 9:30:00 AM 0.74 33.332 0.105 7.16 2.61 14.46
12/16/2020 9:45:00 AM 0.74 33.332 0.105 7.18 2.67 14.54
12/16/2020 10:00:00 AM 0.76 33.368 0.105 7.19 2.67 14.61
12/16/2020 10:15:00 AM 0.81 33.458 0.105 7.21 2.71 14.72
12/16/2020 10:30:00 AM 0.85 33.53 0.105 7.22 2.83 14.83
12/16/2020 10:45:00 AM 0.89 33.602 0.105 7.24 2.68 14.9
12/16/2020 11:00:00 AM 0.92 33.656 0.105 7.25 2.73 14.96
12/16/2020 11:15:00 AM 0.95 33.71 0.105 7.27 2.73 15.01
12/16/2020 11:30:00 AM 0.97 33.746 0.105 7.26 2.65 15.03
12/16/2020 11:45:00 AM 0.97 33.746 0.105 7.27 2.68 15.04
12/16/2020 12:00:00 PM 0.98 33.764 0.105 7.28 2.65 15.03
12/16/2020 12:15:00 PM 1 33.8 0.105 7.28 2.67 15.05
12/16/2020 12:30:00 PM 1.02 33.836 0.105 7.29 2.69 15.05
12/16/2020 12:45:00 PM 1.03 33.854 0.105 7.28 2.67 15.05
12/16/2020 1:00:00 PM 1.04 33.872 0.105 7.29 2.7 15.07
12/16/2020 1:15:00 PM 1.04 33.872 0.106 7.3 2.64 15.08
12/16/2020 1:30:00 PM 1.04 33.872 0.106 7.3 2.66 15.07
12/16/2020 1:45:00 PM 1.03 33.854 0.106 7.3 2.62 15.07
12/16/2020 2:00:00 PM 1.03 33.854 0.106 7.3 2.64 15.06
12/16/2020 2:15:00 PM 1.02 33.836 0.106 7.3 2.78 15.02
12/16/2020 2:30:00 PM 1.01 33.818 0.106 7.29 3.02 14.99
12/16/2020 2:45:00 PM 0.99 33.782 0.106 7.3 2.92 14.95
12/16/2020 3:00:00 PM 0.96 33.728 0.106 7.28 2.84 14.93
12/16/2020 3:15:00 PM 0.94 33.692 0.106 7.28 2.81 14.91
12/16/2020 3:30:00 PM 0.91 33.638 0.106 7.27 2.75 14.87
12/16/2020 3:45:00 PM 0.89 33.602 0.106 7.28 2.67 14.82
12/16/2020 4:00:00 PM 0.85 33.53 0.106 7.27 2.64 14.76
12/16/2020 4:15:00 PM 0.81 33.458 0.105 7.25 2.64 14.69
12/16/2020 4:30:00 PM 0.77 33.386 0.105 7.24 2.61 14.63
12/16/2020 4:45:00 PM 0.72 33.296 0.105 7.23 2.59 14.57
12/16/2020 5:00:00 PM 0.64 33.152 0.105 7.23 2.62 14.52
12/16/2020 5:15:00 PM 0.56 33.008 0.105 7.22 2.6 14.49
12/16/2020 5:30:00 PM 0.49 32.882 0.105 7.22 2.58 14.45
12/16/2020 5:45:00 PM 0.45 32.81 0.105 7.2 2.71 14.4
12/16/2020 6:00:00 PM 0.41 32.738 0.105 7.2 2.94 14.38
12/16/2020 6:15:00 PM 0.38 32.684 0.105 7.19 2.96 14.35
12/16/2020 6:30:00 PM 0.32 32.576 0.104 7.19 2.84 14.33
12/16/2020 6:45:00 PM 0.28 32.504 0.104 7.19 2.82 14.31
12/16/2020 7:00:00 PM 0.25 32.45 0.104 7.18 2.68 14.29
12/16/2020 7:15:00 PM 0.2 32.36 0.104 7.17 2.69 14.28
12/16/2020 7:30:00 PM 0.1 32.18 0.104 7.16 2.71 14.26
12/16/2020 7:45:00 PM 0.04 32.072 0.103 7.16 2.72 14.25
12/16/2020 8:00:00 PM 0 32 0.104 7.16 2.65 14.23
12/16/2020 8:15:00 PM -0.03 31.946 0.103 7.16 2.89 14.23
12/16/2020 8:30:00 PM -0.04 31.928 0.103 7.16 2.56 14.21
12/16/2020 8:45:00 PM -0.04 31.928 0.103 7.15 2.62 14.19
12/16/2020 9:00:00 PM -0.04 31.928 0.103 7.15 2.6 14.17
12/16/2020 9:15:00 PM -0.04 31.928 0.104 7.14 2.62 14.15
12/16/2020 9:30:00 PM -0.04 31.928 0.104 7.13 2.56 14.13
12/16/2020 9:45:00 PM -0.03 31.946 0.104 7.12 2.56 14.09
12/16/2020 10:00:00 PM -0.02 31.964 0.104 7.11 2.55 14.07
12/16/2020 10:15:00 PM -0.01 31.982 0.105 7.11 2.6 14.05
12/16/2020 10:30:00 PM 0.02 32.036 0.105 7.1 2.52 13.98
12/16/2020 10:45:00 PM 0.05 32.09 0.106 7.1 2.66 13.93
12/16/2020 11:00:00 PM 0.09 32.162 0.106 7.08 2.62 13.84
12/16/2020 11:15:00 PM 0.12 32.216 0.106 7.08 2.69 13.73
12/16/2020 11:30:00 PM 0.15 32.27 0.106 7.08 2.65 13.67
12/16/2020 11:45:00 PM 0.18 32.324 0.106 7.06 2.65 13.51
12/17/2020 12:00:00 AM 0.24 32.432 0.106 7.05 2.61 13.25
12/17/2020 12:15:00 AM 0.29 32.522 0.106 7.03 2.55 13.15
12/17/2020 12:30:00 AM 0.29 32.522 0.106 7.04 2.67 13.17
12/17/2020 12:45:00 AM 0.23 32.414 0.106 7.03 2.96 13.33
12/17/2020 1:00:00 AM 0.18 32.324 0.107 7.03 2.79 13.43
12/17/2020 1:15:00 AM 0.2 32.36 0.108 7.03 2.8 13.38
12/17/2020 1:30:00 AM 0.1 32.18 0.109 7.01 4.11 13.29
12/17/2020 1:45:00 AM 0.01 32.018 0.109 7.02 9.59 13.66
12/17/2020 2:00:00 AM -0.04 31.928 0.109 7.02 5.95 13.74
12/17/2020 2:15:00 AM -0.04 31.928 0.11 7.02 5.15 13.75
12/17/2020 2:30:00 AM -0.04 31.928 0.11 7.01 4.13 13.75
12/17/2020 2:45:00 AM -0.04 31.928 0.11 7.01 4.18 13.71
12/17/2020 3:00:00 AM -0.04 31.928 0.113 6.98 3.75 13.63
12/17/2020 3:15:00 AM -0.04 31.928 0.115 6.95 3.26 13.56
12/17/2020 3:30:00 AM -0.04 31.928 0.114 6.97 3.38 13.56
12/17/2020 3:45:00 AM -0.04 31.928 0.114 6.97 3.22 13.53
12/17/2020 4:00:00 AM -0.03 31.946 0.115 6.95 3.46 13.47
12/17/2020 4:15:00 AM -0.04 31.928 0.113 6.95 3.41 13.48
12/17/2020 4:30:00 AM -0.03 31.946 0.113 6.93 3.25 13.46
12/17/2020 4:45:00 AM -0.03 31.946 0.113 6.94 4.29 13.46
12/17/2020 5:00:00 AM -0.04 31.928 0.113 6.95 3.36 13.47
12/17/2020 5:15:00 AM -0.04 31.928 0.113 6.94 3.59 13.43
12/17/2020 5:30:00 AM -0.04 31.928 0.113 6.93 3.22 13.41
12/17/2020 5:45:00 AM -0.04 31.928 0.114 6.94 3.51 13.37
12/17/2020 6:00:00 AM -0.04 31.928 0.114 6.92 3.22 13.31
12/17/2020 6:15:00 AM -0.04 31.928 0.114 6.92 3.59 13.28
12/17/2020 6:30:00 AM -0.04 31.928 0.114 6.9 3.45 13.25
12/17/2020 6:45:00 AM -0.04 31.928 0.115 6.91 3.5 13.21
12/17/2020 7:00:00 AM -0.03 31.946 0.115 6.9 3.7 13.16
12/17/2020 7:15:00 AM -0.03 31.946 0.116 6.89 3.55 13.11
12/17/2020 7:30:00 AM -0.03 31.946 0.116 6.89 3.5 13.08
12/17/2020 7:45:00 AM -0.03 31.946 0.116 6.89 3.52 13.06
12/17/2020 8:00:00 AM -0.02 31.964 0.116 6.89 3.29 13.05
12/17/2020 8:15:00 AM -0.02 31.964 0.117 6.88 3.72 13.05
12/17/2020 8:30:00 AM -0.02 31.964 0.116 6.89 3.34 13.09
12/17/2020 8:45:00 AM -0.02 31.964 0.117 6.9 3.65 13.15
12/17/2020 9:00:00 AM -0.02 31.964 0.117 6.9 3.4 13.24
12/17/2020 9:15:00 AM -0.02 31.964 0.117 6.91 3.18 13.29
12/17/2020 9:30:00 AM -0.02 31.964 0.118 6.91 3.22 13.33
12/17/2020 9:45:00 AM -0.02 31.964 0.118 6.92 3.17 13.37
12/17/2020 10:00:00 AM -0.02 31.964 0.118 6.91 3.06 13.4
12/17/2020 10:15:00 AM -0.02 31.964 0.118 6.93 3.14 13.45
12/17/2020 10:30:00 AM -0.01 31.982 0.118 6.93 3.07 13.5
12/17/2020 10:45:00 AM -0.01 31.982 0.119 6.93 3.24 13.57
12/17/2020 11:00:00 AM -0.01 31.982 0.118 6.94 3.17 13.66
12/17/2020 11:15:00 AM -0.01 31.982 0.118 6.94 3.28 13.75
12/17/2020 11:30:00 AM -0.02 31.964 0.118 6.95 3.35 13.82
12/17/2020 11:45:00 AM -0.02 31.964 0.118 6.96 3.34 13.9
12/17/2020 12:00:00 PM -0.02 31.964 0.118 6.96 3.33 13.96
12/17/2020 12:15:00 PM -0.02 31.964 0.118 6.97 3.26 14.03
12/17/2020 12:30:00 PM -0.02 31.964 0.118 6.98 3.31 14.08
12/17/2020 12:45:00 PM -0.02 31.964 0.117 6.97 3.27 14.13
12/17/2020 1:00:00 PM -0.02 31.964 0.116 6.99 3.47 14.18
12/17/2020 1:15:00 PM -0.02 31.964 0.115 6.98 3.31 14.21
12/17/2020 1:30:00 PM -0.02 31.964 0.115 6.99 3.22 14.21
12/17/2020 1:45:00 PM -0.02 31.964 0.114 6.99 3.23 14.23
12/17/2020 2:00:00 PM -0.02 31.964 0.113 7 3.28 14.25
12/17/2020 2:15:00 PM -0.03 31.946 0.112 7 3.35 14.26
12/17/2020 2:30:00 PM -0.03 31.946 0.112 6.99 3.32 14.26
12/17/2020 2:45:00 PM -0.03 31.946 0.111 7 3.45 14.27
12/17/2020 3:00:00 PM -0.03 31.946 0.11 7 3.13 14.3
12/17/2020 3:15:00 PM -0.03 31.946 0.109 7.01 3.3 14.33
12/17/2020 3:30:00 PM -0.04 31.928 0.109 7.01 3.33 14.32
12/17/2020 3:45:00 PM -0.04 31.928 0.108 7.01 3.18 14.35
12/17/2020 4:00:00 PM -0.04 31.928 0.108 7.02 3.34 14.32
12/17/2020 4:15:00 PM -0.04 31.928 0.108 7.02 3.24 14.29
12/17/2020 4:30:00 PM -0.04 31.928 0.108 7.01 3.28 14.31
12/17/2020 4:45:00 PM -0.04 31.928 0.108 7.02 3.33 14.25
12/17/2020 5:00:00 PM -0.04 31.928 0.108 7.02 3.2 14.22
12/17/2020 5:15:00 PM -0.04 31.928 0.108 7.01 3.36 14.21
12/17/2020 5:30:00 PM -0.04 31.928 0.108 7.01 3.36 14.17
12/17/2020 5:45:00 PM -0.04 31.928 0.108 7.01 3.49 14.15
12/17/2020 6:00:00 PM -0.04 31.928 0.109 7.01 3.35 14.1
12/17/2020 6:15:00 PM -0.04 31.928 0.109 7.01 3.4 14.04
12/17/2020 6:30:00 PM -0.04 31.928 0.109 7.01 3.53 14.04
12/17/2020 6:45:00 PM -0.04 31.928 0.109 7.01 3.47 14.03
12/17/2020 7:00:00 PM -0.04 31.928 0.109 7 3.4 14.03
12/17/2020 7:15:00 PM -0.05 31.91 0.109 7.01 3.62 14.02
12/17/2020 7:30:00 PM -0.04 31.928 0.109 7 3.62 14
12/17/2020 7:45:00 PM -0.05 31.91 0.109 7 4.02 14
12/17/2020 8:00:00 PM -0.05 31.91 0.108 7 3.99 14.01
12/17/2020 8:15:00 PM -0.05 31.91 0.108 7 3.85 14
12/17/2020 8:30:00 PM -0.05 31.91 0.107 7.01 4.4 13.99
12/17/2020 8:45:00 PM -0.04 31.928 0.107 7 3.88 13.96
12/17/2020 9:00:00 PM -0.04 31.928 0.107 7.01 3.92 13.95
12/17/2020 9:15:00 PM -0.05 31.91 0.107 7 4.06 13.94
12/17/2020 9:30:00 PM -0.05 31.91 0.108 7.01 4.49 13.94
12/17/2020 9:45:00 PM -0.04 31.928 0.109 7.02 4.28 13.94
12/17/2020 10:00:00 PM -0.05 31.91 0.109 7.02 4.14 13.95
12/17/2020 10:15:00 PM -0.05 31.91 0.11 7.03 4.41 13.96
12/17/2020 10:30:00 PM -0.05 31.91 0.111 7.03 4.91 13.96
12/17/2020 10:45:00 PM -0.05 31.91 0.112 7.03 4.25 13.96
12/17/2020 11:00:00 PM -0.05 31.91 0.112 7.03 4.68 13.97
12/17/2020 11:15:00 PM -0.05 31.91 0.112 7.03 4.13 13.98
12/17/2020 11:30:00 PM -0.05 31.91 0.112 7.03 4.57 13.97
12/17/2020 11:45:00 PM -0.05 31.91 0.111 7.03 4.33 13.99
12/18/2020 12:00:00 AM -0.05 31.91 0.11 7.04 4.95 14.01
12/18/2020 12:15:00 AM -0.05 31.91 0.11 7.04 5.22 14.01
12/18/2020 12:30:00 AM -0.05 31.91 0.109 7.04 4.67 14.02
12/18/2020 12:45:00 AM -0.05 31.91 0.108 7.04 4.91 14.02
12/18/2020 1:00:00 AM -0.05 31.91 0.107 7.04 4.66 14.02
12/18/2020 1:15:00 AM -0.05 31.91 0.106 7.04 4.62 14.02
12/18/2020 1:30:00 AM -0.05 31.91 0.105 7.03 4.56 14.01
12/18/2020 1:45:00 AM -0.05 31.91 0.104 7.03 4.82 14.01
12/18/2020 2:00:00 AM -0.05 31.91 0.104 7.03 4.87 14
12/18/2020 2:15:00 AM -0.05 31.91 0.104 7.03 4.72 13.99
12/18/2020 2:30:00 AM -0.04 31.928 0.103 7.03 4.19 13.95
12/18/2020 2:45:00 AM -0.04 31.928 0.103 7.03 4.73 13.98
12/18/2020 3:00:00 AM -0.04 31.928 0.103 7.03 4.7 13.97
12/18/2020 3:15:00 AM -0.04 31.928 0.103 7.02 4.01 13.96
12/18/2020 3:30:00 AM -0.04 31.928 0.103 7.02 4.29 13.94
12/18/2020 3:45:00 AM -0.04 31.928 0.103 7.02 4.28 13.94
12/18/2020 4:00:00 AM -0.04 31.928 0.103 7.01 4.11 13.94
12/18/2020 4:15:00 AM -0.04 31.928 0.103 7.02 4.55 13.93
12/18/2020 4:30:00 AM -0.04 31.928 0.103 7.01 4.52 13.93
12/18/2020 4:45:00 AM -0.04 31.928 0.103 7.01 4.3 13.91
12/18/2020 5:00:00 AM -0.04 31.928 0.103 7.01 4.25 13.91
12/18/2020 5:15:00 AM -0.04 31.928 0.103 7.01 4.58 13.91
12/18/2020 5:30:00 AM -0.04 31.928 0.103 7.01 4.28 13.91
12/18/2020 5:45:00 AM -0.03 31.946 0.103 7.01 4.3 13.94
12/18/2020 6:00:00 AM -0.04 31.928 0.102 7 4.1 13.94
12/18/2020 6:15:00 AM -0.03 31.946 0.103 7 4.67 13.94
12/18/2020 6:30:00 AM -0.03 31.946 0.103 7 4.03 13.94
12/18/2020 6:45:00 AM -0.03 31.946 0.102 7 4.59 13.94
12/18/2020 7:00:00 AM -0.03 31.946 0.102 7 3.95 13.94
12/18/2020 7:15:00 AM -0.04 31.928 0.102 7.01 4.11 13.92
12/18/2020 7:30:00 AM -0.04 31.928 0.102 7 4.25 13.9
12/18/2020 7:45:00 AM -0.04 31.928 0.102 7 3.94 13.9
12/18/2020 8:00:00 AM -0.04 31.928 0.102 7 4.23 13.88
12/18/2020 8:15:00 AM -0.04 31.928 0.102 7.01 4.03 13.93
12/18/2020 8:30:00 AM -0.04 31.928 0.101 7.01 4.03 14.01
12/18/2020 8:45:00 AM -0.04 31.928 0.101 7.02 4.16 14.07
12/18/2020 9:00:00 AM -0.04 31.928 0.101 7.03 10.42 14.16
12/18/2020 9:15:00 AM -0.04 31.928 0.101 7.03 4.95 14.22
12/18/2020 9:30:00 AM -0.04 31.928 0.101 7.05 7.65 14.21
12/18/2020 9:45:00 AM -0.04 31.928 0.1 7.03 7.96 14.27
12/18/2020 10:00:00 AM -0.04 31.928 0.1 7.03 6.06 14.35
12/18/2020 10:15:00 AM -0.03 31.946 0.1 7.03 6.93 14.34
12/18/2020 10:30:00 AM -0.03 31.946 0.1 7.02 1062.99 14.41
12/18/2020 10:45:00 AM -0.03 31.946 0.1 7.05 6.32 14.51
12/18/2020 11:00:00 AM -0.03 31.946 0.099 7.01 5.3 14.55
12/18/2020 11:15:00 AM -0.03 31.946 0.099 7.04 5.51 14.54
12/18/2020 11:30:00 AM -0.03 31.946 0.099 7.02 4.76 14.59
12/18/2020 11:45:00 AM -0.02 31.964 0.099 7.01 5.69 14.63
12/18/2020 12:00:00 PM -0.02 31.964 0.099 7.03 4.52 14.66
12/18/2020 12:15:00 PM -0.02 31.964 0.099 7.04 5.05 14.63
12/18/2020 12:30:00 PM -0.01 31.982 0.098 7.06 5 14.71
12/18/2020 12:45:00 PM -0.01 31.982 0.099 7.05 4.16 14.77
12/18/2020 1:00:00 PM -0.01 31.982 0.099 7.07 4.47 14.81
12/18/2020 1:15:00 PM 0 32 0.098 7.08 4.06 14.85
12/18/2020 1:30:00 PM 0 32 0.098 7.08 4.15 14.87
12/18/2020 1:45:00 PM 0 32 0.098 7.08 4.47 14.88
12/18/2020 2:00:00 PM 0 32 0.098 7.08 3.94 14.9
12/18/2020 2:15:00 PM 0.02 32.036 0.098 7.08 4.03 14.96
12/18/2020 2:30:00 PM 0.02 32.036 0.098 7.09 3.81 14.99
12/18/2020 2:45:00 PM 0.02 32.036 0.098 7.11 3.87 14.99
12/18/2020 3:00:00 PM 0.02 32.036 0.098 7.1 3.7 15.03
12/18/2020 3:15:00 PM 0.02 32.036 0.098 7.12 3.69 15.03
12/18/2020 3:30:00 PM 0.02 32.036 0.098 7.12 3.57 15.02
12/18/2020 3:45:00 PM 0.01 32.018 0.098 7.12 3.74 14.99
12/18/2020 4:00:00 PM 0 32 0.098 7.12 3.6 14.95
12/18/2020 4:15:00 PM 0 32 0.098 7.11 3.9 14.9
12/18/2020 4:30:00 PM -0.01 31.982 0.098 7.1 3.65 14.85
12/18/2020 4:45:00 PM -0.02 31.964 0.098 7.09 3.55 14.8
12/18/2020 5:00:00 PM -0.02 31.964 0.098 7.08 3.96 14.75
12/18/2020 5:15:00 PM -0.03 31.946 0.097 7.08 4.43 14.71
12/18/2020 5:30:00 PM -0.03 31.946 0.098 7.07 3.79 14.67
12/18/2020 5:45:00 PM -0.03 31.946 0.097 7.07 4.03 14.64
12/18/2020 6:00:00 PM -0.04 31.928 0.098 7.07 3.77 14.6
12/18/2020 6:15:00 PM -0.04 31.928 0.098 7.05 3.54 14.58
12/18/2020 6:30:00 PM -0.04 31.928 0.098 7.03 3.46 14.57
12/18/2020 6:45:00 PM -0.04 31.928 0.098 7.04 3.39 14.56
12/18/2020 7:00:00 PM -0.05 31.91 0.098 7.03 3.45 14.55
12/18/2020 7:15:00 PM -0.05 31.91 0.098 7.03 3.36 14.54
12/18/2020 7:30:00 PM -0.05 31.91 0.098 7.03 3.55 14.53
12/18/2020 7:45:00 PM -0.05 31.91 0.098 7.02 3.34 14.51
12/18/2020 8:00:00 PM -0.05 31.91 0.098 7.02 3.73 14.51
12/18/2020 8:15:00 PM -0.05 31.91 0.098 7.02 3.49 14.49
12/18/2020 8:30:00 PM -0.06 31.892 0.098 7.01 3.54 14.48
12/18/2020 8:45:00 PM -0.06 31.892 0.098 7.01 3.58 14.46
12/18/2020 9:00:00 PM -0.06 31.892 0.098 7.01 3.61 14.45
12/18/2020 9:15:00 PM -0.06 31.892 0.098 6.99 3.5 14.43
12/18/2020 9:30:00 PM -0.06 31.892 0.098 7 3.5 14.43
12/18/2020 9:45:00 PM -0.06 31.892 0.098 6.99 3.51 14.42
12/18/2020 10:00:00 PM -0.06 31.892 0.098 6.99 3.43 14.41
12/18/2020 10:15:00 PM -0.06 31.892 0.099 6.99 3.47 14.4
12/18/2020 10:30:00 PM -0.06 31.892 0.099 6.99 3.57 14.39
12/18/2020 10:45:00 PM -0.06 31.892 0.099 6.99 3.44 14.39
12/18/2020 11:00:00 PM -0.07 31.874 0.099 6.98 3.36 14.38
12/18/2020 11:15:00 PM -0.07 31.874 0.099 6.97 3.37 14.37
12/18/2020 11:30:00 PM -0.07 31.874 0.099 6.98 3.61 14.37
12/18/2020 11:45:00 PM -0.07 31.874 0.099 6.97 3.43 14.36
12/19/2020 12:00:00 AM -0.07 31.874 0.099 6.98 3.58 14.35
12/19/2020 12:15:00 AM -0.07 31.874 0.099 6.97 3.55 14.35
12/19/2020 12:30:00 AM -0.07 31.874 0.099 6.98 3.5 14.34
12/19/2020 12:45:00 AM -0.07 31.874 0.1 6.98 3.51 14.34
12/19/2020 1:00:00 AM -0.07 31.874 0.1 6.97 3.46 14.33
12/19/2020 1:15:00 AM -0.07 31.874 0.1 6.97 3.49 14.32
12/19/2020 1:30:00 AM -0.07 31.874 0.1 6.96 3.47 14.31
12/19/2020 1:45:00 AM -0.07 31.874 0.101 6.97 3.53 14.31
12/19/2020 2:00:00 AM -0.07 31.874 0.101 6.96 3.53 14.3
12/19/2020 2:15:00 AM -0.07 31.874 0.101 6.95 3.55 14.29
12/19/2020 2:30:00 AM -0.07 31.874 0.101 6.95 3.58 14.29
12/19/2020 2:45:00 AM -0.07 31.874 0.101 6.96 3.53 14.28
12/19/2020 3:00:00 AM -0.07 31.874 0.101 6.97 3.51 14.27
12/19/2020 3:15:00 AM -0.07 31.874 0.102 6.96 3.47 14.27
12/19/2020 3:30:00 AM -0.07 31.874 0.102 6.96 3.49 14.26
12/19/2020 3:45:00 AM -0.07 31.874 0.102 6.95 3.52 14.25
12/19/2020 4:00:00 AM -0.06 31.892 0.102 6.95 3.46 14.24
12/19/2020 4:15:00 AM -0.06 31.892 0.102 6.95 3.4 14.24
12/19/2020 4:30:00 AM -0.06 31.892 0.102 6.95 3.46 14.23
12/19/2020 4:45:00 AM -0.06 31.892 0.102 6.93 3.55 14.22
12/19/2020 5:00:00 AM -0.06 31.892 0.103 6.94 3.78 14.22
12/19/2020 5:15:00 AM -0.06 31.892 0.103 6.94 3.54 14.21
12/19/2020 5:30:00 AM -0.06 31.892 0.103 6.93 3.64 14.21
12/19/2020 5:45:00 AM -0.06 31.892 0.103 6.93 3.53 14.2
12/19/2020 6:00:00 AM -0.06 31.892 0.103 6.92 3.65 14.2
12/19/2020 6:15:00 AM -0.06 31.892 0.103 6.93 3.62 14.19
12/19/2020 6:30:00 AM -0.06 31.892 0.103 6.93 3.68 14.19
12/19/2020 6:45:00 AM -0.06 31.892 0.103 6.93 3.69 14.19
12/19/2020 7:00:00 AM -0.06 31.892 0.103 6.93 3.77 14.18
12/19/2020 7:15:00 AM -0.06 31.892 0.104 6.94 3.69 14.17
12/19/2020 7:30:00 AM -0.06 31.892 0.104 6.92 3.79 14.18
12/19/2020 7:45:00 AM -0.06 31.892 0.104 6.93 3.82 14.2
12/19/2020 8:00:00 AM -0.06 31.892 0.104 6.93 3.65 14.23
12/19/2020 8:15:00 AM -0.06 31.892 0.104 6.94 3.73 14.27
12/19/2020 8:30:00 AM -0.06 31.892 0.104 6.93 3.66 14.32
12/19/2020 8:45:00 AM -0.05 31.91 0.104 6.95 3.68 14.37
12/19/2020 9:00:00 AM -0.05 31.91 0.104 6.95 18.46 14.44
12/19/2020 9:15:00 AM -0.05 31.91 0.104 6.96 6.26 14.51
12/19/2020 9:30:00 AM -0.05 31.91 0.104 6.96 15.93 14.58
12/19/2020 9:45:00 AM -0.05 31.91 0.104 6.98 18.63 14.66
12/19/2020 10:00:00 AM -0.05 31.91 0.104 7 7.79 14.73
12/19/2020 10:15:00 AM -0.04 31.928 0.104 6.99 3.86 14.79
12/19/2020 10:30:00 AM -0.04 31.928 0.104 7.01 4.12 14.84
12/19/2020 10:45:00 AM -0.02 31.964 0.104 7.03 3.88 14.88
12/19/2020 11:00:00 AM 0.01 32.018 0.104 7.05 4.03 14.92
12/19/2020 11:15:00 AM 0.04 32.072 0.103 7.04 4.18 14.95
12/19/2020 11:30:00 AM 0.07 32.126 0.103 7.05 5.22 14.97
12/19/2020 11:45:00 AM 0.1 32.18 0.103 7.06 3.29 15
12/19/2020 12:00:00 PM 0.12 32.216 0.103 7.06 3.45 15.03
12/19/2020 12:15:00 PM 0.13 32.234 0.103 7.07 3.33 15.04
12/19/2020 12:30:00 PM 0.14 32.252 0.102 7.09 3.4 15.07
12/19/2020 12:45:00 PM 0.15 32.27 0.102 7.1 3.39 15.1
12/19/2020 1:00:00 PM 0.16 32.288 0.102 7.1 3.3 15.12
12/19/2020 1:15:00 PM 0.18 32.324 0.102 7.11 3.32 15.15
12/19/2020 1:30:00 PM 0.19 32.342 0.102 7.1 3.33 15.16
12/19/2020 1:45:00 PM 0.19 32.342 0.101 7.11 3.24 15.17
12/19/2020 2:00:00 PM 0.19 32.342 0.101 7.12 3.16 15.19
12/19/2020 2:15:00 PM 0.2 32.36 0.101 7.12 3.29 15.19
12/19/2020 2:30:00 PM 0.19 32.342 0.101 7.12 3.42 15.19
12/19/2020 2:45:00 PM 0.19 32.342 0.101 7.13 3.19 15.19
12/19/2020 3:00:00 PM 0.19 32.342 0.101 7.13 3.36 15.2
12/19/2020 3:15:00 PM 0.17 32.306 0.101 7.13 3.31 15.18
12/19/2020 3:30:00 PM 0.16 32.288 0.101 7.13 3.18 15.16
12/19/2020 3:45:00 PM 0.15 32.27 0.1 7.14 3.18 15.14
12/19/2020 4:00:00 PM 0.14 32.252 0.1 7.14 3.43 15.09
12/19/2020 4:15:00 PM 0.13 32.234 0.101 7.13 3.04 15.05
12/19/2020 4:30:00 PM 0.12 32.216 0.1 7.13 3.09 14.98
12/19/2020 4:45:00 PM 0.11 32.198 0.1 7.12 3.65 14.91
12/19/2020 5:00:00 PM 0.1 32.18 0.101 7.11 3.28 14.84
12/19/2020 5:15:00 PM 0.09 32.162 0.1 7.09 3.07 14.78
12/19/2020 5:30:00 PM 0.09 32.162 0.101 7.09 3.18 14.72
12/19/2020 5:45:00 PM 0.09 32.162 0.101 7.09 3.14 14.67
12/19/2020 6:00:00 PM 0.08 32.144 0.1 7.08 3.22 14.63
12/19/2020 6:15:00 PM 0.08 32.144 0.101 7.07 3.1 14.6
12/19/2020 6:30:00 PM 0.08 32.144 0.1 7.07 3.26 14.58
12/19/2020 6:45:00 PM 0.08 32.144 0.1 7.06 3.12 14.56
12/19/2020 7:00:00 PM 0.09 32.162 0.1 7.05 3.17 14.54
12/19/2020 7:15:00 PM 0.09 32.162 0.1 7.05 4.75 14.51
12/19/2020 7:30:00 PM 0.09 32.162 0.1 7.05 3.44 14.48
12/19/2020 7:45:00 PM 0.09 32.162 0.1 7.04 4.46 14.47
12/19/2020 8:00:00 PM 0.1 32.18 0.1 7.04 3.11 14.45
12/19/2020 8:15:00 PM 0.1 32.18 0.1 7.04 3.29 14.42
12/19/2020 8:30:00 PM 0.1 32.18 0.1 7.03 3.86 14.4
12/19/2020 8:45:00 PM 0.1 32.18 0.1 7.03 3.3 14.37
12/19/2020 9:00:00 PM 0.1 32.18 0.1 7.03 3.86 14.35
12/19/2020 9:15:00 PM 0.11 32.198 0.1 7.02 3.86 14.33
12/19/2020 9:30:00 PM 0.11 32.198 0.1 7.02 3.83 14.31
12/19/2020 9:45:00 PM 0.1 32.18 0.1 7.02 5.03 14.28
12/19/2020 10:00:00 PM 0.1 32.18 0.099 7.01 3.86 14.27
12/19/2020 10:15:00 PM 0.11 32.198 0.1 7.01 3.71 14.25
12/19/2020 10:30:00 PM 0.11 32.198 0.099 7 4.18 14.24
12/19/2020 10:45:00 PM 0.11 32.198 0.1 7.01 3.64 14.23
12/19/2020 11:00:00 PM 0.11 32.198 0.1 7.01 3.36 14.21
12/19/2020 11:15:00 PM 0.11 32.198 0.1 7.01 3.67 14.2
12/19/2020 11:30:00 PM 0.11 32.198 0.1 6.99 3.35 14.19
12/19/2020 11:45:00 PM 0.12 32.216 0.1 7 3.39 14.17
12/20/2020 12:00:00 AM 0.12 32.216 0.1 6.99 3.39 14.16
12/20/2020 12:15:00 AM 0.12 32.216 0.1 7 3.58 14.14
12/20/2020 12:30:00 AM 0.12 32.216 0.1 6.99 3.18 14.14
12/20/2020 12:45:00 AM 0.12 32.216 0.1 6.99 3.22 14.13
12/20/2020 1:00:00 AM 0.12 32.216 0.1 6.98 5.04 14.13
12/20/2020 1:15:00 AM 0.12 32.216 0.1 6.99 3.23 14.12
12/20/2020 1:30:00 AM 0.12 32.216 0.1 6.99 3.13 14.11
12/20/2020 1:45:00 AM 0.12 32.216 0.1 6.99 3.24 14.08
12/20/2020 2:00:00 AM 0.13 32.234 0.1 6.99 3.12 14.09
12/20/2020 2:15:00 AM 0.12 32.216 0.101 6.99 3.06 14.08
12/20/2020 2:30:00 AM 0.12 32.216 0.1 6.99 3.89 14.07
12/20/2020 2:45:00 AM 0.12 32.216 0.1 6.98 3.12 14.05
12/20/2020 3:00:00 AM 0.13 32.234 0.1 6.99 3.1 14.05
12/20/2020 3:15:00 AM 0.13 32.234 0.101 6.98 3.01 14.04
12/20/2020 3:30:00 AM 0.13 32.234 0.101 6.98 3.04 14.03
12/20/2020 3:45:00 AM 0.13 32.234 0.101 6.98 3.07 14.02
12/20/2020 4:00:00 AM 0.13 32.234 0.101 6.98 3.03 14.02
12/20/2020 4:15:00 AM 0.14 32.252 0.101 6.98 3.04 14.01
12/20/2020 4:30:00 AM 0.14 32.252 0.101 6.98 3.1 14.01
12/20/2020 4:45:00 AM 0.14 32.252 0.101 6.97 3.01 14
12/20/2020 5:00:00 AM 0.14 32.252 0.101 6.98 3.09 13.99
12/20/2020 5:15:00 AM 0.14 32.252 0.101 6.98 3.07 13.99
12/20/2020 5:30:00 AM 0.15 32.27 0.101 6.98 3.02 13.99
12/20/2020 5:45:00 AM 0.15 32.27 0.101 6.98 3.14 13.98
12/20/2020 6:00:00 AM 0.15 32.27 0.101 6.98 3.14 13.98
12/20/2020 6:15:00 AM 0.15 32.27 0.101 6.98 3.14 13.98
12/20/2020 6:30:00 AM 0.15 32.27 0.102 6.98 3.14 13.98
12/20/2020 6:45:00 AM 0.15 32.27 0.102 6.97 3.29 13.97
12/20/2020 7:00:00 AM 0.15 32.27 0.101 6.97 3.33 13.97
12/20/2020 7:15:00 AM 0.15 32.27 0.101 6.98 3.17 13.97
12/20/2020 7:30:00 AM 0.15 32.27 0.102 6.97 3.14 13.98
12/20/2020 7:45:00 AM 0.15 32.27 0.101 6.98 3.15 13.99
12/20/2020 8:00:00 AM 0.16 32.288 0.101 6.97 3.03 13.97
12/20/2020 8:15:00 AM 0.17 32.306 0.101 6.98 3.13 14.02
12/20/2020 8:30:00 AM 0.17 32.306 0.101 6.99 3.03 14.07
12/20/2020 8:45:00 AM 0.18 32.324 0.102 7 3.06 14.11
12/20/2020 9:00:00 AM 0.19 32.342 0.102 7 3.15 14.17
12/20/2020 9:15:00 AM 0.2 32.36 0.101 7.02 3.08 14.25
12/20/2020 9:30:00 AM 0.21 32.378 0.101 7.01 3.12 14.29
12/20/2020 9:45:00 AM 0.22 32.396 0.101 7.03 3.15 14.35
12/20/2020 10:00:00 AM 0.24 32.432 0.101 7.04 3.03 14.43
12/20/2020 10:15:00 AM 0.26 32.468 0.101 7.05 3.2 14.48
12/20/2020 10:30:00 AM 0.27 32.486 0.101 7.06 3.53 14.57
12/20/2020 10:45:00 AM 0.28 32.504 0.101 7.06 3.15 14.59
12/20/2020 11:00:00 AM 0.27 32.486 0.101 7.08 3.34 14.6
12/20/2020 11:15:00 AM 0.26 32.468 0.101 7.07 3.12 14.63
12/20/2020 11:30:00 AM 0.26 32.468 0.101 7.08 3.22 14.66
12/20/2020 11:45:00 AM 0.26 32.468 0.101 7.1 3.3 14.68
12/20/2020 12:00:00 PM 0.28 32.504 0.101 7.1 3.06 14.71
12/20/2020 12:15:00 PM 0.3 32.54 0.101 7.11 3.14 14.73
12/20/2020 12:30:00 PM 0.3 32.54 0.101 7.12 3.11 14.75
12/20/2020 12:45:00 PM 0.3 32.54 0.101 7.12 3.07 14.79
12/20/2020 1:00:00 PM 0.31 32.558 0.101 7.13 3.37 14.82
12/20/2020 1:15:00 PM 0.34 32.612 0.101 7.14 3.12 14.85
12/20/2020 1:30:00 PM 0.36 32.648 0.101 7.14 3.08 14.89
12/20/2020 1:45:00 PM 0.37 32.666 0.101 7.15 3.11 14.91
12/20/2020 2:00:00 PM 0.37 32.666 0.1 7.15 3.06 14.9
12/20/2020 2:15:00 PM 0.36 32.648 0.101 7.15 3.74 14.89
12/20/2020 2:30:00 PM 0.35 32.63 0.1 7.16 5.37 14.9
12/20/2020 2:45:00 PM 0.35 32.63 0.1 7.16 3.91 14.89
12/20/2020 3:00:00 PM 0.35 32.63 0.1 7.15 3.3 14.91
12/20/2020 3:15:00 PM 0.34 32.612 0.1 7.16 3.19 14.89
12/20/2020 3:30:00 PM 0.33 32.594 0.1 7.16 3.92 14.84
12/20/2020 3:45:00 PM 0.32 32.576 0.1 7.16 3.46 14.81
12/20/2020 4:00:00 PM 0.31 32.558 0.1 7.15 3.55 14.75
12/20/2020 4:15:00 PM 0.3 32.54 0.1 7.14 3.56 14.69
12/20/2020 4:30:00 PM 0.3 32.54 0.1 7.13 3.27 14.64
12/20/2020 4:45:00 PM 0.3 32.54 0.1 7.13 3.49 14.58
12/20/2020 5:00:00 PM 0.29 32.522 0.1 7.12 3.2 14.52
12/20/2020 5:15:00 PM 0.29 32.522 0.1 7.11 3.33 14.46
12/20/2020 5:30:00 PM 0.29 32.522 0.1 7.09 3.47 14.41
12/20/2020 5:45:00 PM 0.29 32.522 0.1 7.09 3.3 14.37
12/20/2020 6:00:00 PM 0.28 32.504 0.101 7.08 3.2 14.33
12/20/2020 6:15:00 PM 0.29 32.522 0.1 7.08 3.65 14.31
12/20/2020 6:30:00 PM 0.29 32.522 0.101 7.08 3.26 14.3
12/20/2020 6:45:00 PM 0.29 32.522 0.101 7.07 3.33 14.27
12/20/2020 7:00:00 PM 0.29 32.522 0.101 7.07 3.25 14.26
12/20/2020 7:15:00 PM 0.29 32.522 0.1 7.07 3.27 14.24
12/20/2020 7:30:00 PM 0.28 32.504 0.101 7.07 3.28 14.22
12/20/2020 7:45:00 PM 0.29 32.522 0.101 7.06 3.38 14.2
12/20/2020 8:00:00 PM 0.28 32.504 0.101 7.05 3.36 14.18
12/20/2020 8:15:00 PM 0.28 32.504 0.101 7.06 3.66 14.17
12/20/2020 8:30:00 PM 0.28 32.504 0.101 7.05 3.71 14.14
12/20/2020 8:45:00 PM 0.28 32.504 0.101 7.05 3.62 14.14
12/20/2020 9:00:00 PM 0.28 32.504 0.101 7.04 3.53 14.12
12/20/2020 9:15:00 PM 0.28 32.504 0.101 7.04 3.19 14.09
12/20/2020 9:30:00 PM 0.28 32.504 0.101 7.04 3.13 14.09
12/20/2020 9:45:00 PM 0.28 32.504 0.101 7.04 3.18 14.08
12/20/2020 10:00:00 PM 0.28 32.504 0.101 7.03 3.22 14.06
12/20/2020 10:15:00 PM 0.27 32.486 0.101 7.02 3.31 14.06
12/20/2020 10:30:00 PM 0.26 32.468 0.101 7.03 3.23 14.04
12/20/2020 10:45:00 PM 0.26 32.468 0.101 7.02 3.28 14.04
12/20/2020 11:00:00 PM 0.26 32.468 0.101 7.03 3.22 14.04
12/20/2020 11:15:00 PM 0.26 32.468 0.101 7.03 3.17 14.03
12/20/2020 11:30:00 PM 0.26 32.468 0.101 7.03 3.32 14.02
12/20/2020 11:45:00 PM 0.27 32.486 0.101 7.02 3.02 14.02
12/21/2020 12:00:00 AM 0.26 32.468 0.101 7.02 3.12 14.02
12/21/2020 12:15:00 AM 0.26 32.468 0.101 7.01 3.31 14.01
12/21/2020 12:30:00 AM 0.27 32.486 0.101 7.02 3.34 14
12/21/2020 12:45:00 AM 0.28 32.504 0.101 7.02 3.34 14
12/21/2020 1:00:00 AM 0.29 32.522 0.101 7.01 3.15 13.99
12/21/2020 1:15:00 AM 0.29 32.522 0.101 7.02 3.32 13.99
12/21/2020 1:30:00 AM 0.29 32.522 0.102 7.01 3.52 13.97
12/21/2020 1:45:00 AM 0.29 32.522 0.102 7.02 3.56 13.98
12/21/2020 2:00:00 AM 0.3 32.54 0.102 7 3.24 13.97
12/21/2020 2:15:00 AM 0.3 32.54 0.102 7.01 3.49 13.97
12/21/2020 2:30:00 AM 0.3 32.54 0.102 7.01 3.27 13.95
12/21/2020 2:45:00 AM 0.31 32.558 0.102 7.01 3.81 13.96
12/21/2020 3:00:00 AM 0.31 32.558 0.102 7.02 3.33 13.94
12/21/2020 3:15:00 AM 0.31 32.558 0.102 7.01 3.51 13.95
12/21/2020 3:30:00 AM 0.29 32.522 0.102 7.01 3.5 13.95
12/21/2020 3:45:00 AM 0.27 32.486 0.103 7.01 7.77 13.9
12/21/2020 4:00:00 AM 0.26 32.468 0.103 7.01 4.27 13.94
12/21/2020 4:15:00 AM 0.25 32.45 0.103 7.01 4.93 13.94
12/21/2020 4:30:00 AM 0.23 32.414 0.103 7.02 3.9 13.95
12/21/2020 4:45:00 AM 0.21 32.378 0.103 7.01 3.62 13.94
12/21/2020 5:00:00 AM 0.2 32.36 0.103 7.02 3.48 13.95
12/21/2020 5:15:00 AM 0.2 32.36 0.103 7 3.94 13.95
12/21/2020 5:30:00 AM 0.19 32.342 0.103 7.01 3.52 13.95
12/21/2020 5:45:00 AM 0.17 32.306 0.103 7.02 3.38 13.94
12/21/2020 6:00:00 AM 0.18 32.324 0.103 7 10.6 13.91
12/21/2020 6:15:00 AM 0.19 32.342 0.103 7.01 5.29 13.94
12/21/2020 6:30:00 AM 0.19 32.342 0.103 7.01 3.58 13.94
12/21/2020 6:45:00 AM 0.2 32.36 0.103 7.02 3.51 13.94
12/21/2020 7:00:00 AM 0.21 32.378 0.103 7.01 3.64 13.94
12/21/2020 7:15:00 AM 0.22 32.396 0.104 7 3.9 13.93
12/21/2020 7:30:00 AM 0.23 32.414 0.104 7.01 3.95 13.93
12/21/2020 7:45:00 AM 0.24 32.432 0.104 7.02 3.49 13.93
12/21/2020 8:00:00 AM 0.25 32.45 0.104 7.01 3.55 13.96
12/21/2020 8:15:00 AM 0.25 32.45 0.104 7.02 4.55 14.01
12/21/2020 8:30:00 AM 0.24 32.432 0.104 7.03 3.5 14.06
12/21/2020 8:45:00 AM 0.24 32.432 0.104 7.03 3.34 14.13
12/21/2020 9:00:00 AM 0.26 32.468 0.104 7.04 3.69 14.2
12/21/2020 9:15:00 AM 0.29 32.522 0.104 7.05 3.37 14.27
12/21/2020 9:30:00 AM 0.32 32.576 0.104 7.06 3.24 14.35
12/21/2020 9:45:00 AM 0.35 32.63 0.104 7.08 3.4 14.43
12/21/2020 10:00:00 AM 0.38 32.684 0.104 7.09 3.35 14.5
12/21/2020 10:15:00 AM 0.42 32.756 0.104 7.1 3.55 14.56
12/21/2020 10:30:00 AM 0.48 32.864 0.104 7.11 3.55 14.61
12/21/2020 10:45:00 AM 0.5 32.9 0.103 7.11 3.27 14.62
12/21/2020 11:00:00 AM 0.56 33.008 0.103 7.13 3.37 14.66
12/21/2020 11:15:00 AM 0.62 33.116 0.103 7.13 3.39 14.68
12/21/2020 11:30:00 AM 0.71 33.278 0.103 7.14 3.45 14.71
12/21/2020 11:45:00 AM 0.74 33.332 0.103 7.15 3.57 14.71
12/21/2020 12:00:00 PM 0.73 33.314 0.103 7.15 3.27 14.72
12/21/2020 12:15:00 PM 0.75 33.35 0.103 7.16 3.55 14.74
12/21/2020 12:30:00 PM 0.77 33.386 0.103 7.16 3.33 14.77
12/21/2020 12:45:00 PM 0.8 33.44 0.103 7.17 3.68 14.77
12/21/2020 1:00:00 PM 0.81 33.458 0.103 7.17 3.51 14.8
12/21/2020 1:15:00 PM 0.8 33.44 0.103 7.18 3.41 14.81
12/21/2020 1:30:00 PM 0.8 33.44 0.103 7.19 3.44 14.82
12/21/2020 1:45:00 PM 0.81 33.458 0.103 7.19 4.07 14.81
12/21/2020 2:00:00 PM 0.81 33.458 0.103 7.19 3.38 14.82
12/21/2020 2:15:00 PM 0.81 33.458 0.102 7.2 3.4 14.83
12/21/2020 2:30:00 PM 0.79 33.422 0.103 7.21 3.65 14.82
12/21/2020 2:45:00 PM 0.78 33.404 0.103 7.2 3.47 14.82
12/21/2020 3:00:00 PM 0.77 33.386 0.102 7.2 3.45 14.81
12/21/2020 3:15:00 PM 0.77 33.386 0.102 7.21 3.46 14.8
12/21/2020 3:30:00 PM 0.76 33.368 0.102 7.21 3.5 14.78
12/21/2020 3:45:00 PM 0.73 33.314 0.103 7.21 3.54 14.76
12/21/2020 4:00:00 PM 0.73 33.314 0.102 7.2 3.46 14.71
12/21/2020 4:15:00 PM 0.71 33.278 0.103 7.2 3.61 14.63
12/21/2020 4:30:00 PM 0.69 33.242 0.103 7.19 3.64 14.56
12/21/2020 4:45:00 PM 0.67 33.206 0.103 7.18 3.72 14.49
12/21/2020 5:00:00 PM 0.65 33.17 0.103 7.16 3.78 14.43
12/21/2020 5:15:00 PM 0.64 33.152 0.103 7.16 3.65 14.36
12/21/2020 5:30:00 PM 0.62 33.116 0.103 7.14 3.54 14.31
12/21/2020 5:45:00 PM 0.61 33.098 0.103 7.14 3.67 14.26
12/21/2020 6:00:00 PM 0.61 33.098 0.103 7.13 3.46 14.22
12/21/2020 6:15:00 PM 0.6 33.08 0.103 7.12 3.65 14.18
12/21/2020 6:30:00 PM 0.59 33.062 0.103 7.11 3.7 14.17
12/21/2020 6:45:00 PM 0.59 33.062 0.103 7.11 4.11 14.15
12/21/2020 7:00:00 PM 0.58 33.044 0.103 7.1 3.72 14.13
12/21/2020 7:15:00 PM 0.58 33.044 0.103 7.1 3.85 14.12
12/21/2020 7:30:00 PM 0.57 33.026 0.103 7.1 4.15 14.09
12/21/2020 7:45:00 PM 0.57 33.026 0.103 7.09 3.83 14.06
12/21/2020 8:00:00 PM 0.57 33.026 0.103 7.09 3.7 14.04
12/21/2020 8:15:00 PM 0.57 33.026 0.103 7.09 3.71 14.02
12/21/2020 8:30:00 PM 0.57 33.026 0.103 7.08 3.79 14
12/21/2020 8:45:00 PM 0.57 33.026 0.103 7.07 3.97 13.99
12/21/2020 9:00:00 PM 0.56 33.008 0.103 7.07 3.71 13.96
12/21/2020 9:15:00 PM 0.56 33.008 0.103 7.07 3.52 13.95
12/21/2020 9:30:00 PM 0.56 33.008 0.103 7.07 3.62 13.93
12/21/2020 9:45:00 PM 0.57 33.026 0.103 7.06 3.61 13.9
12/21/2020 10:00:00 PM 0.57 33.026 0.103 7.06 3.76 13.89
12/21/2020 10:15:00 PM 0.57 33.026 0.103 7.06 3.84 13.88
12/21/2020 10:30:00 PM 0.57 33.026 0.103 7.05 4.1 13.88
12/21/2020 10:45:00 PM 0.57 33.026 0.103 7.06 3.82 13.86
12/21/2020 11:00:00 PM 0.57 33.026 0.103 7.05 3.97 13.85
12/21/2020 11:15:00 PM 0.58 33.044 0.103 7.05 3.82 13.84
12/21/2020 11:30:00 PM 0.59 33.062 0.103 7.05 4.09 13.83
12/21/2020 11:45:00 PM 0.59 33.062 0.103 7.05 3.8 13.82
12/22/2020 12:00:00 AM 0.59 33.062 0.103 7.04 3.59 13.83
12/22/2020 12:15:00 AM 0.6 33.08 0.103 7.04 3.75 13.82
12/22/2020 12:30:00 AM 0.6 33.08 0.103 7.05 3.67 13.82
12/22/2020 12:45:00 AM 0.6 33.08 0.103 7.05 3.75 13.8
12/22/2020 1:00:00 AM 0.61 33.098 0.103 7.05 3.7 13.8
12/22/2020 1:15:00 AM 0.61 33.098 0.103 7.04 3.77 13.8
12/22/2020 1:30:00 AM 0.61 33.098 0.103 7.04 3.53 13.78
12/22/2020 1:45:00 AM 0.62 33.116 0.103 7.05 3.66 13.77
12/22/2020 2:00:00 AM 0.62 33.116 0.103 7.04 3.77 13.77
12/22/2020 2:15:00 AM 0.61 33.098 0.103 7.04 3.71 13.76
12/22/2020 2:30:00 AM 0.61 33.098 0.104 7.04 3.58 13.76
12/22/2020 2:45:00 AM 0.61 33.098 0.104 7.04 3.73 13.76
12/22/2020 3:00:00 AM 0.6 33.08 0.104 7.03 4.72 13.76
12/22/2020 3:15:00 AM 0.59 33.062 0.104 7.04 4 13.75
12/22/2020 3:30:00 AM 0.58 33.044 0.104 7.04 3.63 13.75
12/22/2020 3:45:00 AM 0.58 33.044 0.104 7.03 4.36 13.76
12/22/2020 4:00:00 AM 0.57 33.026 0.104 7.04 4.14 13.76
12/22/2020 4:15:00 AM 0.56 33.008 0.104 7.04 3.76 13.76
12/22/2020 4:30:00 AM 0.55 32.99 0.105 7.03 3.7 13.76
12/22/2020 4:45:00 AM 0.56 33.008 0.105 7.04 3.72 13.76
12/22/2020 5:00:00 AM 0.57 33.026 0.104 7.04 3.47 13.74
12/22/2020 5:15:00 AM 0.58 33.044 0.105 7.03 3.53 13.76
12/22/2020 5:30:00 AM 0.58 33.044 0.105 7.04 3.52 13.75
12/22/2020 5:45:00 AM 0.58 33.044 0.105 7.04 3.47 13.75
12/22/2020 6:00:00 AM 0.6 33.08 0.105 7.04 3.45 13.75
12/22/2020 6:15:00 AM 0.62 33.116 0.105 7.04 3.96 13.74
12/22/2020 6:30:00 AM 0.62 33.116 0.105 7.04 5.73 13.74
12/22/2020 6:45:00 AM 0.63 33.134 0.105 7.03 4.31 13.74
12/22/2020 7:00:00 AM 0.64 33.152 0.105 7.03 3.77 13.74
12/22/2020 7:15:00 AM 0.64 33.152 0.105 7.03 4.16 13.75
12/22/2020 7:30:00 AM 0.65 33.17 0.105 7.03 3.77 13.75
12/22/2020 7:45:00 AM 0.66 33.188 0.105 7.03 3.95 13.77
12/22/2020 8:00:00 AM 0.66 33.188 0.105 7.03 3.76 13.79
12/22/2020 8:15:00 AM 0.67 33.206 0.105 7.04 3.43 13.8
12/22/2020 8:30:00 AM 0.69 33.242 0.105 7.04 4.24 13.83
12/22/2020 8:45:00 AM 0.7 33.26 0.105 7.04 3.44 13.86
12/22/2020 9:00:00 AM 0.72 33.296 0.105 7.06 3.88 13.93
12/22/2020 9:15:00 AM 0.74 33.332 0.105 7.07 3.53 13.98
12/22/2020 9:30:00 AM 0.76 33.368 0.105 7.07 4 14.07
12/22/2020 9:45:00 AM 0.8 33.44 0.105 7.09 3.58 14.12
12/22/2020 10:00:00 AM 0.79 33.422 0.105 7.09 3.75 14.14
12/22/2020 10:15:00 AM 0.75 33.35 0.104 7.1 3.76 14.18
12/22/2020 10:30:00 AM 0.81 33.458 0.104 7.12 3.77 14.25
12/22/2020 10:45:00 AM 0.88 33.584 0.105 7.13 3.68 14.31
12/22/2020 11:00:00 AM 0.92 33.656 0.105 7.13 3.62 14.37
12/22/2020 11:15:00 AM 0.97 33.746 0.104 7.15 3.65 14.42
12/22/2020 11:30:00 AM 1.07 33.926 0.104 7.16 3.99 14.44
12/22/2020 11:45:00 AM 1.1 33.98 0.104 7.16 3.51 14.47
12/22/2020 12:00:00 PM 1.11 33.998 0.104 7.16 4.18 14.49
12/22/2020 12:15:00 PM 1.14 34.052 0.104 7.18 3.51 14.51
12/22/2020 12:30:00 PM 1.16 34.088 0.104 7.18 3.71 14.53
12/22/2020 12:45:00 PM 1.21 34.178 0.104 7.19 4.07 14.57
12/22/2020 1:00:00 PM 1.22 34.196 0.104 7.2 3.82 14.56
12/22/2020 1:15:00 PM 1.2 34.16 0.104 7.2 3.8 14.54
12/22/2020 1:30:00 PM 1.18 34.124 0.104 7.2 3.66 14.55
12/22/2020 1:45:00 PM 1.18 34.124 0.104 7.2 3.72 14.54
12/22/2020 2:00:00 PM 1.18 34.124 0.104 7.21 3.59 14.54
12/22/2020 2:15:00 PM 1.21 34.178 0.104 7.22 3.84 14.56
12/22/2020 2:30:00 PM 1.23 34.214 0.104 7.22 3.91 14.59
12/22/2020 2:45:00 PM 1.23 34.214 0.104 7.22 4.05 14.6
12/22/2020 3:00:00 PM 1.25 34.25 0.104 7.22 3.68 14.6
12/22/2020 3:15:00 PM 1.27 34.286 0.104 7.24 3.68 14.62
12/22/2020 3:30:00 PM 1.28 34.304 0.104 7.24 4.47 14.59
12/22/2020 3:45:00 PM 1.27 34.286 0.104 7.22 4.16 14.53
12/22/2020 4:00:00 PM 1.28 34.304 0.104 7.22 4.13 14.46
12/22/2020 4:15:00 PM 1.27 34.286 0.104 7.21 3.93 14.4
12/22/2020 4:30:00 PM 1.27 34.286 0.104 7.2 4.28 14.34
12/22/2020 4:45:00 PM 1.26 34.268 0.104 7.19 4.16 14.29
12/22/2020 5:00:00 PM 1.24 34.232 0.104 7.19 4.02 14.22
12/22/2020 5:15:00 PM 1.24 34.232 0.104 7.17 3.87 14.16
12/22/2020 5:30:00 PM 1.24 34.232 0.104 7.16 3.61 14.12
12/22/2020 5:45:00 PM 1.24 34.232 0.105 7.15 4.08 14.08
12/22/2020 6:00:00 PM 1.24 34.232 0.104 7.15 3.97 14.05
12/22/2020 6:15:00 PM 1.24 34.232 0.104 7.14 4.1 14.04
12/22/2020 6:30:00 PM 1.24 34.232 0.104 7.14 3.91 14
12/22/2020 6:45:00 PM 1.24 34.232 0.104 7.13 3.88 13.98
12/22/2020 7:00:00 PM 1.24 34.232 0.104 7.13 3.76 13.96
12/22/2020 7:15:00 PM 1.24 34.232 0.104 7.12 4.34 13.96
12/22/2020 7:30:00 PM 1.24 34.232 0.104 7.12 3.74 13.94
12/22/2020 7:45:00 PM 1.24 34.232 0.104 7.12 4.02 13.92
12/22/2020 8:00:00 PM 1.23 34.214 0.105 7.12 3.78 13.9
12/22/2020 8:15:00 PM 1.22 34.196 0.105 7.11 3.78 13.9
12/22/2020 8:30:00 PM 1.21 34.178 0.105 7.1 3.97 13.89
12/22/2020 8:45:00 PM 1.21 34.178 0.105 7.1 4.15 13.87
12/22/2020 9:00:00 PM 1.21 34.178 0.105 7.1 4 13.85
12/22/2020 9:15:00 PM 1.21 34.178 0.105 7.1 3.92 13.85
12/22/2020 9:30:00 PM 1.21 34.178 0.105 7.09 3.98 13.83
12/22/2020 9:45:00 PM 1.21 34.178 0.105 7.09 3.73 13.8
12/22/2020 10:00:00 PM 1.2 34.16 0.105 7.09 3.77 13.79
12/22/2020 10:15:00 PM 1.2 34.16 0.105 7.09 3.99 13.79
12/22/2020 10:30:00 PM 1.2 34.16 0.104 7.08 3.63 13.79
12/22/2020 10:45:00 PM 1.2 34.16 0.105 7.09 3.88 13.78
12/22/2020 11:00:00 PM 1.21 34.178 0.105 7.08 3.92 13.78
12/22/2020 11:15:00 PM 1.22 34.196 0.105 7.08 3.67 13.78
12/22/2020 11:30:00 PM 1.22 34.196 0.105 7.07 3.64 13.78
12/22/2020 11:45:00 PM 1.23 34.214 0.105 7.07 4.05 13.77
12/23/2020 12:00:00 AM 1.23 34.214 0.105 7.08 3.74 13.76
12/23/2020 12:15:00 AM 1.24 34.232 0.105 7.08 3.72 13.76
12/23/2020 12:30:00 AM 1.24 34.232 0.105 7.07 3.71 13.76
12/23/2020 12:45:00 AM 1.24 34.232 0.105 7.06 3.59 13.76
12/23/2020 1:00:00 AM 1.24 34.232 0.105 7.07 3.54 13.77
12/23/2020 1:15:00 AM 1.24 34.232 0.105 7.06 3.41 13.76
12/23/2020 1:30:00 AM 1.23 34.214 0.105 7.07 3.8 13.77
12/23/2020 1:45:00 AM 1.23 34.214 0.105 7.07 3.52 13.75
12/23/2020 2:00:00 AM 1.24 34.232 0.105 7.06 3.39 13.74
12/23/2020 2:15:00 AM 1.24 34.232 0.105 7.07 3.39 13.75
12/23/2020 2:30:00 AM 1.22 34.196 0.105 7.06 3.69 13.74
12/23/2020 2:45:00 AM 1.21 34.178 0.106 7.06 4.47 13.76
12/23/2020 3:00:00 AM 1.21 34.178 0.106 7.06 3.58 13.77
12/23/2020 3:15:00 AM 1.21 34.178 0.105 7.06 3.44 13.76
12/23/2020 3:30:00 AM 1.2 34.16 0.106 7.06 3.36 13.75
12/23/2020 3:45:00 AM 1.19 34.142 0.105 7.06 3.57 13.74
12/23/2020 4:00:00 AM 1.18 34.124 0.106 7.07 3.42 13.76
12/23/2020 4:15:00 AM 1.18 34.124 0.106 7.06 3.25 13.78
12/23/2020 4:30:00 AM 1.17 34.106 0.106 7.06 3.46 13.78
12/23/2020 4:45:00 AM 1.16 34.088 0.106 7.06 3.24 13.79
12/23/2020 5:00:00 AM 1.16 34.088 0.106 7.06 3.42 13.79
12/23/2020 5:15:00 AM 1.15 34.07 0.106 7.06 3.38 13.8
12/23/2020 5:30:00 AM 1.13 34.034 0.106 7.06 3.38 13.8
12/23/2020 5:45:00 AM 1.12 34.016 0.106 7.06 3.33 13.8
12/23/2020 6:00:00 AM 1.09 33.962 0.106 7.05 3.39 13.8
12/23/2020 6:15:00 AM 1.07 33.926 0.106 7.06 3.61 13.82
12/23/2020 6:30:00 AM 1.04 33.872 0.106 7.06 3.45 13.82
12/23/2020 6:45:00 AM 1.02 33.836 0.106 7.05 3.23 13.83
12/23/2020 7:00:00 AM 1.01 33.818 0.106 7.06 3.45 13.85
12/23/2020 7:15:00 AM 0.98 33.764 0.106 7.06 3.34 13.85
12/23/2020 7:30:00 AM 0.95 33.71 0.106 7.05 3.44 13.87
12/23/2020 7:45:00 AM 0.93 33.674 0.106 7.06 3.41 13.91
12/23/2020 8:00:00 AM 0.93 33.674 0.106 7.06 3.47 13.97
12/23/2020 8:15:00 AM 0.94 33.692 0.106 7.06 3.36 13.99
12/23/2020 8:30:00 AM 0.95 33.71 0.106 7.08 3.35 14.09
12/23/2020 8:45:00 AM 0.96 33.728 0.106 7.09 9.28 14.17
12/23/2020 9:00:00 AM 0.96 33.728 0.106 7.1 3.54 14.24
12/23/2020 9:15:00 AM 0.97 33.746 0.106 7.1 3.41 14.31
12/23/2020 9:30:00 AM 0.99 33.782 0.106 7.12 3.8 14.37
12/23/2020 9:45:00 AM 1.03 33.854 0.106 7.13 3.6 14.44
12/23/2020 10:00:00 AM 1.05 33.89 0.106 7.14 3.72 14.51
12/23/2020 10:15:00 AM 1.07 33.926 0.106 7.15 3.88 14.58
12/23/2020 10:30:00 AM 1.11 33.998 0.106 7.15 3.49 14.6
12/23/2020 10:45:00 AM 1.16 34.088 0.106 7.17 3.45 14.65
12/23/2020 11:00:00 AM 1.22 34.196 0.106 7.17 3.44 14.68
12/23/2020 11:15:00 AM 1.27 34.286 0.106 7.18 3.49 14.72
12/23/2020 11:30:00 AM 1.32 34.376 0.106 7.19 3.41 14.75
12/23/2020 11:45:00 AM 1.37 34.466 0.105 7.2 3.38 14.78
12/23/2020 12:00:00 PM 1.43 34.574 0.106 7.21 3.31 14.81
12/23/2020 12:15:00 PM 1.49 34.682 0.105 7.2 3.4 14.82
12/23/2020 12:30:00 PM 1.55 34.79 0.105 7.22 3.35 14.83
12/23/2020 12:45:00 PM 1.61 34.898 0.105 7.23 3.24 14.85
12/23/2020 1:00:00 PM 1.67 35.006 0.105 7.23 3.43 14.86
12/23/2020 1:15:00 PM 1.73 35.114 0.105 7.25 3.49 14.89
12/23/2020 1:30:00 PM 1.78 35.204 0.105 7.24 3.42 14.9
12/23/2020 1:45:00 PM 1.84 35.312 0.105 7.26 3.54 14.92
12/23/2020 2:00:00 PM 1.88 35.384 0.105 7.26 3.5 14.91
12/23/2020 2:15:00 PM 1.92 35.456 0.105 7.27 3.29 14.91
12/23/2020 2:30:00 PM 1.93 35.474 0.105 7.27 3.77 14.91
12/23/2020 2:45:00 PM 1.95 35.51 0.105 7.27 3.44 14.87
12/23/2020 3:00:00 PM 1.96 35.528 0.105 7.28 3.69 14.89
12/23/2020 3:15:00 PM 1.96 35.528 0.105 7.27 3.46 14.87
12/23/2020 3:30:00 PM 1.95 35.51 0.105 7.28 3.83 14.84
12/23/2020 3:45:00 PM 1.94 35.492 0.105 7.27 3.67 14.82
12/23/2020 4:00:00 PM 1.91 35.438 0.105 7.27 3.58 14.74
12/23/2020 4:15:00 PM 1.9 35.42 0.105 7.27 3.98 14.71
12/23/2020 4:30:00 PM 1.88 35.384 0.105 7.26 4.11 14.61
12/23/2020 4:45:00 PM 1.86 35.348 0.105 7.25 3.92 14.53
12/23/2020 5:00:00 PM 1.83 35.294 0.105 7.23 4.2 14.43
12/23/2020 5:15:00 PM 1.81 35.258 0.105 7.21 3.88 14.35
12/23/2020 5:30:00 PM 1.81 35.258 0.105 7.21 3.77 14.28
12/23/2020 5:45:00 PM 1.8 35.24 0.106 7.19 3.63 14.21
12/23/2020 6:00:00 PM 1.78 35.204 0.106 7.17 3.95 14.14
12/23/2020 6:15:00 PM 1.78 35.204 0.106 7.17 3.92 14.1
12/23/2020 6:30:00 PM 1.78 35.204 0.106 7.16 4.11 14.06
12/23/2020 6:45:00 PM 1.77 35.186 0.106 7.16 3.82 14.03
12/23/2020 7:00:00 PM 1.76 35.168 0.105 7.15 3.7 13.99
12/23/2020 7:15:00 PM 1.74 35.132 0.106 7.15 3.84 13.99
12/23/2020 7:30:00 PM 1.73 35.114 0.106 7.13 3.63 13.94
12/23/2020 7:45:00 PM 1.72 35.096 0.106 7.14 4.09 13.93
12/23/2020 8:00:00 PM 1.71 35.078 0.105 7.12 3.58 13.89
12/23/2020 8:15:00 PM 1.71 35.078 0.106 7.13 3.88 13.89
12/23/2020 8:30:00 PM 1.7 35.06 0.106 7.12 3.97 13.86
12/23/2020 8:45:00 PM 1.69 35.042 0.106 7.12 3.66 13.83
12/23/2020 9:00:00 PM 1.69 35.042 0.106 7.1 3.81 13.8
12/23/2020 9:15:00 PM 1.68 35.024 0.106 7.11 3.61 13.76
12/23/2020 9:30:00 PM 1.69 35.042 0.106 7.1 3.79 13.77
12/23/2020 9:45:00 PM 1.69 35.042 0.106 7.11 3.61 13.72
12/23/2020 10:00:00 PM 1.69 35.042 0.106 7.09 3.66 13.72
12/23/2020 10:15:00 PM 1.69 35.042 0.106 7.09 3.91 13.71
12/23/2020 10:30:00 PM 1.69 35.042 0.106 7.1 3.72 13.69
12/23/2020 10:45:00 PM 1.69 35.042 0.106 7.08 3.67 13.67
12/23/2020 11:00:00 PM 1.69 35.042 0.106 7.09 3.89 13.67
12/23/2020 11:15:00 PM 1.69 35.042 0.106 7.08 3.72 13.64
12/23/2020 11:30:00 PM 1.7 35.06 0.106 7.08 3.78 13.65
12/23/2020 11:45:00 PM 1.7 35.06 0.106 7.08 3.98 13.63
12/24/2020 12:00:00 AM 1.7 35.06 0.106 7.08 3.72 13.64
12/24/2020 12:15:00 AM 1.7 35.06 0.106 7.07 3.71 13.63
12/24/2020 12:30:00 AM 1.71 35.078 0.106 7.08 3.82 13.61
12/24/2020 12:45:00 AM 1.71 35.078 0.106 7.07 3.73 13.62
12/24/2020 1:00:00 AM 1.71 35.078 0.106 7.08 4.52 13.6
12/24/2020 1:15:00 AM 1.71 35.078 0.106 7.06 3.77 13.6
12/24/2020 1:30:00 AM 1.71 35.078 0.106 7.08 3.58 13.6
12/24/2020 1:45:00 AM 1.7 35.06 0.106 7.06 3.95 13.61
12/24/2020 2:00:00 AM 1.69 35.042 0.107 7.07 3.74 13.6
12/24/2020 2:15:00 AM 1.69 35.042 0.106 7.07 4.36 13.6
12/24/2020 2:30:00 AM 1.67 35.006 0.107 7.07 4.25 13.6
12/24/2020 2:45:00 AM 1.66 34.988 0.107 7.07 4.18 13.59
12/24/2020 3:00:00 AM 1.66 34.988 0.107 7.06 4.18 13.59
12/24/2020 3:15:00 AM 1.65 34.97 0.107 7.07 4.53 13.61
12/24/2020 3:30:00 AM 1.65 34.97 0.107 7.07 4.45 13.6
12/24/2020 3:45:00 AM 1.64 34.952 0.107 7.07 4.05 13.58
12/24/2020 4:00:00 AM 1.65 34.97 0.107 7.07 4.25 13.6
12/24/2020 4:15:00 AM 1.65 34.97 0.107 7.07 4.21 13.6
12/24/2020 4:30:00 AM 1.66 34.988 0.107 7.06 4.31 13.58
12/24/2020 4:45:00 AM 1.67 35.006 0.107 7.07 4.35 13.58
12/24/2020 5:00:00 AM 1.68 35.024 0.107 7.07 4.29 13.57
12/24/2020 5:15:00 AM 1.7 35.06 0.107 7.07 4.22 13.58
12/24/2020 5:30:00 AM 1.71 35.078 0.107 7.06 4.47 13.56
12/24/2020 5:45:00 AM 1.72 35.096 0.107 7.07 4.45 13.59
12/24/2020 6:00:00 AM 1.73 35.114 0.107 7.07 4.33 13.58
12/24/2020 6:15:00 AM 1.74 35.132 0.107 7.06 4.32 13.58
12/24/2020 6:30:00 AM 1.75 35.15 0.107 7.07 4.28 13.59
12/24/2020 6:45:00 AM 1.76 35.168 0.107 7.06 5.22 13.57
12/24/2020 7:00:00 AM 1.78 35.204 0.107 7.06 4.53 13.56
12/24/2020 7:15:00 AM 1.8 35.24 0.107 7.06 5.44 13.55
12/24/2020 7:30:00 AM 1.81 35.258 0.107 7.06 4.81 13.57
12/24/2020 7:45:00 AM 1.85 35.33 0.107 7.06 5.13 13.57
12/24/2020 8:00:00 AM 1.88 35.384 0.108 7.07 6 13.54
12/24/2020 8:15:00 AM 1.9 35.42 0.108 7.06 7.21 13.55
12/24/2020 8:30:00 AM 1.93 35.474 0.108 7.07 7.22 13.56
12/24/2020 8:45:00 AM 1.95 35.51 0.108 7.07 7.15 13.57
12/24/2020 9:00:00 AM 1.98 35.564 0.108 7.07 8.15 13.61
12/24/2020 9:15:00 AM 2 35.6 0.108 7.09 8.75 13.64
12/24/2020 9:30:00 AM 2.04 35.672 0.108 7.09 10.62 13.69
12/24/2020 9:45:00 AM 2.08 35.744 0.108 7.11 10.49 13.77
12/24/2020 10:00:00 AM 2.11 35.798 0.108 7.11 11.23 13.82
12/24/2020 10:15:00 AM 2.14 35.852 0.108 7.12 14.17 13.87
12/24/2020 10:30:00 AM 2.18 35.924 0.108 7.14 17.7 13.9
12/24/2020 10:45:00 AM 2.2 35.96 0.108 7.15 21.88 13.93
12/24/2020 11:00:00 AM 2.22 35.996 0.108 7.15 21.29 13.98
12/24/2020 11:15:00 AM 2.23 36.014 0.109 7.16 28.15 14.01
12/24/2020 11:30:00 AM 2.24 36.032 0.11 7.16 28.08 14.04
12/24/2020 11:45:00 AM 2.22 35.996 0.111 7.18 31.99 14.06
12/24/2020 12:00:00 PM 2.2 35.96 0.114 7.18 31.7 14.08
12/24/2020 12:15:00 PM 2.14 35.852 0.116 7.19 31.75 14.09
12/24/2020 12:30:00 PM 2.06 35.708 0.119 7.19 32.26 14.12
12/24/2020 12:45:00 PM 1.98 35.564 0.122 7.19 40.03 14.13
12/24/2020 1:00:00 PM 1.89 35.402 0.13 7.19 39.43 14.16
12/24/2020 1:15:00 PM 1.76 35.168 0.14 7.19 46.04 14.15
12/24/2020 1:30:00 PM 1.6 34.88 0.15 7.18 43.78 14.18
12/24/2020 1:45:00 PM 1.46 34.628 0.157 7.18 54.25 14.17
12/24/2020 2:00:00 PM 1.35 34.43 0.16 7.17 71.39 14.19
12/24/2020 2:15:00 PM 1.23 34.214 0.159 7.16 96.72 14.19
12/24/2020 2:30:00 PM 1.09 33.962 0.155 7.14 115.75 14.21
12/24/2020 2:45:00 PM 0.98 33.764 0.148 7.11 205.11 14.25
12/24/2020 3:00:00 PM 0.83 33.494 0.142 7.11 179.02 14.27
12/24/2020 3:15:00 PM 0.77 33.386 0.136 7.09 218.09 14.21
12/24/2020 3:30:00 PM 0.69 33.242 0.13 7.1 257.15 14.19
12/24/2020 3:45:00 PM 0.59 33.062 0.124 7.11 255.11 14.12
12/24/2020 4:00:00 PM 0.46 32.828 0.116 6.99 439.27 14.3
12/24/2020 4:15:00 PM 0.36 32.648 0.083 7.01 391.67 14.37
12/24/2020 4:30:00 PM 0.31 32.558 0.093 7.03 363.78 14.34
12/24/2020 4:45:00 PM 0.27 32.486 0.092 7.02 63.19 14.42
12/24/2020 5:00:00 PM 0.24 32.432 0.086 6.91 28.68 14.41
12/24/2020 5:15:00 PM 0.27 32.486 0.084 6.8 24.85 14.38
12/24/2020 5:30:00 PM 0.22 32.396 0.081 6.83 25.24 14.34
12/24/2020 5:45:00 PM 0.17 32.306 0.077 6.86 26.31 14.35
12/24/2020 6:00:00 PM 0.18 32.324 0.071 6.76 20.38 14.39
12/24/2020 6:15:00 PM 0.19 32.342 0.066 6.77 23 14.48
12/24/2020 6:30:00 PM 0.25 32.45 0.07 6.75 32.45 14.44
12/24/2020 6:45:00 PM 0.27 32.486 0.062 6.77 17.69 14.43
12/24/2020 7:00:00 PM 0.29 32.522 0.062 6.85 22.48 14.34
12/24/2020 7:15:00 PM 0.34 32.612 0.061 6.81 22.27 14.35
12/24/2020 7:30:00 PM 0.35 32.63 0.06 6.8 20.36 13.92
12/24/2020 7:45:00 PM 0.39 32.702 0.06 6.68 17.78 14.24
12/24/2020 8:00:00 PM 0.43 32.774 0.059 6.76 16.74 14.2
12/24/2020 8:15:00 PM 0.47 32.846 0.059 6.81 16.55 14.22
12/24/2020 8:30:00 PM 0.5 32.9 0.059 6.75 18.19 13.97
12/24/2020 8:45:00 PM 0.51 32.918 0.058 6.69 19.84 13.95
12/24/2020 9:00:00 PM 0.52 32.936 0.058 6.74 18.11 14.23
12/24/2020 9:15:00 PM 0.55 32.99 0.058 6.77 20.49 14.25
12/24/2020 9:30:00 PM 0.58 33.044 0.057 6.7 18.09 14.24
12/24/2020 9:45:00 PM 0.63 33.134 0.059 6.69 21.33 14.16
12/24/2020 10:00:00 PM 0.68 33.224 0.059 6.72 22.83 14.16
12/24/2020 10:15:00 PM 0.74 33.332 0.059 6.75 23.03 14.11
12/24/2020 10:30:00 PM 0.81 33.458 0.059 6.69 21.05 14.09
12/24/2020 10:45:00 PM 0.86 33.548 0.059 6.65 21.57 14.03
12/24/2020 11:00:00 PM 0.88 33.584 0.06 6.63 22.59 13.99
12/24/2020 11:15:00 PM 0.94 33.692 0.06 6.63 22.87 13.98
12/24/2020 11:30:00 PM 0.95 33.71 0.061 6.61 22.28 14.02
12/24/2020 11:45:00 PM 0.94 33.692 0.06 6.62 22.07 14.02
12/25/2020 12:00:00 AM 0.98 33.764 0.06 6.62 23.64 13.96
12/25/2020 12:15:00 AM 0.99 33.782 0.06 6.6 25.58 13.95
12/25/2020 12:30:00 AM 0.99 33.782 0.06 6.59 26.24 13.94
12/25/2020 12:45:00 AM 1.04 33.872 0.06 6.59 28.31 13.92
12/25/2020 1:00:00 AM 1.06 33.908 0.059 6.58 27.88 13.84
12/25/2020 1:15:00 AM 1.04 33.872 0.058 6.57 27.86 13.72
12/25/2020 1:30:00 AM 1.03 33.854 0.059 6.56 28.28 13.66
12/25/2020 1:45:00 AM 1.04 33.872 0.058 6.55 30.54 13.58
12/25/2020 2:00:00 AM 1.09 33.962 0.058 6.56 32.23 13.54
12/25/2020 2:15:00 AM 1.17 34.106 0.058 6.56 34.46 13.64
12/25/2020 2:30:00 AM 1.31 34.358 0.058 6.58 36.54 13.61
12/25/2020 2:45:00 AM 1.38 34.484 0.058 6.58 37.86 13.56
12/25/2020 3:00:00 AM 1.37 34.466 0.058 6.58 42.09 13.64
12/25/2020 3:15:00 AM 1.38 34.484 0.057 6.58 46.87 13.63
12/25/2020 3:30:00 AM 1.4 34.52 0.05 6.56 47.17 13.53
12/25/2020 3:45:00 AM 1.46 34.628 0.05 6.55 50.06 13.36
12/25/2020 4:00:00 AM 1.52 34.736 0.049 6.54 43.17 13.63
12/25/2020 4:15:00 AM 1.55 34.79 0.049 6.53 66.79 13.49
12/25/2020 4:30:00 AM 1.56 34.808 0.051 6.52 76.09 13.32
12/25/2020 4:45:00 AM 1.53 34.754 0.049 6.51 68.45 12.98
12/25/2020 5:00:00 AM 1.52 34.736 0.05 6.49 98.1 12.55
12/25/2020 5:15:00 AM 1.55 34.79 0.051 6.5 100.17 12.35
12/25/2020 5:30:00 AM 1.6 34.88 0.051 6.49 100.41 12.45
12/25/2020 5:45:00 AM 1.69 35.042 0.051 6.51 92.06 12.35
12/25/2020 6:00:00 AM 1.78 35.204 0.051 6.52 78.89 12.27
12/25/2020 6:15:00 AM 1.89 35.402 0.051 6.51 70.17 12.26
12/25/2020 6:30:00 AM 1.99 35.582 0.051 6.53 64.5 12.19
12/25/2020 6:45:00 AM 2.1 35.78 0.051 6.38 66.5 12.4
12/25/2020 7:00:00 AM 2.2 35.96 0.051 6.53 57.83 12.38
12/25/2020 7:15:00 AM 2.31 36.158 0.051 6.53 49.55 12.44
12/25/2020 7:30:00 AM 2.41 36.338 0.051 6.54 46.64 12.52
12/25/2020 7:45:00 AM 2.51 36.518 0.048 6.44 36.84 12.31
12/25/2020 8:00:00 AM 2.57 36.626 0.048 6.52 35.67 12.43
12/25/2020 8:15:00 AM 2.65 36.77 0.049 6.53 30.87 12.88
12/25/2020 8:30:00 AM 2.7 36.86 0.039 6.52 28.45 13.12
12/25/2020 8:45:00 AM 2.74 36.932 0.039 6.52 17.63 13.41
12/25/2020 9:00:00 AM 2.77 36.986 0.039 6.53 13.81 13.41
12/25/2020 9:15:00 AM 2.8 37.04 0.038 6.47 10.13 13.4
12/25/2020 9:30:00 AM 2.82 37.076 0.039 6.53 10.32 13.4
12/25/2020 9:45:00 AM 2.82 37.076 0.039 6.51 9.72 13.39
12/25/2020 10:00:00 AM 2.82 37.076 0.038 6.51 8.42 13.38
12/25/2020 10:15:00 AM 2.8 37.04 0.038 6.52 12.16 13.39
12/25/2020 10:30:00 AM 2.78 37.004 0.038 6.49 13.2 13.39
12/25/2020 10:45:00 AM 2.76 36.968 0.038 6.5 14 13.4
12/25/2020 11:00:00 AM 2.75 36.95 0.038 6.52 16.77 13.4
12/25/2020 11:15:00 AM 2.74 36.932 0.038 6.51 20.55 13.41
12/25/2020 11:30:00 AM 2.74 36.932 0.038 6.51 25.11 13.41
12/25/2020 11:45:00 AM 2.74 36.932 0.038 6.49 38.98 13.42
12/25/2020 12:00:00 PM 2.75 36.95 0.038 6.51 57.36 13.42
12/25/2020 12:15:00 PM 2.76 36.968 0.038 6.51 55.68 13.42
12/25/2020 12:30:00 PM 2.78 37.004 0.038 6.51 74.22 13.41
12/25/2020 12:45:00 PM 2.79 37.022 0.038 6.54 87.36 13.4
12/25/2020 1:00:00 PM 2.8 37.04 0.037 6.58 67.22 13.4
12/25/2020 1:15:00 PM 2.8 37.04 0.037 6.53 61.36 13.39
12/25/2020 1:30:00 PM 2.81 37.058 0.037 6.54 54.94 13.39
12/25/2020 1:45:00 PM 2.83 37.094 0.037 6.52 58.11 13.38
12/25/2020 2:00:00 PM 2.86 37.148 0.037 6.54 71.5 13.37
12/25/2020 2:15:00 PM 2.87 37.166 0.037 6.55 72.48 13.37
12/25/2020 2:30:00 PM 2.89 37.202 0.037 6.55 93.91 13.36
12/25/2020 2:45:00 PM 2.9 37.22 0.037 6.52 64.1 13.35
12/25/2020 3:00:00 PM 2.91 37.238 0.037 6.54 68.56 13.35
12/25/2020 3:15:00 PM 2.92 37.256 0.036 6.53 62.27 13.35
12/25/2020 3:30:00 PM 2.92 37.256 0.037 6.54 56.56 13.34
12/25/2020 3:45:00 PM 2.91 37.238 0.036 6.55 46.41 13.34
12/25/2020 4:00:00 PM 2.91 37.238 0.036 6.55 55.61 13.34
12/25/2020 4:15:00 PM 2.9 37.22 0.036 6.55 80.99 13.34
12/25/2020 4:30:00 PM 2.89 37.202 0.036 6.55 73.55 13.34
12/25/2020 4:45:00 PM 2.88 37.184 0.037 6.55 60.4 13.34
12/25/2020 5:00:00 PM 2.87 37.166 0.037 6.52 74.2 13.34
12/25/2020 5:15:00 PM 2.85 37.13 0.036 6.56 51.15 13.34
12/25/2020 5:30:00 PM 2.84 37.112 0.036 6.55 73.62 13.35
12/25/2020 5:45:00 PM 2.82 37.076 0.036 6.55 89.77 13.35
12/25/2020 6:00:00 PM 2.8 37.04 0.036 6.55 69.32 13.36
12/25/2020 6:15:00 PM 2.79 37.022 0.035 6.55 56.28 13.36
12/25/2020 6:30:00 PM 2.78 37.004 0.034 6.56 68.36 13.37
12/25/2020 6:45:00 PM 2.76 36.968 0.034 6.56 86.09 13.37
12/25/2020 7:00:00 PM 2.74 36.932 0.033 6.56 111.94 13.38
12/25/2020 7:15:00 PM 2.72 36.896 0.032 6.56 205.62 13.39
12/25/2020 7:30:00 PM 2.69 36.842 0.046 6.69 104.1 13.39
12/25/2020 7:45:00 PM 2.66 36.788 0.046 6.56 88.46 13.4
12/25/2020 8:00:00 PM 2.64 36.752 0.047 6.56 108.22 13.42
12/25/2020 8:15:00 PM 2.61 36.698 0.047 6.54 81.25 13.43
12/25/2020 8:30:00 PM 2.59 36.662 0.047 6.55 106.85 13.43
12/25/2020 8:45:00 PM 2.56 36.608 0.047 6.55 93.22 13.45
12/25/2020 9:00:00 PM 2.53 36.554 0.047 6.55 94.04 13.46
12/25/2020 9:15:00 PM 2.51 36.518 0.047 6.56 96.54 13.47
12/25/2020 9:30:00 PM 2.47 36.446 0.048 6.53 99.53 13.48
12/25/2020 9:45:00 PM 2.43 36.374 0.048 6.55 66.84 13.5
12/25/2020 10:00:00 PM 2.4 36.32 0.048 6.53 77.48 13.51
12/25/2020 10:15:00 PM 2.36 36.248 0.048 6.57 103.02 13.53
12/25/2020 10:30:00 PM 2.33 36.194 0.048 6.53 87.14 13.54
12/25/2020 10:45:00 PM 2.3 36.14 0.048 6.57 102.46 13.56
12/25/2020 11:00:00 PM 2.26 36.068 0.049 6.55 82.26 13.57
12/25/2020 11:15:00 PM 2.23 36.014 0.049 6.58 84.28 13.59
12/25/2020 11:30:00 PM 2.2 35.96 0.049 6.56 83.32 13.6
12/25/2020 11:45:00 PM 2.17 35.906 0.049 6.63 70.89 13.61
12/26/2020 12:00:00 AM 2.14 35.852 0.049 6.6 98.77 13.62
12/26/2020 12:15:00 AM 2.11 35.798 0.049 6.59 73.86 13.63
12/26/2020 12:30:00 AM 2.07 35.726 0.049 6.55 53.65 13.64
12/26/2020 12:45:00 AM 2.04 35.672 0.049 6.59 68.85 13.65
12/26/2020 1:00:00 AM 2 35.6 0.049 6.56 83.59 13.67
12/26/2020 1:15:00 AM 1.96 35.528 0.049 6.59 92.59 13.68
12/26/2020 1:30:00 AM 1.92 35.456 0.05 6.55 97.21 13.69
12/26/2020 1:45:00 AM 1.88 35.384 0.05 6.6 59.05 13.7
12/26/2020 2:00:00 AM 1.84 35.312 0.05 6.56 54.84 13.72
12/26/2020 2:15:00 AM 1.8 35.24 0.05 6.6 72.25 13.73
12/26/2020 2:30:00 AM 1.75 35.15 0.05 6.56 64.5 13.75
12/26/2020 2:45:00 AM 1.72 35.096 0.05 6.6 58.77 13.77
12/26/2020 3:00:00 AM 1.68 35.024 0.05 6.54 53.32 13.78
12/26/2020 3:15:00 AM 1.64 34.952 0.05 6.58 57.11 13.8
12/26/2020 3:30:00 AM 1.61 34.898 0.051 6.59 71.39 13.81
12/26/2020 3:45:00 AM 1.59 34.862 0.051 6.58 47.43 13.82
12/26/2020 4:00:00 AM 1.56 34.808 0.051 6.58 64.48 13.83
12/26/2020 4:15:00 AM 1.53 34.754 0.051 6.61 66.48 13.84
12/26/2020 4:30:00 AM 1.5 34.7 0.051 6.56 60.65 13.85
12/26/2020 4:45:00 AM 1.47 34.646 0.051 6.6 48.79 13.87
12/26/2020 5:00:00 AM 1.45 34.61 0.051 6.56 52.35 13.88
12/26/2020 5:15:00 AM 1.42 34.556 0.051 6.58 46.28 13.89
12/26/2020 5:30:00 AM 1.4 34.52 0.052 6.6 56.4 13.89
12/26/2020 5:45:00 AM 1.37 34.466 0.052 6.59 60.3 13.9
12/26/2020 6:00:00 AM 1.35 34.43 0.052 6.58 43.04 13.91
12/26/2020 6:15:00 AM 1.33 34.394 0.052 6.59 42.71 13.92
12/26/2020 6:30:00 AM 1.3 34.34 0.052 6.61 55.06 13.93
12/26/2020 6:45:00 AM 1.28 34.304 0.052 6.59 46.44 13.94
12/26/2020 7:00:00 AM 1.25 34.25 0.052 6.59 41.97 13.95
12/26/2020 7:15:00 AM 1.23 34.214 0.052 6.6 44.45 13.96
12/26/2020 7:30:00 AM 1.2 34.16 0.052 6.59 38.16 13.97
12/26/2020 7:45:00 AM 1.18 34.124 0.052 6.59 61.96 13.98
12/26/2020 8:00:00 AM 1.17 34.106 0.053 6.6 60.97 13.98
12/26/2020 8:15:00 AM 1.15 34.07 0.053 6.6 38.68 13.99
12/26/2020 8:30:00 AM 1.13 34.034 0.053 6.6 45.72 14.01
12/26/2020 8:45:00 AM 1.12 34.016 0.053 6.6 53.74 14.02
12/26/2020 9:00:00 AM 1.12 34.016 0.053 6.62 45.56 14.02
12/26/2020 9:15:00 AM 1.12 34.016 0.053 6.6 59.18 14.03
12/26/2020 9:30:00 AM 1.13 34.034 0.053 6.61 34.1 14.04
12/26/2020 9:45:00 AM 1.14 34.052 0.053 6.59 44.15 14.04
12/26/2020 10:00:00 AM 1.16 34.088 0.054 6.6 39.37 14.04
12/26/2020 10:15:00 AM 1.19 34.142 0.054 6.63 32.14 14.04
12/26/2020 10:30:00 AM 1.21 34.178 0.054 6.6 42.7 14.04
12/26/2020 10:45:00 AM 1.24 34.232 0.054 6.63 39.66 14.04
12/26/2020 11:00:00 AM 1.26 34.268 0.054 6.59 37.86 14.03
12/26/2020 11:15:00 AM 1.29 34.322 0.054 6.62 46.16 14.02
12/26/2020 11:30:00 AM 1.32 34.376 0.054 6.6 40.14 14.02
12/26/2020 11:45:00 AM 1.35 34.43 0.055 6.61 34.91 14.01
12/26/2020 12:00:00 PM 1.39 34.502 0.055 6.62 52.33 14
12/26/2020 12:15:00 PM 1.42 34.556 0.055 6.62 30.39 13.99
12/26/2020 12:30:00 PM 1.44 34.592 0.055 6.61 43.89 13.98
12/26/2020 12:45:00 PM 1.46 34.628 0.055 6.62 37.57 13.97
12/26/2020 1:00:00 PM 1.49 34.682 0.055 6.61 37.35 13.96
12/26/2020 1:15:00 PM 1.51 34.718 0.055 6.61 44.1 13.95
12/26/2020 1:30:00 PM 1.52 34.736 0.055 6.62 40.86 13.93
12/26/2020 1:45:00 PM 1.54 34.772 0.056 6.62 38.7 13.93
12/26/2020 2:00:00 PM 1.56 34.808 0.056 6.62 47.62 13.92
12/26/2020 2:15:00 PM 1.57 34.826 0.056 6.63 39.56 13.91
12/26/2020 2:30:00 PM 1.58 34.844 0.056 6.61 25.9 13.9
12/26/2020 2:45:00 PM 1.58 34.844 0.056 6.62 37.88 13.9
12/26/2020 3:00:00 PM 1.58 34.844 0.056 6.62 28.73 13.9
12/26/2020 3:15:00 PM 1.58 34.844 0.056 6.63 34.2 13.89
12/26/2020 3:30:00 PM 1.57 34.826 0.056 6.63 33.97 13.89
12/26/2020 3:45:00 PM 1.56 34.808 0.056 6.62 30.14 13.9
12/26/2020 4:00:00 PM 1.55 34.79 0.057 6.63 40.7 13.89
12/26/2020 4:15:00 PM 1.54 34.772 0.057 6.63 38.63 13.89
12/26/2020 4:30:00 PM 1.54 34.772 0.057 6.63 27.73 13.89
12/26/2020 4:45:00 PM 1.53 34.754 0.057 6.65 22.1 13.9
12/26/2020 5:00:00 PM 1.52 34.736 0.057 6.61 30.03 13.9
12/26/2020 5:15:00 PM 1.51 34.718 0.057 6.65 36.61 13.9
12/26/2020 5:30:00 PM 1.49 34.682 0.057 6.6 29.61 13.9
12/26/2020 5:45:00 PM 1.48 34.664 0.057 6.63 32.88 13.9
12/26/2020 6:00:00 PM 1.46 34.628 0.057 6.64 29.35 13.91
12/26/2020 6:15:00 PM 1.45 34.61 0.057 6.64 23.69 13.91
12/26/2020 6:30:00 PM 1.42 34.556 0.057 6.63 25.65 13.92
12/26/2020 6:45:00 PM 1.41 34.538 0.057 6.65 29.62 13.93
12/26/2020 7:00:00 PM 1.38 34.484 0.057 6.61 28.02 13.93
12/26/2020 7:15:00 PM 1.35 34.43 0.058 6.63 22.27 13.95
12/26/2020 7:30:00 PM 1.32 34.376 0.058 6.63 26.66 13.96
12/26/2020 7:45:00 PM 1.3 34.34 0.058 6.63 47.09 13.97
12/26/2020 8:00:00 PM 1.27 34.286 0.058 6.63 38.39 13.98
12/26/2020 8:15:00 PM 1.23 34.214 0.058 6.64 30.87 13.99
12/26/2020 8:30:00 PM 1.19 34.142 0.058 6.64 27.68 14
12/26/2020 8:45:00 PM 1.17 34.106 0.058 6.64 31.55 14.01
12/26/2020 9:00:00 PM 1.15 34.07 0.058 6.64 28.63 14.02
12/26/2020 9:15:00 PM 1.13 34.034 0.058 6.65 22.45 14.03
12/26/2020 9:30:00 PM 1.12 34.016 0.058 6.62 39.5 14.05
12/26/2020 9:45:00 PM 1.09 33.962 0.058 6.64 33.89 14.06
12/26/2020 10:00:00 PM 1.06 33.908 0.058 6.65 42.12 14.07
12/26/2020 10:15:00 PM 1.04 33.872 0.058 6.64 37.59 14.08
12/26/2020 10:30:00 PM 1.03 33.854 0.058 6.65 20.37 14.09
12/26/2020 10:45:00 PM 1.01 33.818 0.059 6.64 28.05 14.1
12/26/2020 11:00:00 PM 1 33.8 0.059 6.64 26.77 14.11
12/26/2020 11:15:00 PM 0.98 33.764 0.059 6.64 28.07 14.11
12/26/2020 11:30:00 PM 0.97 33.746 0.059 6.64 33.84 14.12
12/26/2020 11:45:00 PM 0.96 33.728 0.059 6.66 34.54 14.13
12/27/2020 12:00:00 AM 0.95 33.71 0.059 6.64 24.96 14.14
12/27/2020 12:15:00 AM 0.93 33.674 0.059 6.65 27.06 14.14
12/27/2020 12:30:00 AM 0.92 33.656 0.059 6.65 32.78 14.15
12/27/2020 12:45:00 AM 0.91 33.638 0.059 6.64 29.61 14.15
12/27/2020 1:00:00 AM 0.91 33.638 0.059 6.65 24.17 14.16
12/27/2020 1:15:00 AM 0.9 33.62 0.059 6.65 24.21 14.16
12/27/2020 1:30:00 AM 0.9 33.62 0.06 6.65 31.04 14.17
12/27/2020 1:45:00 AM 0.89 33.602 0.06 6.66 29.1 14.17
12/27/2020 2:00:00 AM 0.89 33.602 0.06 6.65 25.67 14.18
12/27/2020 2:15:00 AM 0.89 33.602 0.06 6.65 24.69 14.18
12/27/2020 2:30:00 AM 0.89 33.602 0.06 6.65 23.19 14.18
12/27/2020 2:45:00 AM 0.89 33.602 0.06 6.65 23.35 14.18
12/27/2020 3:00:00 AM 0.89 33.602 0.06 6.66 21.58 14.19
12/27/2020 3:15:00 AM 0.89 33.602 0.06 6.66 21.65 14.19
12/27/2020 3:30:00 AM 0.89 33.602 0.06 6.66 20.69 14.19
12/27/2020 3:45:00 AM 0.89 33.602 0.06 6.65 22.03 14.19
12/27/2020 4:00:00 AM 0.9 33.62 0.06 6.67 22.61 14.2
12/27/2020 4:15:00 AM 0.9 33.62 0.06 6.63 22.29 14.19
12/27/2020 4:30:00 AM 0.9 33.62 0.06 6.66 23.55 14.2
12/27/2020 4:45:00 AM 0.91 33.638 0.061 6.68 22.34 14.2
12/27/2020 5:00:00 AM 0.91 33.638 0.061 6.65 37.29 14.2
12/27/2020 5:15:00 AM 0.92 33.656 0.061 6.67 19.31 14.2
12/27/2020 5:30:00 AM 0.92 33.656 0.061 6.66 24.95 14.2
12/27/2020 5:45:00 AM 0.92 33.656 0.061 6.66 26.92 14.2
12/27/2020 6:00:00 AM 0.92 33.656 0.061 6.66 22.45 14.2
12/27/2020 6:15:00 AM 0.93 33.674 0.061 6.67 25.67 14.2
12/27/2020 6:30:00 AM 0.93 33.674 0.061 6.67 21.82 14.2
12/27/2020 6:45:00 AM 0.93 33.674 0.061 6.66 45.89 14.2
12/27/2020 7:00:00 AM 0.94 33.692 0.061 6.66 38.97 14.21
12/27/2020 7:15:00 AM 0.94 33.692 0.061 6.66 29.35 14.21
12/27/2020 7:30:00 AM 0.94 33.692 0.061 6.67 30.5 14.21
12/27/2020 7:45:00 AM 0.95 33.71 0.061 6.66 34.65 14.21
12/27/2020 8:00:00 AM 0.95 33.71 0.061 6.65 26.97 14.21
12/27/2020 8:15:00 AM 0.96 33.728 0.061 6.67 24.58 14.21
12/27/2020 8:30:00 AM 0.98 33.764 0.062 6.67 30.2 14.21
12/27/2020 8:45:00 AM 0.99 33.782 0.061 6.67 23.36 14.21
12/27/2020 9:00:00 AM 1 33.8 0.062 6.69 16.53 14.21
12/27/2020 9:15:00 AM 1.02 33.836 0.062 6.66 22.63 14.21
12/27/2020 9:30:00 AM 1.04 33.872 0.062 6.66 21.05 14.21
12/27/2020 9:45:00 AM 1.05 33.89 0.062 6.68 20.53 14.2
12/27/2020 10:00:00 AM 1.07 33.926 0.062 6.67 19.91 14.2
12/27/2020 10:15:00 AM 1.09 33.962 0.062 6.67 24.47 14.2
12/27/2020 10:30:00 AM 1.13 34.034 0.062 6.67 22.72 14.2
12/27/2020 10:45:00 AM 1.16 34.088 0.063 6.69 28.05 14.19
12/27/2020 11:00:00 AM 1.2 34.16 0.062 6.67 25.87 14.19
12/27/2020 11:15:00 AM 1.25 34.25 0.063 6.68 19.96 14.18
12/27/2020 11:30:00 AM 1.3 34.34 0.063 6.68 18.81 14.17
12/27/2020 11:45:00 AM 1.34 34.412 0.062 6.68 18.62 14.16
12/27/2020 12:00:00 PM 1.4 34.52 0.062 6.69 30.81 14.15
12/27/2020 12:15:00 PM 1.46 34.628 0.062 6.7 28.27 14.13
12/27/2020 12:30:00 PM 1.53 34.754 0.063 6.68 25.69 14.12
12/27/2020 12:45:00 PM 1.58 34.844 0.063 6.69 27.68 14.1
12/27/2020 1:00:00 PM 1.64 34.952 0.063 6.69 22.98 14.09
12/27/2020 1:15:00 PM 1.7 35.06 0.063 6.69 26.31 14.07
12/27/2020 1:30:00 PM 1.75 35.15 0.063 6.7 19.19 14.05
12/27/2020 1:45:00 PM 1.79 35.222 0.063 6.7 20.23 14.03
12/27/2020 2:00:00 PM 1.83 35.294 0.063 6.7 20.03 14.02
12/27/2020 2:15:00 PM 1.86 35.348 0.063 6.67 24.25 14
12/27/2020 2:30:00 PM 1.89 35.402 0.063 6.69 21.29 13.98
12/27/2020 2:45:00 PM 1.9 35.42 0.063 6.71 20.98 13.97
12/27/2020 3:00:00 PM 1.93 35.474 0.063 6.66 20.45 13.95
12/27/2020 3:15:00 PM 1.95 35.51 0.063 6.69 42.58 13.94
12/27/2020 3:30:00 PM 1.96 35.528 0.063 6.69 38.76 13.92
12/27/2020 3:45:00 PM 1.97 35.546 0.063 6.69 28.54 13.91
12/27/2020 4:00:00 PM 1.97 35.546 0.063 6.7 23.57 13.9
12/27/2020 4:15:00 PM 1.98 35.564 0.063 6.7 21.59 13.89
12/27/2020 4:30:00 PM 1.97 35.546 0.063 6.71 20.06 13.88
12/27/2020 4:45:00 PM 1.96 35.528 0.063 6.69 22.83 13.88
12/27/2020 5:00:00 PM 1.94 35.492 0.063 6.71 16.13 13.87
12/27/2020 5:15:00 PM 1.92 35.456 0.063 6.68 19.88 13.87
12/27/2020 5:30:00 PM 1.9 35.42 0.063 6.69 32.03 13.87
12/27/2020 5:45:00 PM 1.88 35.384 0.063 6.68 65.52 13.88
12/27/2020 6:00:00 PM 1.85 35.33 0.063 6.69 27.61 13.88
12/27/2020 6:15:00 PM 1.82 35.276 0.064 6.7 24.77 13.89
12/27/2020 6:30:00 PM 1.79 35.222 0.064 6.71 21.8 13.89
12/27/2020 6:45:00 PM 1.76 35.168 0.064 6.71 16.17 13.9
12/27/2020 7:00:00 PM 1.72 35.096 0.064 6.69 14.3 13.91
12/27/2020 7:15:00 PM 1.69 35.042 0.064 6.7 20 13.91
12/27/2020 7:30:00 PM 1.66 34.988 0.064 6.7 18.91 13.92
12/27/2020 7:45:00 PM 1.63 34.934 0.064 6.69 18.83 13.93
12/27/2020 8:00:00 PM 1.6 34.88 0.064 6.7 19.32 13.94
12/27/2020 8:15:00 PM 1.58 34.844 0.064 6.69 18.9 13.95
12/27/2020 8:30:00 PM 1.55 34.79 0.065 6.7 18.03 13.96
12/27/2020 8:45:00 PM 1.52 34.736 0.065 6.71 18.69 13.96
12/27/2020 9:00:00 PM 1.5 34.7 0.065 6.71 18.9 13.97
12/27/2020 9:15:00 PM 1.47 34.646 0.065 6.68 18.35 13.98
12/27/2020 9:30:00 PM 1.44 34.592 0.065 6.7 18.84 13.99
12/27/2020 9:45:00 PM 1.42 34.556 0.065 6.7 18.48 14
12/27/2020 10:00:00 PM 1.39 34.502 0.065 6.7 17.7 14
12/27/2020 10:15:00 PM 1.38 34.484 0.065 6.7 18.48 14.01
12/27/2020 10:30:00 PM 1.36 34.448 0.065 6.72 17.63 14.02
12/27/2020 10:45:00 PM 1.35 34.43 0.065 6.68 18.1 14.02
12/27/2020 11:00:00 PM 1.33 34.394 0.065 6.72 17.29 14.03
12/27/2020 11:15:00 PM 1.31 34.358 0.065 6.7 17.75 14.04
12/27/2020 11:30:00 PM 1.3 34.34 0.065 6.71 17.95 14.04
12/27/2020 11:45:00 PM 1.29 34.322 0.065 6.71 17.03 14.04
12/28/2020 12:00:00 AM 1.28 34.304 0.065 6.7 16.72 14.05
12/28/2020 12:15:00 AM 1.27 34.286 0.065 6.73 16.9 14.05
12/28/2020 12:30:00 AM 1.26 34.268 0.065 6.69 16.69 14.05
12/28/2020 12:45:00 AM 1.25 34.25 0.065 6.72 16.77 14.06
12/28/2020 1:00:00 AM 1.24 34.232 0.065 6.71 16.43 14.06
12/28/2020 1:15:00 AM 1.23 34.214 0.065 6.73 17.08 14.06
12/28/2020 1:30:00 AM 1.22 34.196 0.065 6.69 17.72 14.06
12/28/2020 1:45:00 AM 1.21 34.178 0.065 6.71 17.05 14.06
12/28/2020 2:00:00 AM 1.2 34.16 0.065 6.73 16.86 14.06
12/28/2020 2:15:00 AM 1.2 34.16 0.065 6.7 16.08 14.07
12/28/2020 2:30:00 AM 1.19 34.142 0.065 6.7 19.04 14.07
12/28/2020 2:45:00 AM 1.19 34.142 0.065 6.71 17.42 14.07
12/28/2020 3:00:00 AM 1.18 34.124 0.065 6.72 16.58 14.06
12/28/2020 3:15:00 AM 1.17 34.106 0.065 6.68 15.99 14.06
12/28/2020 3:30:00 AM 1.16 34.088 0.065 6.71 15.56 14.06
12/28/2020 3:45:00 AM 1.16 34.088 0.065 6.73 15.63 14.06
12/28/2020 4:00:00 AM 1.16 34.088 0.065 6.71 14.85 14.06
12/28/2020 4:15:00 AM 1.16 34.088 0.065 6.72 15.55 14.06
12/28/2020 4:30:00 AM 1.16 34.088 0.066 6.73 15.34 14.06
12/28/2020 4:45:00 AM 1.16 34.088 0.066 6.71 15.59 14.06
12/28/2020 5:00:00 AM 1.16 34.088 0.066 6.73 15.1 14.06
12/28/2020 5:15:00 AM 1.17 34.106 0.066 6.72 15.77 14.05
12/28/2020 5:30:00 AM 1.17 34.106 0.066 6.73 15.17 14.05
12/28/2020 5:45:00 AM 1.18 34.124 0.066 6.73 14.62 14.05
12/28/2020 6:00:00 AM 1.19 34.142 0.066 6.73 15.18 14.05
12/28/2020 6:15:00 AM 1.21 34.178 0.066 6.68 14.6 14.04
12/28/2020 6:30:00 AM 1.2 34.16 0.066 6.73 14.9 14.04
12/28/2020 6:45:00 AM 1.16 34.088 0.066 6.69 14.71 14.03
12/28/2020 7:00:00 AM 1.14 34.052 0.066 6.73 13.95 14.03
12/28/2020 7:15:00 AM 1.15 34.07 0.066 6.68 15.03 14.03
12/28/2020 7:30:00 AM 1.17 34.106 0.066 6.74 14.43 14.04
12/28/2020 7:45:00 AM 1.19 34.142 0.066 6.69 13.92 14.03
12/28/2020 8:00:00 AM 1.2 34.16 0.066 6.75 14.15 14.03
12/28/2020 8:15:00 AM 1.21 34.178 0.066 6.71 14.16 14.03
12/28/2020 8:30:00 AM 1.24 34.232 0.066 6.74 14.74 14.03
12/28/2020 8:45:00 AM 1.27 34.286 0.066 6.7 14.09 14.02
12/28/2020 9:00:00 AM 1.31 34.358 0.066 6.74 13.79 14.01
12/28/2020 9:15:00 AM